<?xml version="1.0" encoding="UTF-8" standalone="no" ?>
<gpx xmlns="http://www.topografix.com/GPX/1/1" xmlns:xsi="http://www.w3.org/2001/XMLSchema-instance" xsi:schemaLocation="http://www.topografix.com/GPX/1/1 http://www.topografix.com/GPX/1/1/gpx.xsd" version="1.1" creator="VisuGPX - https://www.visugpx.com">
  <metadata>
    <name>Refuge de la Valette</name>
    <desc><![CDATA[Les Prioux, les Béverier, le cirque des Nants, le chalet des Nants, le refuge de la Valette, la ruine du refuge du Lac ; retour par le même chemin.]]></desc>
  </metadata>
  <trk>
    <name><![CDATA[Refuge de la Valette_1]]></name>
    <trkseg>
      <trkpt lat="45.34658" lon="6.70117">
        <ele>1750.7</ele>
        <time>2019-09-13T06:44:28Z</time>
      </trkpt>
      <trkpt lat="45.34677" lon="6.70122">
        <ele>1714.65</ele>
        <time>2019-09-13T06:50:12Z</time>
      </trkpt>
      <trkpt lat="45.34677" lon="6.70123">
        <ele>1714.65</ele>
        <time>2019-09-13T06:50:32Z</time>
      </trkpt>
      <trkpt lat="45.34677" lon="6.70124">
        <ele>1714.65</ele>
        <time>2019-09-13T06:50:50Z</time>
      </trkpt>
      <trkpt lat="45.34678" lon="6.70127">
        <ele>1716.57</ele>
        <time>2019-09-13T06:50:58Z</time>
      </trkpt>
      <trkpt lat="45.3469" lon="6.70134">
        <ele>1718.49</ele>
        <time>2019-09-13T06:51:10Z</time>
      </trkpt>
      <trkpt lat="45.34692" lon="6.70135">
        <ele>1718.49</ele>
        <time>2019-09-13T06:51:12Z</time>
      </trkpt>
      <trkpt lat="45.34693" lon="6.70143">
        <ele>1717.53</ele>
        <time>2019-09-13T06:51:21Z</time>
      </trkpt>
      <trkpt lat="45.34691" lon="6.70145">
        <ele>1717.53</ele>
        <time>2019-09-13T06:51:23Z</time>
      </trkpt>
      <trkpt lat="45.34683" lon="6.70157">
        <ele>1715.61</ele>
        <time>2019-09-13T06:51:33Z</time>
      </trkpt>
      <trkpt lat="45.34681" lon="6.70161">
        <ele>1715.61</ele>
        <time>2019-09-13T06:51:36Z</time>
      </trkpt>
      <trkpt lat="45.34679" lon="6.70162">
        <ele>1716.09</ele>
        <time>2019-09-13T06:51:38Z</time>
      </trkpt>
      <trkpt lat="45.34676" lon="6.70166">
        <ele>1716.57</ele>
        <time>2019-09-13T06:51:41Z</time>
      </trkpt>
      <trkpt lat="45.34674" lon="6.70167">
        <ele>1716.09</ele>
        <time>2019-09-13T06:51:44Z</time>
      </trkpt>
      <trkpt lat="45.3467" lon="6.70165">
        <ele>1715.61</ele>
        <time>2019-09-13T06:51:48Z</time>
      </trkpt>
      <trkpt lat="45.34659" lon="6.70153">
        <ele>1716.57</ele>
        <time>2019-09-13T06:52:00Z</time>
      </trkpt>
      <trkpt lat="45.34642" lon="6.70139">
        <ele>1717.53</ele>
        <time>2019-09-13T06:52:19Z</time>
      </trkpt>
      <trkpt lat="45.34639" lon="6.70135">
        <ele>1718.01</ele>
        <time>2019-09-13T06:52:23Z</time>
      </trkpt>
      <trkpt lat="45.34638" lon="6.70132">
        <ele>1718.01</ele>
        <time>2019-09-13T06:52:25Z</time>
      </trkpt>
      <trkpt lat="45.34631" lon="6.70124">
        <ele>1718.97</ele>
        <time>2019-09-13T06:52:33Z</time>
      </trkpt>
      <trkpt lat="45.3463" lon="6.70122">
        <ele>1719.46</ele>
        <time>2019-09-13T06:52:35Z</time>
      </trkpt>
      <trkpt lat="45.34611" lon="6.70107">
        <ele>1719.46</ele>
        <time>2019-09-13T06:52:55Z</time>
      </trkpt>
      <trkpt lat="45.34606" lon="6.70104">
        <ele>1719.46</ele>
        <time>2019-09-13T06:53:01Z</time>
      </trkpt>
      <trkpt lat="45.34602" lon="6.70103">
        <ele>1718.97</ele>
        <time>2019-09-13T06:53:05Z</time>
      </trkpt>
      <trkpt lat="45.34596" lon="6.70098">
        <ele>1719.94</ele>
        <time>2019-09-13T06:53:12Z</time>
      </trkpt>
      <trkpt lat="45.3459" lon="6.70095">
        <ele>1720.42</ele>
        <time>2019-09-13T06:53:17Z</time>
      </trkpt>
      <trkpt lat="45.34574" lon="6.70086">
        <ele>1719.94</ele>
        <time>2019-09-13T06:53:33Z</time>
      </trkpt>
      <trkpt lat="45.34568" lon="6.70084">
        <ele>1720.42</ele>
        <time>2019-09-13T06:53:40Z</time>
      </trkpt>
      <trkpt lat="45.34563" lon="6.70083">
        <ele>1720.9</ele>
        <time>2019-09-13T06:53:46Z</time>
      </trkpt>
      <trkpt lat="45.34554" lon="6.70083">
        <ele>1721.38</ele>
        <time>2019-09-13T06:53:54Z</time>
      </trkpt>
      <trkpt lat="45.34546" lon="6.70082">
        <ele>1722.34</ele>
        <time>2019-09-13T06:54:06Z</time>
      </trkpt>
      <trkpt lat="45.34536" lon="6.70082">
        <ele>1722.82</ele>
        <time>2019-09-13T06:54:22Z</time>
      </trkpt>
      <trkpt lat="45.34534" lon="6.70085">
        <ele>1722.34</ele>
        <time>2019-09-13T06:54:26Z</time>
      </trkpt>
      <trkpt lat="45.3453" lon="6.7009">
        <ele>1723.78</ele>
        <time>2019-09-13T06:54:33Z</time>
      </trkpt>
      <trkpt lat="45.34533" lon="6.70098">
        <ele>1724.74</ele>
        <time>2019-09-13T06:54:51Z</time>
      </trkpt>
      <trkpt lat="45.34537" lon="6.70101">
        <ele>1725.7</ele>
        <time>2019-09-13T06:54:58Z</time>
      </trkpt>
      <trkpt lat="45.34544" lon="6.70106">
        <ele>1728.11</ele>
        <time>2019-09-13T06:55:14Z</time>
      </trkpt>
      <trkpt lat="45.34556" lon="6.70114">
        <ele>1731.95</ele>
        <time>2019-09-13T06:55:30Z</time>
      </trkpt>
      <trkpt lat="45.34561" lon="6.7012">
        <ele>1732.43</ele>
        <time>2019-09-13T06:55:44Z</time>
      </trkpt>
      <trkpt lat="45.34571" lon="6.70132">
        <ele>1736.76</ele>
        <time>2019-09-13T06:56:03Z</time>
      </trkpt>
      <trkpt lat="45.34587" lon="6.70146">
        <ele>1737.72</ele>
        <time>2019-09-13T06:56:21Z</time>
      </trkpt>
      <trkpt lat="45.34588" lon="6.70147">
        <ele>1737.24</ele>
        <time>2019-09-13T06:56:22Z</time>
      </trkpt>
      <trkpt lat="45.34595" lon="6.70151">
        <ele>1738.68</ele>
        <time>2019-09-13T06:56:32Z</time>
      </trkpt>
      <trkpt lat="45.34604" lon="6.7016">
        <ele>1740.6</ele>
        <time>2019-09-13T06:56:46Z</time>
      </trkpt>
      <trkpt lat="45.34608" lon="6.70165">
        <ele>1740.6</ele>
        <time>2019-09-13T06:56:51Z</time>
      </trkpt>
      <trkpt lat="45.34615" lon="6.70172">
        <ele>1740.6</ele>
        <time>2019-09-13T06:57:00Z</time>
      </trkpt>
      <trkpt lat="45.3462" lon="6.70179">
        <ele>1742.53</ele>
        <time>2019-09-13T06:57:10Z</time>
      </trkpt>
      <trkpt lat="45.34628" lon="6.7019">
        <ele>1743.49</ele>
        <time>2019-09-13T06:57:24Z</time>
      </trkpt>
      <trkpt lat="45.3464" lon="6.7021">
        <ele>1748.29</ele>
        <time>2019-09-13T06:57:45Z</time>
      </trkpt>
      <trkpt lat="45.34644" lon="6.70224">
        <ele>1749.26</ele>
        <time>2019-09-13T06:58:02Z</time>
      </trkpt>
      <trkpt lat="45.34646" lon="6.70239">
        <ele>1749.74</ele>
        <time>2019-09-13T06:58:21Z</time>
      </trkpt>
      <trkpt lat="45.34648" lon="6.70252">
        <ele>1750.7</ele>
        <time>2019-09-13T06:58:41Z</time>
      </trkpt>
      <trkpt lat="45.3465" lon="6.70265">
        <ele>1752.62</ele>
        <time>2019-09-13T06:59:00Z</time>
      </trkpt>
      <trkpt lat="45.34653" lon="6.70275">
        <ele>1755.99</ele>
        <time>2019-09-13T06:59:18Z</time>
      </trkpt>
      <trkpt lat="45.34651" lon="6.70285">
        <ele>1759.83</ele>
        <time>2019-09-13T06:59:36Z</time>
      </trkpt>
      <trkpt lat="45.3465" lon="6.70292">
        <ele>1763.2</ele>
        <time>2019-09-13T06:59:54Z</time>
      </trkpt>
      <trkpt lat="45.34657" lon="6.70307">
        <ele>1767.52</ele>
        <time>2019-09-13T07:00:11Z</time>
      </trkpt>
      <trkpt lat="45.3466" lon="6.70317">
        <ele>1769.92</ele>
        <time>2019-09-13T07:00:31Z</time>
      </trkpt>
      <trkpt lat="45.34665" lon="6.7033">
        <ele>1772.81</ele>
        <time>2019-09-13T07:00:48Z</time>
      </trkpt>
      <trkpt lat="45.34669" lon="6.70344">
        <ele>1775.21</ele>
        <time>2019-09-13T07:01:07Z</time>
      </trkpt>
      <trkpt lat="45.34669" lon="6.70345">
        <ele>1775.21</ele>
        <time>2019-09-13T07:01:26Z</time>
      </trkpt>
      <trkpt lat="45.34669" lon="6.70345">
        <ele>1775.21</ele>
        <time>2019-09-13T07:01:31Z</time>
      </trkpt>
      <trkpt lat="45.34674" lon="6.70369">
        <ele>1772.33</ele>
        <time>2019-09-13T07:01:50Z</time>
      </trkpt>
      <trkpt lat="45.34681" lon="6.70385">
        <ele>1775.21</ele>
        <time>2019-09-13T07:02:11Z</time>
      </trkpt>
      <trkpt lat="45.34683" lon="6.70394">
        <ele>1777.13</ele>
        <time>2019-09-13T07:02:31Z</time>
      </trkpt>
      <trkpt lat="45.34684" lon="6.70402">
        <ele>1780.5</ele>
        <time>2019-09-13T07:02:49Z</time>
      </trkpt>
      <trkpt lat="45.34685" lon="6.70411">
        <ele>1783.38</ele>
        <time>2019-09-13T07:03:06Z</time>
      </trkpt>
      <trkpt lat="45.3468" lon="6.7041">
        <ele>1786.75</ele>
        <time>2019-09-13T07:03:24Z</time>
      </trkpt>
      <trkpt lat="45.3468" lon="6.7042">
        <ele>1790.11</ele>
        <time>2019-09-13T07:03:42Z</time>
      </trkpt>
      <trkpt lat="45.34682" lon="6.7043">
        <ele>1793.48</ele>
        <time>2019-09-13T07:04:01Z</time>
      </trkpt>
      <trkpt lat="45.34678" lon="6.70436">
        <ele>1796.36</ele>
        <time>2019-09-13T07:04:19Z</time>
      </trkpt>
      <trkpt lat="45.3468" lon="6.70445">
        <ele>1799.24</ele>
        <time>2019-09-13T07:04:40Z</time>
      </trkpt>
      <trkpt lat="45.3468" lon="6.70456">
        <ele>1803.09</ele>
        <time>2019-09-13T07:05:01Z</time>
      </trkpt>
      <trkpt lat="45.34679" lon="6.70466">
        <ele>1805.97</ele>
        <time>2019-09-13T07:05:18Z</time>
      </trkpt>
      <trkpt lat="45.34679" lon="6.7048">
        <ele>1810.3</ele>
        <time>2019-09-13T07:05:40Z</time>
      </trkpt>
      <trkpt lat="45.34676" lon="6.7049">
        <ele>1810.78</ele>
        <time>2019-09-13T07:05:57Z</time>
      </trkpt>
      <trkpt lat="45.34669" lon="6.705">
        <ele>1812.22</ele>
        <time>2019-09-13T07:06:17Z</time>
      </trkpt>
      <trkpt lat="45.3466" lon="6.70501">
        <ele>1814.63</ele>
        <time>2019-09-13T07:06:37Z</time>
      </trkpt>
      <trkpt lat="45.34657" lon="6.70498">
        <ele>1816.07</ele>
        <time>2019-09-13T07:06:57Z</time>
      </trkpt>
      <trkpt lat="45.34653" lon="6.70489">
        <ele>1818.95</ele>
        <time>2019-09-13T07:07:18Z</time>
      </trkpt>
      <trkpt lat="45.34645" lon="6.70482">
        <ele>1821.35</ele>
        <time>2019-09-13T07:07:34Z</time>
      </trkpt>
      <trkpt lat="45.34639" lon="6.70479">
        <ele>1825.2</ele>
        <time>2019-09-13T07:07:53Z</time>
      </trkpt>
      <trkpt lat="45.3463" lon="6.70477">
        <ele>1825.2</ele>
        <time>2019-09-13T07:08:10Z</time>
      </trkpt>
      <trkpt lat="45.34622" lon="6.70476">
        <ele>1828.56</ele>
        <time>2019-09-13T07:08:31Z</time>
      </trkpt>
      <trkpt lat="45.34616" lon="6.70476">
        <ele>1830.49</ele>
        <time>2019-09-13T07:08:51Z</time>
      </trkpt>
      <trkpt lat="45.3461" lon="6.70473">
        <ele>1830.01</ele>
        <time>2019-09-13T07:09:08Z</time>
      </trkpt>
      <trkpt lat="45.34608" lon="6.70478">
        <ele>1829.53</ele>
        <time>2019-09-13T07:09:29Z</time>
      </trkpt>
      <trkpt lat="45.34609" lon="6.70485">
        <ele>1831.45</ele>
        <time>2019-09-13T07:09:45Z</time>
      </trkpt>
      <trkpt lat="45.34606" lon="6.70495">
        <ele>1834.81</ele>
        <time>2019-09-13T07:10:07Z</time>
      </trkpt>
      <trkpt lat="45.34601" lon="6.70501">
        <ele>1836.74</ele>
        <time>2019-09-13T07:10:25Z</time>
      </trkpt>
      <trkpt lat="45.34594" lon="6.70499">
        <ele>1839.14</ele>
        <time>2019-09-13T07:10:37Z</time>
      </trkpt>
      <trkpt lat="45.34587" lon="6.70497">
        <ele>1844.43</ele>
        <time>2019-09-13T07:10:58Z</time>
      </trkpt>
      <trkpt lat="45.34582" lon="6.70501">
        <ele>1845.39</ele>
        <time>2019-09-13T07:11:14Z</time>
      </trkpt>
      <trkpt lat="45.34577" lon="6.70506">
        <ele>1844.91</ele>
        <time>2019-09-13T07:11:32Z</time>
      </trkpt>
      <trkpt lat="45.34576" lon="6.70513">
        <ele>1847.31</ele>
        <time>2019-09-13T07:11:53Z</time>
      </trkpt>
      <trkpt lat="45.34576" lon="6.70517">
        <ele>1848.75</ele>
        <time>2019-09-13T07:11:56Z</time>
      </trkpt>
      <trkpt lat="45.34577" lon="6.70526">
        <ele>1850.19</ele>
        <time>2019-09-13T07:12:06Z</time>
      </trkpt>
      <trkpt lat="45.34574" lon="6.70529">
        <ele>1853.56</ele>
        <time>2019-09-13T07:12:22Z</time>
      </trkpt>
      <trkpt lat="45.34564" lon="6.70522">
        <ele>1852.6</ele>
        <time>2019-09-13T07:12:42Z</time>
      </trkpt>
      <trkpt lat="45.34554" lon="6.70519">
        <ele>1853.56</ele>
        <time>2019-09-13T07:13:02Z</time>
      </trkpt>
      <trkpt lat="45.34551" lon="6.70524">
        <ele>1857.89</ele>
        <time>2019-09-13T07:13:19Z</time>
      </trkpt>
      <trkpt lat="45.3455" lon="6.70535">
        <ele>1861.73</ele>
        <time>2019-09-13T07:13:35Z</time>
      </trkpt>
      <trkpt lat="45.34539" lon="6.70535">
        <ele>1863.65</ele>
        <time>2019-09-13T07:13:56Z</time>
      </trkpt>
      <trkpt lat="45.34531" lon="6.70538">
        <ele>1865.09</ele>
        <time>2019-09-13T07:14:15Z</time>
      </trkpt>
      <trkpt lat="45.34522" lon="6.70538">
        <ele>1867.02</ele>
        <time>2019-09-13T07:14:36Z</time>
      </trkpt>
      <trkpt lat="45.34519" lon="6.7054">
        <ele>1868.94</ele>
        <time>2019-09-13T07:14:52Z</time>
      </trkpt>
      <trkpt lat="45.34512" lon="6.70543">
        <ele>1872.3</ele>
        <time>2019-09-13T07:15:08Z</time>
      </trkpt>
      <trkpt lat="45.3451" lon="6.70544">
        <ele>1874.23</ele>
        <time>2019-09-13T07:15:26Z</time>
      </trkpt>
      <trkpt lat="45.34509" lon="6.70551">
        <ele>1878.07</ele>
        <time>2019-09-13T07:15:44Z</time>
      </trkpt>
      <trkpt lat="45.34508" lon="6.70559">
        <ele>1880</ele>
        <time>2019-09-13T07:16:00Z</time>
      </trkpt>
      <trkpt lat="45.34502" lon="6.70561">
        <ele>1882.88</ele>
        <time>2019-09-13T07:16:21Z</time>
      </trkpt>
      <trkpt lat="45.34493" lon="6.70557">
        <ele>1885.28</ele>
        <time>2019-09-13T07:16:41Z</time>
      </trkpt>
      <trkpt lat="45.34488" lon="6.7055">
        <ele>1885.76</ele>
        <time>2019-09-13T07:16:59Z</time>
      </trkpt>
      <trkpt lat="45.34484" lon="6.70556">
        <ele>1887.69</ele>
        <time>2019-09-13T07:17:19Z</time>
      </trkpt>
      <trkpt lat="45.34485" lon="6.70564">
        <ele>1888.65</ele>
        <time>2019-09-13T07:17:36Z</time>
      </trkpt>
      <trkpt lat="45.34483" lon="6.70574">
        <ele>1892.97</ele>
        <time>2019-09-13T07:17:54Z</time>
      </trkpt>
      <trkpt lat="45.34487" lon="6.70587">
        <ele>1895.86</ele>
        <time>2019-09-13T07:18:13Z</time>
      </trkpt>
      <trkpt lat="45.34491" lon="6.70599">
        <ele>1896.82</ele>
        <time>2019-09-13T07:18:31Z</time>
      </trkpt>
      <trkpt lat="45.34497" lon="6.70607">
        <ele>1899.22</ele>
        <time>2019-09-13T07:18:50Z</time>
      </trkpt>
      <trkpt lat="45.34502" lon="6.70622">
        <ele>1902.11</ele>
        <time>2019-09-13T07:19:10Z</time>
      </trkpt>
      <trkpt lat="45.34503" lon="6.7063">
        <ele>1905.47</ele>
        <time>2019-09-13T07:19:27Z</time>
      </trkpt>
      <trkpt lat="45.34505" lon="6.70641">
        <ele>1908.35</ele>
        <time>2019-09-13T07:19:45Z</time>
      </trkpt>
      <trkpt lat="45.34508" lon="6.70651">
        <ele>1910.76</ele>
        <time>2019-09-13T07:20:04Z</time>
      </trkpt>
      <trkpt lat="45.3451" lon="6.70658">
        <ele>1915.08</ele>
        <time>2019-09-13T07:20:22Z</time>
      </trkpt>
      <trkpt lat="45.3451" lon="6.70668">
        <ele>1914.12</ele>
        <time>2019-09-13T07:20:44Z</time>
      </trkpt>
      <trkpt lat="45.34511" lon="6.70674">
        <ele>1913.64</ele>
        <time>2019-09-13T07:21:04Z</time>
      </trkpt>
      <trkpt lat="45.34513" lon="6.70689">
        <ele>1913.64</ele>
        <time>2019-09-13T07:21:22Z</time>
      </trkpt>
      <trkpt lat="45.34516" lon="6.70701">
        <ele>1914.6</ele>
        <time>2019-09-13T07:21:40Z</time>
      </trkpt>
      <trkpt lat="45.34513" lon="6.70706">
        <ele>1916.53</ele>
        <time>2019-09-13T07:21:58Z</time>
      </trkpt>
      <trkpt lat="45.34503" lon="6.70704">
        <ele>1919.41</ele>
        <time>2019-09-13T07:22:15Z</time>
      </trkpt>
      <trkpt lat="45.34494" lon="6.70699">
        <ele>1921.81</ele>
        <time>2019-09-13T07:22:33Z</time>
      </trkpt>
      <trkpt lat="45.34489" lon="6.70692">
        <ele>1923.74</ele>
        <time>2019-09-13T07:22:50Z</time>
      </trkpt>
      <trkpt lat="45.34483" lon="6.70687">
        <ele>1925.18</ele>
        <time>2019-09-13T07:23:07Z</time>
      </trkpt>
      <trkpt lat="45.34475" lon="6.70685">
        <ele>1926.14</ele>
        <time>2019-09-13T07:23:27Z</time>
      </trkpt>
      <trkpt lat="45.34469" lon="6.70687">
        <ele>1928.06</ele>
        <time>2019-09-13T07:23:43Z</time>
      </trkpt>
      <trkpt lat="45.34464" lon="6.70691">
        <ele>1929.98</ele>
        <time>2019-09-13T07:23:59Z</time>
      </trkpt>
      <trkpt lat="45.34459" lon="6.70691">
        <ele>1931.91</ele>
        <time>2019-09-13T07:24:13Z</time>
      </trkpt>
      <trkpt lat="45.34459" lon="6.70696">
        <ele>1932.87</ele>
        <time>2019-09-13T07:24:28Z</time>
      </trkpt>
      <trkpt lat="45.34457" lon="6.70702">
        <ele>1935.27</ele>
        <time>2019-09-13T07:24:45Z</time>
      </trkpt>
      <trkpt lat="45.34462" lon="6.70717">
        <ele>1938.16</ele>
        <time>2019-09-13T07:25:02Z</time>
      </trkpt>
      <trkpt lat="45.34459" lon="6.70734">
        <ele>1937.67</ele>
        <time>2019-09-13T07:25:22Z</time>
      </trkpt>
      <trkpt lat="45.34458" lon="6.70738">
        <ele>1938.16</ele>
        <time>2019-09-13T07:25:26Z</time>
      </trkpt>
      <trkpt lat="45.34453" lon="6.70756">
        <ele>1942</ele>
        <time>2019-09-13T07:25:47Z</time>
      </trkpt>
      <trkpt lat="45.34446" lon="6.70772">
        <ele>1942</ele>
        <time>2019-09-13T07:26:08Z</time>
      </trkpt>
      <trkpt lat="45.34446" lon="6.70789">
        <ele>1942.96</ele>
        <time>2019-09-13T07:26:30Z</time>
      </trkpt>
      <trkpt lat="45.34448" lon="6.70809">
        <ele>1944.4</ele>
        <time>2019-09-13T07:26:51Z</time>
      </trkpt>
      <trkpt lat="45.34451" lon="6.70821">
        <ele>1945.85</ele>
        <time>2019-09-13T07:27:08Z</time>
      </trkpt>
      <trkpt lat="45.34454" lon="6.70829">
        <ele>1946.33</ele>
        <time>2019-09-13T07:27:27Z</time>
      </trkpt>
      <trkpt lat="45.3445" lon="6.70842">
        <ele>1946.33</ele>
        <time>2019-09-13T07:27:43Z</time>
      </trkpt>
      <trkpt lat="45.34452" lon="6.7086">
        <ele>1947.77</ele>
        <time>2019-09-13T07:28:00Z</time>
      </trkpt>
      <trkpt lat="45.34458" lon="6.70875">
        <ele>1951.61</ele>
        <time>2019-09-13T07:28:20Z</time>
      </trkpt>
      <trkpt lat="45.34462" lon="6.70887">
        <ele>1955.46</ele>
        <time>2019-09-13T07:28:41Z</time>
      </trkpt>
      <trkpt lat="45.34469" lon="6.70897">
        <ele>1958.34</ele>
        <time>2019-09-13T07:28:58Z</time>
      </trkpt>
      <trkpt lat="45.34477" lon="6.70913">
        <ele>1960.75</ele>
        <time>2019-09-13T07:29:17Z</time>
      </trkpt>
      <trkpt lat="45.34485" lon="6.70923">
        <ele>1962.19</ele>
        <time>2019-09-13T07:29:37Z</time>
      </trkpt>
      <trkpt lat="45.34491" lon="6.70933">
        <ele>1966.03</ele>
        <time>2019-09-13T07:29:56Z</time>
      </trkpt>
      <trkpt lat="45.34499" lon="6.70937">
        <ele>1965.55</ele>
        <time>2019-09-13T07:30:15Z</time>
      </trkpt>
      <trkpt lat="45.34508" lon="6.70939">
        <ele>1965.07</ele>
        <time>2019-09-13T07:30:37Z</time>
      </trkpt>
      <trkpt lat="45.34516" lon="6.70933">
        <ele>1966.51</ele>
        <time>2019-09-13T07:30:55Z</time>
      </trkpt>
      <trkpt lat="45.34526" lon="6.70941">
        <ele>1968.92</ele>
        <time>2019-09-13T07:31:14Z</time>
      </trkpt>
      <trkpt lat="45.34532" lon="6.70942">
        <ele>1970.84</ele>
        <time>2019-09-13T07:31:32Z</time>
      </trkpt>
      <trkpt lat="45.34538" lon="6.70943">
        <ele>1972.76</ele>
        <time>2019-09-13T07:31:49Z</time>
      </trkpt>
      <trkpt lat="45.34536" lon="6.70958">
        <ele>1974.69</ele>
        <time>2019-09-13T07:32:06Z</time>
      </trkpt>
      <trkpt lat="45.34541" lon="6.7097">
        <ele>1979.49</ele>
        <time>2019-09-13T07:32:28Z</time>
      </trkpt>
      <trkpt lat="45.34544" lon="6.70979">
        <ele>1982.86</ele>
        <time>2019-09-13T07:32:46Z</time>
      </trkpt>
      <trkpt lat="45.34537" lon="6.70983">
        <ele>1981.41</ele>
        <time>2019-09-13T07:32:57Z</time>
      </trkpt>
      <trkpt lat="45.34526" lon="6.70985">
        <ele>1982.38</ele>
        <time>2019-09-13T07:33:15Z</time>
      </trkpt>
      <trkpt lat="45.34516" lon="6.70991">
        <ele>1982.86</ele>
        <time>2019-09-13T07:33:34Z</time>
      </trkpt>
      <trkpt lat="45.34507" lon="6.70998">
        <ele>1986.7</ele>
        <time>2019-09-13T07:33:57Z</time>
      </trkpt>
      <trkpt lat="45.345" lon="6.71">
        <ele>1990.07</ele>
        <time>2019-09-13T07:34:15Z</time>
      </trkpt>
      <trkpt lat="45.34493" lon="6.71002">
        <ele>1995.35</ele>
        <time>2019-09-13T07:34:34Z</time>
      </trkpt>
      <trkpt lat="45.34498" lon="6.71009">
        <ele>2000.64</ele>
        <time>2019-09-13T07:34:54Z</time>
      </trkpt>
      <trkpt lat="45.34505" lon="6.71018">
        <ele>2004.01</ele>
        <time>2019-09-13T07:35:12Z</time>
      </trkpt>
      <trkpt lat="45.34512" lon="6.71024">
        <ele>2004.49</ele>
        <time>2019-09-13T07:35:29Z</time>
      </trkpt>
      <trkpt lat="45.3452" lon="6.71028">
        <ele>2000.16</ele>
        <time>2019-09-13T07:35:49Z</time>
      </trkpt>
      <trkpt lat="45.34528" lon="6.71035">
        <ele>2000.64</ele>
        <time>2019-09-13T07:36:10Z</time>
      </trkpt>
      <trkpt lat="45.34534" lon="6.71038">
        <ele>2001.6</ele>
        <time>2019-09-13T07:36:27Z</time>
      </trkpt>
      <trkpt lat="45.34541" lon="6.71041">
        <ele>2003.52</ele>
        <time>2019-09-13T07:36:46Z</time>
      </trkpt>
      <trkpt lat="45.34547" lon="6.71042">
        <ele>2006.41</ele>
        <time>2019-09-13T07:37:01Z</time>
      </trkpt>
      <trkpt lat="45.34549" lon="6.71045">
        <ele>2008.81</ele>
        <time>2019-09-13T07:37:20Z</time>
      </trkpt>
      <trkpt lat="45.34555" lon="6.71054">
        <ele>2011.7</ele>
        <time>2019-09-13T07:37:40Z</time>
      </trkpt>
      <trkpt lat="45.34549" lon="6.71061">
        <ele>2013.62</ele>
        <time>2019-09-13T07:38:02Z</time>
      </trkpt>
      <trkpt lat="45.34546" lon="6.71069">
        <ele>2016.5</ele>
        <time>2019-09-13T07:38:21Z</time>
      </trkpt>
      <trkpt lat="45.34553" lon="6.71074">
        <ele>2017.46</ele>
        <time>2019-09-13T07:38:39Z</time>
      </trkpt>
      <trkpt lat="45.34551" lon="6.71081">
        <ele>2019.39</ele>
        <time>2019-09-13T07:38:56Z</time>
      </trkpt>
      <trkpt lat="45.34546" lon="6.71087">
        <ele>2022.27</ele>
        <time>2019-09-13T07:39:13Z</time>
      </trkpt>
      <trkpt lat="45.34537" lon="6.71094">
        <ele>2026.12</ele>
        <time>2019-09-13T07:39:31Z</time>
      </trkpt>
      <trkpt lat="45.34535" lon="6.71096">
        <ele>2028.04</ele>
        <time>2019-09-13T07:39:48Z</time>
      </trkpt>
      <trkpt lat="45.3454" lon="6.71101">
        <ele>2029.48</ele>
        <time>2019-09-13T07:40:07Z</time>
      </trkpt>
      <trkpt lat="45.34542" lon="6.71115">
        <ele>2029.96</ele>
        <time>2019-09-13T07:40:26Z</time>
      </trkpt>
      <trkpt lat="45.34543" lon="6.71126">
        <ele>2032.84</ele>
        <time>2019-09-13T07:40:47Z</time>
      </trkpt>
      <trkpt lat="45.34543" lon="6.71127">
        <ele>2033.33</ele>
        <time>2019-09-13T07:40:49Z</time>
      </trkpt>
      <trkpt lat="45.34544" lon="6.7114">
        <ele>2035.73</ele>
        <time>2019-09-13T07:41:09Z</time>
      </trkpt>
      <trkpt lat="45.34545" lon="6.71155">
        <ele>2037.65</ele>
        <time>2019-09-13T07:41:28Z</time>
      </trkpt>
      <trkpt lat="45.34547" lon="6.7116">
        <ele>2039.09</ele>
        <time>2019-09-13T07:41:44Z</time>
      </trkpt>
      <trkpt lat="45.34546" lon="6.71176">
        <ele>2042.46</ele>
        <time>2019-09-13T07:42:02Z</time>
      </trkpt>
      <trkpt lat="45.34548" lon="6.71188">
        <ele>2043.42</ele>
        <time>2019-09-13T07:42:20Z</time>
      </trkpt>
      <trkpt lat="45.34546" lon="6.71199">
        <ele>2044.86</ele>
        <time>2019-09-13T07:42:39Z</time>
      </trkpt>
      <trkpt lat="45.34544" lon="6.71211">
        <ele>2047.75</ele>
        <time>2019-09-13T07:42:55Z</time>
      </trkpt>
      <trkpt lat="45.34538" lon="6.71222">
        <ele>2049.19</ele>
        <time>2019-09-13T07:43:13Z</time>
      </trkpt>
      <trkpt lat="45.34532" lon="6.71239">
        <ele>2050.15</ele>
        <time>2019-09-13T07:43:32Z</time>
      </trkpt>
      <trkpt lat="45.34529" lon="6.71257">
        <ele>2051.11</ele>
        <time>2019-09-13T07:43:52Z</time>
      </trkpt>
      <trkpt lat="45.34523" lon="6.71272">
        <ele>2051.11</ele>
        <time>2019-09-13T07:44:10Z</time>
      </trkpt>
      <trkpt lat="45.34519" lon="6.71281">
        <ele>2053.03</ele>
        <time>2019-09-13T07:44:27Z</time>
      </trkpt>
      <trkpt lat="45.34516" lon="6.71296">
        <ele>2055.44</ele>
        <time>2019-09-13T07:44:44Z</time>
      </trkpt>
      <trkpt lat="45.34511" lon="6.71311">
        <ele>2057.84</ele>
        <time>2019-09-13T07:45:05Z</time>
      </trkpt>
      <trkpt lat="45.34506" lon="6.71327">
        <ele>2056.4</ele>
        <time>2019-09-13T07:45:23Z</time>
      </trkpt>
      <trkpt lat="45.34501" lon="6.71345">
        <ele>2057.84</ele>
        <time>2019-09-13T07:45:41Z</time>
      </trkpt>
      <trkpt lat="45.34496" lon="6.71362">
        <ele>2059.28</ele>
        <time>2019-09-13T07:46:00Z</time>
      </trkpt>
      <trkpt lat="45.34491" lon="6.71375">
        <ele>2057.36</ele>
        <time>2019-09-13T07:46:18Z</time>
      </trkpt>
      <trkpt lat="45.34486" lon="6.71394">
        <ele>2056.88</ele>
        <time>2019-09-13T07:46:37Z</time>
      </trkpt>
      <trkpt lat="45.34478" lon="6.71409">
        <ele>2056.88</ele>
        <time>2019-09-13T07:46:57Z</time>
      </trkpt>
      <trkpt lat="45.34473" lon="6.71423">
        <ele>2055.92</ele>
        <time>2019-09-13T07:47:15Z</time>
      </trkpt>
      <trkpt lat="45.34473" lon="6.71441">
        <ele>2054.47</ele>
        <time>2019-09-13T07:47:34Z</time>
      </trkpt>
      <trkpt lat="45.34474" lon="6.71455">
        <ele>2054.96</ele>
        <time>2019-09-13T07:47:51Z</time>
      </trkpt>
      <trkpt lat="45.34472" lon="6.71466">
        <ele>2055.44</ele>
        <time>2019-09-13T07:48:10Z</time>
      </trkpt>
      <trkpt lat="45.34472" lon="6.7147">
        <ele>2056.4</ele>
        <time>2019-09-13T07:48:17Z</time>
      </trkpt>
      <trkpt lat="45.3447" lon="6.71473">
        <ele>2055.92</ele>
        <time>2019-09-13T07:48:35Z</time>
      </trkpt>
      <trkpt lat="45.34471" lon="6.71471">
        <ele>2056.88</ele>
        <time>2019-09-13T07:49:17Z</time>
      </trkpt>
      <trkpt lat="45.34469" lon="6.71472">
        <ele>2057.36</ele>
        <time>2019-09-13T07:51:02Z</time>
      </trkpt>
      <trkpt lat="45.3447" lon="6.71473">
        <ele>2057.84</ele>
        <time>2019-09-13T07:53:45Z</time>
      </trkpt>
      <trkpt lat="45.3447" lon="6.71472">
        <ele>2057.84</ele>
        <time>2019-09-13T07:56:28Z</time>
      </trkpt>
      <trkpt lat="45.34468" lon="6.71478">
        <ele>2056.4</ele>
        <time>2019-09-13T07:56:55Z</time>
      </trkpt>
      <trkpt lat="45.34466" lon="6.71491">
        <ele>2057.36</ele>
        <time>2019-09-13T07:57:14Z</time>
      </trkpt>
      <trkpt lat="45.34466" lon="6.715">
        <ele>2058.8</ele>
        <time>2019-09-13T07:57:32Z</time>
      </trkpt>
      <trkpt lat="45.34465" lon="6.7151">
        <ele>2061.2</ele>
        <time>2019-09-13T07:57:49Z</time>
      </trkpt>
      <trkpt lat="45.34463" lon="6.71513">
        <ele>2061.68</ele>
        <time>2019-09-13T07:58:23Z</time>
      </trkpt>
      <trkpt lat="45.34462" lon="6.71524">
        <ele>2064.09</ele>
        <time>2019-09-13T07:58:41Z</time>
      </trkpt>
      <trkpt lat="45.34456" lon="6.71522">
        <ele>2066.49</ele>
        <time>2019-09-13T07:59:00Z</time>
      </trkpt>
      <trkpt lat="45.34454" lon="6.71528">
        <ele>2069.38</ele>
        <time>2019-09-13T07:59:20Z</time>
      </trkpt>
      <trkpt lat="45.34451" lon="6.71532">
        <ele>2069.86</ele>
        <time>2019-09-13T07:59:40Z</time>
      </trkpt>
      <trkpt lat="45.34443" lon="6.71539">
        <ele>2072.26</ele>
        <time>2019-09-13T07:59:56Z</time>
      </trkpt>
      <trkpt lat="45.34439" lon="6.71545">
        <ele>2074.18</ele>
        <time>2019-09-13T08:00:11Z</time>
      </trkpt>
      <trkpt lat="45.34436" lon="6.71548">
        <ele>2077.07</ele>
        <time>2019-09-13T08:00:26Z</time>
      </trkpt>
      <trkpt lat="45.34431" lon="6.71553">
        <ele>2078.03</ele>
        <time>2019-09-13T08:00:45Z</time>
      </trkpt>
      <trkpt lat="45.34423" lon="6.71552">
        <ele>2078.99</ele>
        <time>2019-09-13T08:01:06Z</time>
      </trkpt>
      <trkpt lat="45.34416" lon="6.71554">
        <ele>2079.95</ele>
        <time>2019-09-13T08:01:25Z</time>
      </trkpt>
      <trkpt lat="45.34419" lon="6.71561">
        <ele>2084.76</ele>
        <time>2019-09-13T08:01:43Z</time>
      </trkpt>
      <trkpt lat="45.34413" lon="6.71566">
        <ele>2087.64</ele>
        <time>2019-09-13T08:02:04Z</time>
      </trkpt>
      <trkpt lat="45.3441" lon="6.71567">
        <ele>2087.16</ele>
        <time>2019-09-13T08:02:23Z</time>
      </trkpt>
      <trkpt lat="45.34413" lon="6.71576">
        <ele>2092.45</ele>
        <time>2019-09-13T08:02:40Z</time>
      </trkpt>
      <trkpt lat="45.34408" lon="6.71578">
        <ele>2093.89</ele>
        <time>2019-09-13T08:03:04Z</time>
      </trkpt>
      <trkpt lat="45.34405" lon="6.71579">
        <ele>2095.81</ele>
        <time>2019-09-13T08:03:23Z</time>
      </trkpt>
      <trkpt lat="45.34403" lon="6.71588">
        <ele>2100.14</ele>
        <time>2019-09-13T08:03:39Z</time>
      </trkpt>
      <trkpt lat="45.34398" lon="6.71599">
        <ele>2101.58</ele>
        <time>2019-09-13T08:03:56Z</time>
      </trkpt>
      <trkpt lat="45.34391" lon="6.71604">
        <ele>2102.06</ele>
        <time>2019-09-13T08:04:13Z</time>
      </trkpt>
      <trkpt lat="45.34384" lon="6.71613">
        <ele>2103.02</ele>
        <time>2019-09-13T08:04:33Z</time>
      </trkpt>
      <trkpt lat="45.34378" lon="6.71622">
        <ele>2106.87</ele>
        <time>2019-09-13T08:04:52Z</time>
      </trkpt>
      <trkpt lat="45.3437" lon="6.71629">
        <ele>2110.23</ele>
        <time>2019-09-13T08:05:11Z</time>
      </trkpt>
      <trkpt lat="45.34364" lon="6.71637">
        <ele>2113.12</ele>
        <time>2019-09-13T08:05:30Z</time>
      </trkpt>
      <trkpt lat="45.3436" lon="6.71639">
        <ele>2115.04</ele>
        <time>2019-09-13T08:05:48Z</time>
      </trkpt>
      <trkpt lat="45.34357" lon="6.71649">
        <ele>2117.44</ele>
        <time>2019-09-13T08:06:08Z</time>
      </trkpt>
      <trkpt lat="45.34349" lon="6.71646">
        <ele>2117.92</ele>
        <time>2019-09-13T08:06:30Z</time>
      </trkpt>
      <trkpt lat="45.34341" lon="6.71655">
        <ele>2121.77</ele>
        <time>2019-09-13T08:06:51Z</time>
      </trkpt>
      <trkpt lat="45.34334" lon="6.71659">
        <ele>2124.17</ele>
        <time>2019-09-13T08:07:05Z</time>
      </trkpt>
      <trkpt lat="45.34327" lon="6.71663">
        <ele>2127.53</ele>
        <time>2019-09-13T08:07:23Z</time>
      </trkpt>
      <trkpt lat="45.34321" lon="6.71666">
        <ele>2127.05</ele>
        <time>2019-09-13T08:07:42Z</time>
      </trkpt>
      <trkpt lat="45.34311" lon="6.71671">
        <ele>2128.5</ele>
        <time>2019-09-13T08:08:01Z</time>
      </trkpt>
      <trkpt lat="45.34303" lon="6.71676">
        <ele>2129.46</ele>
        <time>2019-09-13T08:08:22Z</time>
      </trkpt>
      <trkpt lat="45.34301" lon="6.71664">
        <ele>2132.34</ele>
        <time>2019-09-13T08:08:42Z</time>
      </trkpt>
      <trkpt lat="45.343" lon="6.71653">
        <ele>2134.74</ele>
        <time>2019-09-13T08:09:03Z</time>
      </trkpt>
      <trkpt lat="45.34297" lon="6.7164">
        <ele>2139.55</ele>
        <time>2019-09-13T08:09:21Z</time>
      </trkpt>
      <trkpt lat="45.34292" lon="6.71626">
        <ele>2140.99</ele>
        <time>2019-09-13T08:09:40Z</time>
      </trkpt>
      <trkpt lat="45.34287" lon="6.7163">
        <ele>2142.92</ele>
        <time>2019-09-13T08:09:58Z</time>
      </trkpt>
      <trkpt lat="45.34282" lon="6.71636">
        <ele>2142.92</ele>
        <time>2019-09-13T08:10:16Z</time>
      </trkpt>
      <trkpt lat="45.34278" lon="6.71642">
        <ele>2145.32</ele>
        <time>2019-09-13T08:10:36Z</time>
      </trkpt>
      <trkpt lat="45.34275" lon="6.71646">
        <ele>2146.76</ele>
        <time>2019-09-13T08:10:53Z</time>
      </trkpt>
      <trkpt lat="45.34269" lon="6.71655">
        <ele>2150.61</ele>
        <time>2019-09-13T08:11:11Z</time>
      </trkpt>
      <trkpt lat="45.34265" lon="6.71664">
        <ele>2153.49</ele>
        <time>2019-09-13T08:11:26Z</time>
      </trkpt>
      <trkpt lat="45.34261" lon="6.71674">
        <ele>2156.37</ele>
        <time>2019-09-13T08:11:44Z</time>
      </trkpt>
      <trkpt lat="45.3426" lon="6.71683">
        <ele>2157.82</ele>
        <time>2019-09-13T08:12:01Z</time>
      </trkpt>
      <trkpt lat="45.34255" lon="6.71694">
        <ele>2158.78</ele>
        <time>2019-09-13T08:12:18Z</time>
      </trkpt>
      <trkpt lat="45.34251" lon="6.71697">
        <ele>2160.22</ele>
        <time>2019-09-13T08:12:35Z</time>
      </trkpt>
      <trkpt lat="45.34249" lon="6.71693">
        <ele>2161.18</ele>
        <time>2019-09-13T08:12:59Z</time>
      </trkpt>
      <trkpt lat="45.34245" lon="6.71696">
        <ele>2161.66</ele>
        <time>2019-09-13T08:13:16Z</time>
      </trkpt>
      <trkpt lat="45.34237" lon="6.71698">
        <ele>2164.06</ele>
        <time>2019-09-13T08:13:33Z</time>
      </trkpt>
      <trkpt lat="45.34228" lon="6.71695">
        <ele>2167.91</ele>
        <time>2019-09-13T08:13:53Z</time>
      </trkpt>
      <trkpt lat="45.34219" lon="6.71698">
        <ele>2166.47</ele>
        <time>2019-09-13T08:14:10Z</time>
      </trkpt>
      <trkpt lat="45.34208" lon="6.71701">
        <ele>2169.83</ele>
        <time>2019-09-13T08:14:29Z</time>
      </trkpt>
      <trkpt lat="45.34201" lon="6.7171">
        <ele>2174.16</ele>
        <time>2019-09-13T08:14:46Z</time>
      </trkpt>
      <trkpt lat="45.34195" lon="6.71717">
        <ele>2176.08</ele>
        <time>2019-09-13T08:15:04Z</time>
      </trkpt>
      <trkpt lat="45.34192" lon="6.7172">
        <ele>2178</ele>
        <time>2019-09-13T08:15:22Z</time>
      </trkpt>
      <trkpt lat="45.34192" lon="6.71718">
        <ele>2178.48</ele>
        <time>2019-09-13T08:15:37Z</time>
      </trkpt>
      <trkpt lat="45.34191" lon="6.71719">
        <ele>2178.48</ele>
        <time>2019-09-13T08:16:14Z</time>
      </trkpt>
      <trkpt lat="45.34191" lon="6.71721">
        <ele>2178</ele>
        <time>2019-09-13T08:17:55Z</time>
      </trkpt>
      <trkpt lat="45.34192" lon="6.71724">
        <ele>2178.48</ele>
        <time>2019-09-13T08:20:24Z</time>
      </trkpt>
      <trkpt lat="45.34187" lon="6.71739">
        <ele>2177.04</ele>
        <time>2019-09-13T08:20:41Z</time>
      </trkpt>
      <trkpt lat="45.34179" lon="6.71754">
        <ele>2178.97</ele>
        <time>2019-09-13T08:21:00Z</time>
      </trkpt>
      <trkpt lat="45.34177" lon="6.71759">
        <ele>2180.41</ele>
        <time>2019-09-13T08:21:06Z</time>
      </trkpt>
      <trkpt lat="45.34173" lon="6.71776">
        <ele>2184.25</ele>
        <time>2019-09-13T08:21:24Z</time>
      </trkpt>
      <trkpt lat="45.34168" lon="6.71794">
        <ele>2184.73</ele>
        <time>2019-09-13T08:21:42Z</time>
      </trkpt>
      <trkpt lat="45.34161" lon="6.71805">
        <ele>2186.66</ele>
        <time>2019-09-13T08:22:00Z</time>
      </trkpt>
      <trkpt lat="45.34157" lon="6.71813">
        <ele>2185.69</ele>
        <time>2019-09-13T08:22:11Z</time>
      </trkpt>
      <trkpt lat="45.34147" lon="6.71827">
        <ele>2188.1</ele>
        <time>2019-09-13T08:22:30Z</time>
      </trkpt>
      <trkpt lat="45.34142" lon="6.71844">
        <ele>2188.58</ele>
        <time>2019-09-13T08:22:48Z</time>
      </trkpt>
      <trkpt lat="45.34138" lon="6.7185">
        <ele>2190.02</ele>
        <time>2019-09-13T08:22:59Z</time>
      </trkpt>
      <trkpt lat="45.34142" lon="6.71866">
        <ele>2189.54</ele>
        <time>2019-09-13T08:23:18Z</time>
      </trkpt>
      <trkpt lat="45.34144" lon="6.71879">
        <ele>2190.5</ele>
        <time>2019-09-13T08:23:33Z</time>
      </trkpt>
      <trkpt lat="45.34144" lon="6.71884">
        <ele>2190.5</ele>
        <time>2019-09-13T08:23:38Z</time>
      </trkpt>
      <trkpt lat="45.34149" lon="6.71903">
        <ele>2190.02</ele>
        <time>2019-09-13T08:23:56Z</time>
      </trkpt>
      <trkpt lat="45.34154" lon="6.7192">
        <ele>2188.58</ele>
        <time>2019-09-13T08:24:15Z</time>
      </trkpt>
      <trkpt lat="45.34149" lon="6.71928">
        <ele>2186.66</ele>
        <time>2019-09-13T08:24:33Z</time>
      </trkpt>
      <trkpt lat="45.34152" lon="6.71942">
        <ele>2188.1</ele>
        <time>2019-09-13T08:24:50Z</time>
      </trkpt>
      <trkpt lat="45.34155" lon="6.71955">
        <ele>2190.98</ele>
        <time>2019-09-13T08:25:06Z</time>
      </trkpt>
      <trkpt lat="45.34159" lon="6.71971">
        <ele>2191.46</ele>
        <time>2019-09-13T08:25:24Z</time>
      </trkpt>
      <trkpt lat="45.34164" lon="6.71986">
        <ele>2192.42</ele>
        <time>2019-09-13T08:25:44Z</time>
      </trkpt>
      <trkpt lat="45.34171" lon="6.71996">
        <ele>2191.46</ele>
        <time>2019-09-13T08:26:02Z</time>
      </trkpt>
      <trkpt lat="45.34174" lon="6.72004">
        <ele>2190.98</ele>
        <time>2019-09-13T08:26:21Z</time>
      </trkpt>
      <trkpt lat="45.34175" lon="6.72008">
        <ele>2190.5</ele>
        <time>2019-09-13T08:26:41Z</time>
      </trkpt>
      <trkpt lat="45.34175" lon="6.72008">
        <ele>2190.98</ele>
        <time>2019-09-13T08:27:29Z</time>
      </trkpt>
      <trkpt lat="45.34175" lon="6.72008">
        <ele>2190.98</ele>
        <time>2019-09-13T08:28:29Z</time>
      </trkpt>
      <trkpt lat="45.34175" lon="6.72009">
        <ele>2190.5</ele>
        <time>2019-09-13T08:29:14Z</time>
      </trkpt>
      <trkpt lat="45.34176" lon="6.72009">
        <ele>2190.5</ele>
        <time>2019-09-13T08:30:04Z</time>
      </trkpt>
      <trkpt lat="45.34178" lon="6.72008">
        <ele>2190.5</ele>
        <time>2019-09-13T08:30:28Z</time>
      </trkpt>
      <trkpt lat="45.34183" lon="6.72009">
        <ele>2189.54</ele>
        <time>2019-09-13T08:30:40Z</time>
      </trkpt>
      <trkpt lat="45.3419" lon="6.72016">
        <ele>2190.5</ele>
        <time>2019-09-13T08:30:57Z</time>
      </trkpt>
      <trkpt lat="45.34191" lon="6.72017">
        <ele>2190.98</ele>
        <time>2019-09-13T08:31:00Z</time>
      </trkpt>
      <trkpt lat="45.34197" lon="6.7201">
        <ele>2190.5</ele>
        <time>2019-09-13T08:31:16Z</time>
      </trkpt>
      <trkpt lat="45.34201" lon="6.72008">
        <ele>2190.02</ele>
        <time>2019-09-13T08:31:21Z</time>
      </trkpt>
      <trkpt lat="45.34206" lon="6.72006">
        <ele>2190.98</ele>
        <time>2019-09-13T08:31:37Z</time>
      </trkpt>
      <trkpt lat="45.34209" lon="6.72004">
        <ele>2191.94</ele>
        <time>2019-09-13T08:31:41Z</time>
      </trkpt>
      <trkpt lat="45.3422" lon="6.71999">
        <ele>2191.46</ele>
        <time>2019-09-13T08:31:56Z</time>
      </trkpt>
      <trkpt lat="45.34222" lon="6.71999">
        <ele>2191.46</ele>
        <time>2019-09-13T08:31:58Z</time>
      </trkpt>
      <trkpt lat="45.3423" lon="6.72001">
        <ele>2190.5</ele>
        <time>2019-09-13T08:32:10Z</time>
      </trkpt>
      <trkpt lat="45.34242" lon="6.72008">
        <ele>2190.5</ele>
        <time>2019-09-13T08:32:27Z</time>
      </trkpt>
      <trkpt lat="45.34255" lon="6.72009">
        <ele>2189.54</ele>
        <time>2019-09-13T08:32:44Z</time>
      </trkpt>
      <trkpt lat="45.34261" lon="6.72015">
        <ele>2190.98</ele>
        <time>2019-09-13T08:32:55Z</time>
      </trkpt>
      <trkpt lat="45.34265" lon="6.72015">
        <ele>2190.02</ele>
        <time>2019-09-13T08:32:59Z</time>
      </trkpt>
      <trkpt lat="45.34266" lon="6.72013">
        <ele>2190.02</ele>
        <time>2019-09-13T08:33:01Z</time>
      </trkpt>
      <trkpt lat="45.34277" lon="6.72012">
        <ele>2189.54</ele>
        <time>2019-09-13T08:33:13Z</time>
      </trkpt>
      <trkpt lat="45.34281" lon="6.72012">
        <ele>2189.06</ele>
        <time>2019-09-13T08:33:22Z</time>
      </trkpt>
      <trkpt lat="45.34283" lon="6.72014">
        <ele>2189.54</ele>
        <time>2019-09-13T08:33:27Z</time>
      </trkpt>
      <trkpt lat="45.34296" lon="6.72009">
        <ele>2190.5</ele>
        <time>2019-09-13T08:33:43Z</time>
      </trkpt>
      <trkpt lat="45.34298" lon="6.72013">
        <ele>2191.46</ele>
        <time>2019-09-13T08:33:57Z</time>
      </trkpt>
      <trkpt lat="45.34298" lon="6.72013">
        <ele>2191.94</ele>
        <time>2019-09-13T08:35:00Z</time>
      </trkpt>
      <trkpt lat="45.34297" lon="6.72027">
        <ele>2194.35</ele>
        <time>2019-09-13T08:35:19Z</time>
      </trkpt>
      <trkpt lat="45.34297" lon="6.72035">
        <ele>2194.35</ele>
        <time>2019-09-13T08:35:27Z</time>
      </trkpt>
      <trkpt lat="45.34291" lon="6.72051">
        <ele>2198.19</ele>
        <time>2019-09-13T08:35:46Z</time>
      </trkpt>
      <trkpt lat="45.34285" lon="6.72065">
        <ele>2201.08</ele>
        <time>2019-09-13T08:36:04Z</time>
      </trkpt>
      <trkpt lat="45.34284" lon="6.72077">
        <ele>2203.48</ele>
        <time>2019-09-13T08:36:21Z</time>
      </trkpt>
      <trkpt lat="45.34283" lon="6.72078">
        <ele>2203.96</ele>
        <time>2019-09-13T08:36:51Z</time>
      </trkpt>
      <trkpt lat="45.34281" lon="6.72095">
        <ele>2205.4</ele>
        <time>2019-09-13T08:37:28Z</time>
      </trkpt>
      <trkpt lat="45.34284" lon="6.72105">
        <ele>2207.32</ele>
        <time>2019-09-13T08:37:43Z</time>
      </trkpt>
      <trkpt lat="45.34291" lon="6.72104">
        <ele>2208.77</ele>
        <time>2019-09-13T08:37:58Z</time>
      </trkpt>
      <trkpt lat="45.343" lon="6.72103">
        <ele>2209.25</ele>
        <time>2019-09-13T08:38:14Z</time>
      </trkpt>
      <trkpt lat="45.34307" lon="6.72102">
        <ele>2211.65</ele>
        <time>2019-09-13T08:38:31Z</time>
      </trkpt>
      <trkpt lat="45.34311" lon="6.72098">
        <ele>2213.09</ele>
        <time>2019-09-13T08:38:49Z</time>
      </trkpt>
      <trkpt lat="45.34317" lon="6.72096">
        <ele>2213.57</ele>
        <time>2019-09-13T08:39:05Z</time>
      </trkpt>
      <trkpt lat="45.34321" lon="6.72094">
        <ele>2213.57</ele>
        <time>2019-09-13T08:39:20Z</time>
      </trkpt>
      <trkpt lat="45.34328" lon="6.72092">
        <ele>2215.98</ele>
        <time>2019-09-13T08:39:39Z</time>
      </trkpt>
      <trkpt lat="45.34334" lon="6.72089">
        <ele>2218.38</ele>
        <time>2019-09-13T08:39:53Z</time>
      </trkpt>
      <trkpt lat="45.34333" lon="6.72096">
        <ele>2222.22</ele>
        <time>2019-09-13T08:40:16Z</time>
      </trkpt>
      <trkpt lat="45.34333" lon="6.72105">
        <ele>2225.59</ele>
        <time>2019-09-13T08:40:35Z</time>
      </trkpt>
      <trkpt lat="45.34328" lon="6.72115">
        <ele>2227.99</ele>
        <time>2019-09-13T08:40:54Z</time>
      </trkpt>
      <trkpt lat="45.34326" lon="6.72124">
        <ele>2232.32</ele>
        <time>2019-09-13T08:41:13Z</time>
      </trkpt>
      <trkpt lat="45.34323" lon="6.72134">
        <ele>2234.24</ele>
        <time>2019-09-13T08:41:30Z</time>
      </trkpt>
      <trkpt lat="45.34321" lon="6.72143">
        <ele>2237.61</ele>
        <time>2019-09-13T08:41:52Z</time>
      </trkpt>
      <trkpt lat="45.34319" lon="6.72156">
        <ele>2239.53</ele>
        <time>2019-09-13T08:42:11Z</time>
      </trkpt>
      <trkpt lat="45.34317" lon="6.72166">
        <ele>2241.93</ele>
        <time>2019-09-13T08:42:28Z</time>
      </trkpt>
      <trkpt lat="45.34317" lon="6.72177">
        <ele>2245.3</ele>
        <time>2019-09-13T08:42:48Z</time>
      </trkpt>
      <trkpt lat="45.34316" lon="6.72185">
        <ele>2249.14</ele>
        <time>2019-09-13T08:43:04Z</time>
      </trkpt>
      <trkpt lat="45.34315" lon="6.72195">
        <ele>2252.51</ele>
        <time>2019-09-13T08:43:24Z</time>
      </trkpt>
      <trkpt lat="45.34314" lon="6.72206">
        <ele>2252.51</ele>
        <time>2019-09-13T08:43:43Z</time>
      </trkpt>
      <trkpt lat="45.34313" lon="6.72219">
        <ele>2254.91</ele>
        <time>2019-09-13T08:44:03Z</time>
      </trkpt>
      <trkpt lat="45.34311" lon="6.72231">
        <ele>2257.31</ele>
        <time>2019-09-13T08:44:22Z</time>
      </trkpt>
      <trkpt lat="45.34307" lon="6.72244">
        <ele>2258.75</ele>
        <time>2019-09-13T08:44:38Z</time>
      </trkpt>
      <trkpt lat="45.34306" lon="6.72252">
        <ele>2259.72</ele>
        <time>2019-09-13T08:44:57Z</time>
      </trkpt>
      <trkpt lat="45.34299" lon="6.72263">
        <ele>2261.16</ele>
        <time>2019-09-13T08:45:18Z</time>
      </trkpt>
      <trkpt lat="45.34297" lon="6.72271">
        <ele>2264.04</ele>
        <time>2019-09-13T08:45:34Z</time>
      </trkpt>
      <trkpt lat="45.34299" lon="6.72277">
        <ele>2265.96</ele>
        <time>2019-09-13T08:45:49Z</time>
      </trkpt>
      <trkpt lat="45.34301" lon="6.72284">
        <ele>2267.89</ele>
        <time>2019-09-13T08:46:02Z</time>
      </trkpt>
      <trkpt lat="45.34301" lon="6.72293">
        <ele>2268.85</ele>
        <time>2019-09-13T08:46:20Z</time>
      </trkpt>
      <trkpt lat="45.34299" lon="6.72302">
        <ele>2270.77</ele>
        <time>2019-09-13T08:46:40Z</time>
      </trkpt>
      <trkpt lat="45.34297" lon="6.72312">
        <ele>2272.69</ele>
        <time>2019-09-13T08:46:56Z</time>
      </trkpt>
      <trkpt lat="45.34299" lon="6.72324">
        <ele>2273.66</ele>
        <time>2019-09-13T08:47:17Z</time>
      </trkpt>
      <trkpt lat="45.34296" lon="6.72333">
        <ele>2276.06</ele>
        <time>2019-09-13T08:47:35Z</time>
      </trkpt>
      <trkpt lat="45.34298" lon="6.72336">
        <ele>2278.46</ele>
        <time>2019-09-13T08:47:54Z</time>
      </trkpt>
      <trkpt lat="45.34297" lon="6.72346">
        <ele>2279.42</ele>
        <time>2019-09-13T08:48:18Z</time>
      </trkpt>
      <trkpt lat="45.34296" lon="6.72357">
        <ele>2281.83</ele>
        <time>2019-09-13T08:48:39Z</time>
      </trkpt>
      <trkpt lat="45.343" lon="6.72357">
        <ele>2284.71</ele>
        <time>2019-09-13T08:48:56Z</time>
      </trkpt>
      <trkpt lat="45.34304" lon="6.7236">
        <ele>2285.67</ele>
        <time>2019-09-13T08:49:11Z</time>
      </trkpt>
      <trkpt lat="45.34299" lon="6.72371">
        <ele>2288.08</ele>
        <time>2019-09-13T08:49:29Z</time>
      </trkpt>
      <trkpt lat="45.34294" lon="6.72383">
        <ele>2289.52</ele>
        <time>2019-09-13T08:49:48Z</time>
      </trkpt>
      <trkpt lat="45.34292" lon="6.72394">
        <ele>2291.44</ele>
        <time>2019-09-13T08:50:07Z</time>
      </trkpt>
      <trkpt lat="45.343" lon="6.72391">
        <ele>2290.96</ele>
        <time>2019-09-13T08:50:26Z</time>
      </trkpt>
      <trkpt lat="45.34301" lon="6.72395">
        <ele>2293.84</ele>
        <time>2019-09-13T08:50:45Z</time>
      </trkpt>
      <trkpt lat="45.34302" lon="6.72401">
        <ele>2297.21</ele>
        <time>2019-09-13T08:51:02Z</time>
      </trkpt>
      <trkpt lat="45.34308" lon="6.72404">
        <ele>2299.13</ele>
        <time>2019-09-13T08:51:23Z</time>
      </trkpt>
      <trkpt lat="45.34305" lon="6.72413">
        <ele>2301.53</ele>
        <time>2019-09-13T08:51:41Z</time>
      </trkpt>
      <trkpt lat="45.34306" lon="6.72422">
        <ele>2303.46</ele>
        <time>2019-09-13T08:51:59Z</time>
      </trkpt>
      <trkpt lat="45.34306" lon="6.72427">
        <ele>2304.42</ele>
        <time>2019-09-13T08:52:14Z</time>
      </trkpt>
      <trkpt lat="45.34309" lon="6.72437">
        <ele>2306.82</ele>
        <time>2019-09-13T08:52:32Z</time>
      </trkpt>
      <trkpt lat="45.34309" lon="6.72447">
        <ele>2310.19</ele>
        <time>2019-09-13T08:52:48Z</time>
      </trkpt>
      <trkpt lat="45.34312" lon="6.72452">
        <ele>2312.59</ele>
        <time>2019-09-13T08:53:04Z</time>
      </trkpt>
      <trkpt lat="45.34312" lon="6.7246">
        <ele>2315.95</ele>
        <time>2019-09-13T08:53:18Z</time>
      </trkpt>
      <trkpt lat="45.34315" lon="6.72468">
        <ele>2315.47</ele>
        <time>2019-09-13T08:53:38Z</time>
      </trkpt>
      <trkpt lat="45.34317" lon="6.72477">
        <ele>2316.43</ele>
        <time>2019-09-13T08:53:55Z</time>
      </trkpt>
      <trkpt lat="45.34318" lon="6.72492">
        <ele>2318.36</ele>
        <time>2019-09-13T08:54:15Z</time>
      </trkpt>
      <trkpt lat="45.34316" lon="6.72499">
        <ele>2321.24</ele>
        <time>2019-09-13T08:54:31Z</time>
      </trkpt>
      <trkpt lat="45.34321" lon="6.72501">
        <ele>2321.24</ele>
        <time>2019-09-13T08:54:46Z</time>
      </trkpt>
      <trkpt lat="45.3433" lon="6.72496">
        <ele>2323.16</ele>
        <time>2019-09-13T08:55:04Z</time>
      </trkpt>
      <trkpt lat="45.34335" lon="6.72489">
        <ele>2324.12</ele>
        <time>2019-09-13T08:55:21Z</time>
      </trkpt>
      <trkpt lat="45.34337" lon="6.72477">
        <ele>2326.05</ele>
        <time>2019-09-13T08:55:39Z</time>
      </trkpt>
      <trkpt lat="45.3434" lon="6.72478">
        <ele>2329.89</ele>
        <time>2019-09-13T08:55:57Z</time>
      </trkpt>
      <trkpt lat="45.3434" lon="6.72478">
        <ele>2329.89</ele>
        <time>2019-09-13T08:55:59Z</time>
      </trkpt>
      <trkpt lat="45.34343" lon="6.72483">
        <ele>2333.26</ele>
        <time>2019-09-13T08:56:12Z</time>
      </trkpt>
      <trkpt lat="45.34346" lon="6.72477">
        <ele>2334.22</ele>
        <time>2019-09-13T08:56:28Z</time>
      </trkpt>
      <trkpt lat="45.34349" lon="6.72459">
        <ele>2333.74</ele>
        <time>2019-09-13T08:56:49Z</time>
      </trkpt>
      <trkpt lat="45.34352" lon="6.72448">
        <ele>2335.18</ele>
        <time>2019-09-13T08:57:06Z</time>
      </trkpt>
      <trkpt lat="45.34359" lon="6.72441">
        <ele>2335.18</ele>
        <time>2019-09-13T08:57:23Z</time>
      </trkpt>
      <trkpt lat="45.34363" lon="6.72438">
        <ele>2337.1</ele>
        <time>2019-09-13T08:57:42Z</time>
      </trkpt>
      <trkpt lat="45.34359" lon="6.7245">
        <ele>2340.47</ele>
        <time>2019-09-13T08:58:01Z</time>
      </trkpt>
      <trkpt lat="45.34364" lon="6.72455">
        <ele>2342.39</ele>
        <time>2019-09-13T08:58:18Z</time>
      </trkpt>
      <trkpt lat="45.34368" lon="6.72457">
        <ele>2343.35</ele>
        <time>2019-09-13T08:58:33Z</time>
      </trkpt>
      <trkpt lat="45.34371" lon="6.72464">
        <ele>2346.23</ele>
        <time>2019-09-13T08:58:50Z</time>
      </trkpt>
      <trkpt lat="45.34376" lon="6.72464">
        <ele>2346.23</ele>
        <time>2019-09-13T08:59:08Z</time>
      </trkpt>
      <trkpt lat="45.34376" lon="6.72463">
        <ele>2346.23</ele>
        <time>2019-09-13T08:59:28Z</time>
      </trkpt>
      <trkpt lat="45.34378" lon="6.72464">
        <ele>2346.72</ele>
        <time>2019-09-13T08:59:45Z</time>
      </trkpt>
      <trkpt lat="45.34377" lon="6.72463">
        <ele>2347.2</ele>
        <time>2019-09-13T09:02:03Z</time>
      </trkpt>
      <trkpt lat="45.34372" lon="6.72463">
        <ele>2350.56</ele>
        <time>2019-09-13T09:14:59Z</time>
      </trkpt>
      <trkpt lat="45.34375" lon="6.7246">
        <ele>2352</ele>
        <time>2019-09-13T09:15:29Z</time>
      </trkpt>
      <trkpt lat="45.34382" lon="6.72456">
        <ele>2353.44</ele>
        <time>2019-09-13T09:16:03Z</time>
      </trkpt>
      <trkpt lat="45.34392" lon="6.72447">
        <ele>2353.93</ele>
        <time>2019-09-13T09:16:23Z</time>
      </trkpt>
      <trkpt lat="45.34398" lon="6.72445">
        <ele>2355.85</ele>
        <time>2019-09-13T09:16:39Z</time>
      </trkpt>
      <trkpt lat="45.34405" lon="6.72442">
        <ele>2358.25</ele>
        <time>2019-09-13T09:17:00Z</time>
      </trkpt>
      <trkpt lat="45.34409" lon="6.72441">
        <ele>2359.69</ele>
        <time>2019-09-13T09:17:25Z</time>
      </trkpt>
      <trkpt lat="45.34414" lon="6.7245">
        <ele>2362.1</ele>
        <time>2019-09-13T09:17:44Z</time>
      </trkpt>
      <trkpt lat="45.34418" lon="6.72444">
        <ele>2364.5</ele>
        <time>2019-09-13T09:17:59Z</time>
      </trkpt>
      <trkpt lat="45.3442" lon="6.72453">
        <ele>2365.46</ele>
        <time>2019-09-13T09:18:17Z</time>
      </trkpt>
      <trkpt lat="45.34421" lon="6.72462">
        <ele>2368.83</ele>
        <time>2019-09-13T09:18:37Z</time>
      </trkpt>
      <trkpt lat="45.34423" lon="6.72466">
        <ele>2370.75</ele>
        <time>2019-09-13T09:18:55Z</time>
      </trkpt>
      <trkpt lat="45.34428" lon="6.72459">
        <ele>2372.19</ele>
        <time>2019-09-13T09:19:15Z</time>
      </trkpt>
      <trkpt lat="45.34426" lon="6.72469">
        <ele>2374.59</ele>
        <time>2019-09-13T09:19:35Z</time>
      </trkpt>
      <trkpt lat="45.34427" lon="6.72475">
        <ele>2376.52</ele>
        <time>2019-09-13T09:19:53Z</time>
      </trkpt>
      <trkpt lat="45.34425" lon="6.72487">
        <ele>2379.4</ele>
        <time>2019-09-13T09:20:14Z</time>
      </trkpt>
      <trkpt lat="45.34425" lon="6.72497">
        <ele>2382.76</ele>
        <time>2019-09-13T09:20:38Z</time>
      </trkpt>
      <trkpt lat="45.34428" lon="6.72495">
        <ele>2386.13</ele>
        <time>2019-09-13T09:20:56Z</time>
      </trkpt>
      <trkpt lat="45.34432" lon="6.72495">
        <ele>2387.57</ele>
        <time>2019-09-13T09:21:13Z</time>
      </trkpt>
      <trkpt lat="45.34435" lon="6.725">
        <ele>2388.53</ele>
        <time>2019-09-13T09:21:32Z</time>
      </trkpt>
      <trkpt lat="45.34437" lon="6.72498">
        <ele>2391.42</ele>
        <time>2019-09-13T09:21:50Z</time>
      </trkpt>
      <trkpt lat="45.34441" lon="6.72495">
        <ele>2392.86</ele>
        <time>2019-09-13T09:22:04Z</time>
      </trkpt>
      <trkpt lat="45.34446" lon="6.7249">
        <ele>2392.86</ele>
        <time>2019-09-13T09:22:25Z</time>
      </trkpt>
      <trkpt lat="45.34451" lon="6.72482">
        <ele>2393.82</ele>
        <time>2019-09-13T09:22:45Z</time>
      </trkpt>
      <trkpt lat="45.34458" lon="6.72474">
        <ele>2395.74</ele>
        <time>2019-09-13T09:23:09Z</time>
      </trkpt>
      <trkpt lat="45.34463" lon="6.72466">
        <ele>2397.18</ele>
        <time>2019-09-13T09:23:24Z</time>
      </trkpt>
      <trkpt lat="45.34469" lon="6.72456">
        <ele>2401.51</ele>
        <time>2019-09-13T09:23:44Z</time>
      </trkpt>
      <trkpt lat="45.3447" lon="6.72448">
        <ele>2403.43</ele>
        <time>2019-09-13T09:24:03Z</time>
      </trkpt>
      <trkpt lat="45.34473" lon="6.72443">
        <ele>2405.36</ele>
        <time>2019-09-13T09:24:23Z</time>
      </trkpt>
      <trkpt lat="45.34475" lon="6.72445">
        <ele>2408.24</ele>
        <time>2019-09-13T09:24:40Z</time>
      </trkpt>
      <trkpt lat="45.34476" lon="6.72449">
        <ele>2410.64</ele>
        <time>2019-09-13T09:24:59Z</time>
      </trkpt>
      <trkpt lat="45.34483" lon="6.72435">
        <ele>2411.12</ele>
        <time>2019-09-13T09:25:22Z</time>
      </trkpt>
      <trkpt lat="45.34487" lon="6.7242">
        <ele>2414.01</ele>
        <time>2019-09-13T09:25:45Z</time>
      </trkpt>
      <trkpt lat="45.34489" lon="6.72414">
        <ele>2417.85</ele>
        <time>2019-09-13T09:26:05Z</time>
      </trkpt>
      <trkpt lat="45.34491" lon="6.72401">
        <ele>2416.89</ele>
        <time>2019-09-13T09:26:25Z</time>
      </trkpt>
      <trkpt lat="45.34494" lon="6.72398">
        <ele>2417.37</ele>
        <time>2019-09-13T09:26:55Z</time>
      </trkpt>
      <trkpt lat="45.34499" lon="6.72389">
        <ele>2419.78</ele>
        <time>2019-09-13T09:27:38Z</time>
      </trkpt>
      <trkpt lat="45.34504" lon="6.72379">
        <ele>2424.1</ele>
        <time>2019-09-13T09:27:58Z</time>
      </trkpt>
      <trkpt lat="45.34508" lon="6.72375">
        <ele>2426.5</ele>
        <time>2019-09-13T09:28:16Z</time>
      </trkpt>
      <trkpt lat="45.34512" lon="6.72366">
        <ele>2427.95</ele>
        <time>2019-09-13T09:28:38Z</time>
      </trkpt>
      <trkpt lat="45.34518" lon="6.72357">
        <ele>2429.87</ele>
        <time>2019-09-13T09:28:56Z</time>
      </trkpt>
      <trkpt lat="45.34525" lon="6.72347">
        <ele>2431.79</ele>
        <time>2019-09-13T09:29:16Z</time>
      </trkpt>
      <trkpt lat="45.34531" lon="6.72345">
        <ele>2433.23</ele>
        <time>2019-09-13T09:29:30Z</time>
      </trkpt>
      <trkpt lat="45.34538" lon="6.7234">
        <ele>2435.64</ele>
        <time>2019-09-13T09:29:49Z</time>
      </trkpt>
      <trkpt lat="45.34548" lon="6.72339">
        <ele>2435.16</ele>
        <time>2019-09-13T09:30:07Z</time>
      </trkpt>
      <trkpt lat="45.34558" lon="6.72338">
        <ele>2435.64</ele>
        <time>2019-09-13T09:30:26Z</time>
      </trkpt>
      <trkpt lat="45.34568" lon="6.72328">
        <ele>2436.12</ele>
        <time>2019-09-13T09:30:47Z</time>
      </trkpt>
      <trkpt lat="45.34577" lon="6.72319">
        <ele>2437.56</ele>
        <time>2019-09-13T09:31:08Z</time>
      </trkpt>
      <trkpt lat="45.34583" lon="6.7231">
        <ele>2439.48</ele>
        <time>2019-09-13T09:31:27Z</time>
      </trkpt>
      <trkpt lat="45.3459" lon="6.72313">
        <ele>2440.92</ele>
        <time>2019-09-13T09:31:47Z</time>
      </trkpt>
      <trkpt lat="45.34594" lon="6.7232">
        <ele>2443.33</ele>
        <time>2019-09-13T09:32:05Z</time>
      </trkpt>
      <trkpt lat="45.34592" lon="6.7233">
        <ele>2445.73</ele>
        <time>2019-09-13T09:32:22Z</time>
      </trkpt>
      <trkpt lat="45.34591" lon="6.72338">
        <ele>2448.13</ele>
        <time>2019-09-13T09:32:39Z</time>
      </trkpt>
      <trkpt lat="45.34594" lon="6.72335">
        <ele>2449.1</ele>
        <time>2019-09-13T09:32:57Z</time>
      </trkpt>
      <trkpt lat="45.34601" lon="6.72328">
        <ele>2448.62</ele>
        <time>2019-09-13T09:33:16Z</time>
      </trkpt>
      <trkpt lat="45.34611" lon="6.72322">
        <ele>2447.65</ele>
        <time>2019-09-13T09:33:34Z</time>
      </trkpt>
      <trkpt lat="45.34615" lon="6.72312">
        <ele>2451.02</ele>
        <time>2019-09-13T09:33:52Z</time>
      </trkpt>
      <trkpt lat="45.34618" lon="6.72303">
        <ele>2451.98</ele>
        <time>2019-09-13T09:34:08Z</time>
      </trkpt>
      <trkpt lat="45.34626" lon="6.72294">
        <ele>2452.46</ele>
        <time>2019-09-13T09:34:25Z</time>
      </trkpt>
      <trkpt lat="45.34631" lon="6.72282">
        <ele>2453.42</ele>
        <time>2019-09-13T09:34:42Z</time>
      </trkpt>
      <trkpt lat="45.3464" lon="6.72282">
        <ele>2453.9</ele>
        <time>2019-09-13T09:35:04Z</time>
      </trkpt>
      <trkpt lat="45.34645" lon="6.72273">
        <ele>2455.34</ele>
        <time>2019-09-13T09:35:23Z</time>
      </trkpt>
      <trkpt lat="45.3465" lon="6.72273">
        <ele>2457.75</ele>
        <time>2019-09-13T09:35:41Z</time>
      </trkpt>
      <trkpt lat="45.34651" lon="6.72282">
        <ele>2459.67</ele>
        <time>2019-09-13T09:36:00Z</time>
      </trkpt>
      <trkpt lat="45.34653" lon="6.72294">
        <ele>2461.59</ele>
        <time>2019-09-13T09:36:19Z</time>
      </trkpt>
      <trkpt lat="45.34654" lon="6.72301">
        <ele>2464.96</ele>
        <time>2019-09-13T09:36:38Z</time>
      </trkpt>
      <trkpt lat="45.34661" lon="6.72296">
        <ele>2465.44</ele>
        <time>2019-09-13T09:36:58Z</time>
      </trkpt>
      <trkpt lat="45.34665" lon="6.72286">
        <ele>2466.88</ele>
        <time>2019-09-13T09:37:22Z</time>
      </trkpt>
      <trkpt lat="45.34669" lon="6.72295">
        <ele>2467.36</ele>
        <time>2019-09-13T09:37:38Z</time>
      </trkpt>
      <trkpt lat="45.34669" lon="6.72306">
        <ele>2471.69</ele>
        <time>2019-09-13T09:37:54Z</time>
      </trkpt>
      <trkpt lat="45.34667" lon="6.72316">
        <ele>2474.09</ele>
        <time>2019-09-13T09:38:09Z</time>
      </trkpt>
      <trkpt lat="45.3467" lon="6.72322">
        <ele>2474.57</ele>
        <time>2019-09-13T09:38:26Z</time>
      </trkpt>
      <trkpt lat="45.34673" lon="6.72309">
        <ele>2476.01</ele>
        <time>2019-09-13T09:38:45Z</time>
      </trkpt>
      <trkpt lat="45.34678" lon="6.72303">
        <ele>2477.45</ele>
        <time>2019-09-13T09:39:02Z</time>
      </trkpt>
      <trkpt lat="45.34682" lon="6.72296">
        <ele>2479.38</ele>
        <time>2019-09-13T09:39:18Z</time>
      </trkpt>
      <trkpt lat="45.34683" lon="6.72297">
        <ele>2479.86</ele>
        <time>2019-09-13T09:39:27Z</time>
      </trkpt>
      <trkpt lat="45.34687" lon="6.72304">
        <ele>2481.3</ele>
        <time>2019-09-13T09:39:45Z</time>
      </trkpt>
      <trkpt lat="45.34688" lon="6.72309">
        <ele>2482.74</ele>
        <time>2019-09-13T09:40:07Z</time>
      </trkpt>
      <trkpt lat="45.34694" lon="6.72301">
        <ele>2486.11</ele>
        <time>2019-09-13T09:40:25Z</time>
      </trkpt>
      <trkpt lat="45.34696" lon="6.723">
        <ele>2486.59</ele>
        <time>2019-09-13T09:40:43Z</time>
      </trkpt>
      <trkpt lat="45.34702" lon="6.72296">
        <ele>2488.03</ele>
        <time>2019-09-13T09:41:07Z</time>
      </trkpt>
      <trkpt lat="45.34704" lon="6.72306">
        <ele>2489.47</ele>
        <time>2019-09-13T09:41:24Z</time>
      </trkpt>
      <trkpt lat="45.34702" lon="6.72317">
        <ele>2491.87</ele>
        <time>2019-09-13T09:41:44Z</time>
      </trkpt>
      <trkpt lat="45.34706" lon="6.72317">
        <ele>2491.39</ele>
        <time>2019-09-13T09:42:00Z</time>
      </trkpt>
      <trkpt lat="45.34711" lon="6.72309">
        <ele>2495.24</ele>
        <time>2019-09-13T09:42:16Z</time>
      </trkpt>
      <trkpt lat="45.34715" lon="6.72305">
        <ele>2496.68</ele>
        <time>2019-09-13T09:42:35Z</time>
      </trkpt>
      <trkpt lat="45.34721" lon="6.72301">
        <ele>2499.57</ele>
        <time>2019-09-13T09:42:58Z</time>
      </trkpt>
      <trkpt lat="45.3473" lon="6.72297">
        <ele>2501.01</ele>
        <time>2019-09-13T09:43:16Z</time>
      </trkpt>
      <trkpt lat="45.34738" lon="6.72295">
        <ele>2502.45</ele>
        <time>2019-09-13T09:43:40Z</time>
      </trkpt>
      <trkpt lat="45.34745" lon="6.72292">
        <ele>2505.33</ele>
        <time>2019-09-13T09:43:57Z</time>
      </trkpt>
      <trkpt lat="45.34748" lon="6.72289">
        <ele>2506.77</ele>
        <time>2019-09-13T09:44:21Z</time>
      </trkpt>
      <trkpt lat="45.34758" lon="6.72285">
        <ele>2509.66</ele>
        <time>2019-09-13T09:44:39Z</time>
      </trkpt>
      <trkpt lat="45.34764" lon="6.72278">
        <ele>2509.66</ele>
        <time>2019-09-13T09:44:55Z</time>
      </trkpt>
      <trkpt lat="45.34769" lon="6.72276">
        <ele>2511.1</ele>
        <time>2019-09-13T09:45:11Z</time>
      </trkpt>
      <trkpt lat="45.34777" lon="6.72271">
        <ele>2512.06</ele>
        <time>2019-09-13T09:45:29Z</time>
      </trkpt>
      <trkpt lat="45.34787" lon="6.72263">
        <ele>2513.98</ele>
        <time>2019-09-13T09:45:51Z</time>
      </trkpt>
      <trkpt lat="45.34795" lon="6.72258">
        <ele>2513.98</ele>
        <time>2019-09-13T09:46:08Z</time>
      </trkpt>
      <trkpt lat="45.34803" lon="6.72252">
        <ele>2513.98</ele>
        <time>2019-09-13T09:46:25Z</time>
      </trkpt>
      <trkpt lat="45.34809" lon="6.72249">
        <ele>2515.91</ele>
        <time>2019-09-13T09:46:43Z</time>
      </trkpt>
      <trkpt lat="45.34813" lon="6.72245">
        <ele>2518.31</ele>
        <time>2019-09-13T09:47:02Z</time>
      </trkpt>
      <trkpt lat="45.34819" lon="6.72243">
        <ele>2521.19</ele>
        <time>2019-09-13T09:47:26Z</time>
      </trkpt>
      <trkpt lat="45.34828" lon="6.72242">
        <ele>2522.16</ele>
        <time>2019-09-13T09:47:44Z</time>
      </trkpt>
      <trkpt lat="45.34834" lon="6.72243">
        <ele>2524.08</ele>
        <time>2019-09-13T09:48:01Z</time>
      </trkpt>
      <trkpt lat="45.34843" lon="6.72239">
        <ele>2526.48</ele>
        <time>2019-09-13T09:48:19Z</time>
      </trkpt>
      <trkpt lat="45.3485" lon="6.72235">
        <ele>2529.85</ele>
        <time>2019-09-13T09:48:36Z</time>
      </trkpt>
      <trkpt lat="45.34857" lon="6.72231">
        <ele>2530.33</ele>
        <time>2019-09-13T09:48:53Z</time>
      </trkpt>
      <trkpt lat="45.34864" lon="6.72229">
        <ele>2531.77</ele>
        <time>2019-09-13T09:49:08Z</time>
      </trkpt>
      <trkpt lat="45.34871" lon="6.72225">
        <ele>2534.17</ele>
        <time>2019-09-13T09:49:35Z</time>
      </trkpt>
      <trkpt lat="45.3488" lon="6.72218">
        <ele>2535.61</ele>
        <time>2019-09-13T09:49:54Z</time>
      </trkpt>
      <trkpt lat="45.34885" lon="6.72214">
        <ele>2538.02</ele>
        <time>2019-09-13T09:50:09Z</time>
      </trkpt>
      <trkpt lat="45.34888" lon="6.72215">
        <ele>2539.46</ele>
        <time>2019-09-13T09:50:32Z</time>
      </trkpt>
      <trkpt lat="45.349" lon="6.72213">
        <ele>2541.38</ele>
        <time>2019-09-13T09:50:57Z</time>
      </trkpt>
      <trkpt lat="45.34906" lon="6.72208">
        <ele>2541.86</ele>
        <time>2019-09-13T09:51:18Z</time>
      </trkpt>
      <trkpt lat="45.34912" lon="6.72194">
        <ele>2544.75</ele>
        <time>2019-09-13T09:51:37Z</time>
      </trkpt>
      <trkpt lat="45.34921" lon="6.72189">
        <ele>2546.19</ele>
        <time>2019-09-13T09:51:55Z</time>
      </trkpt>
      <trkpt lat="45.34922" lon="6.72189">
        <ele>2546.19</ele>
        <time>2019-09-13T09:51:56Z</time>
      </trkpt>
      <trkpt lat="45.34931" lon="6.72186">
        <ele>2548.59</ele>
        <time>2019-09-13T09:52:13Z</time>
      </trkpt>
      <trkpt lat="45.34936" lon="6.72187">
        <ele>2549.07</ele>
        <time>2019-09-13T09:52:38Z</time>
      </trkpt>
      <trkpt lat="45.34947" lon="6.7219">
        <ele>2549.55</ele>
        <time>2019-09-13T09:52:56Z</time>
      </trkpt>
      <trkpt lat="45.34962" lon="6.72185">
        <ele>2551.96</ele>
        <time>2019-09-13T09:53:16Z</time>
      </trkpt>
      <trkpt lat="45.34972" lon="6.72186">
        <ele>2552.92</ele>
        <time>2019-09-13T09:53:37Z</time>
      </trkpt>
      <trkpt lat="45.34982" lon="6.72182">
        <ele>2552.92</ele>
        <time>2019-09-13T09:53:54Z</time>
      </trkpt>
      <trkpt lat="45.34996" lon="6.72179">
        <ele>2551</ele>
        <time>2019-09-13T09:54:13Z</time>
      </trkpt>
      <trkpt lat="45.35002" lon="6.72178">
        <ele>2551.48</ele>
        <time>2019-09-13T09:54:21Z</time>
      </trkpt>
      <trkpt lat="45.35014" lon="6.7218">
        <ele>2551.48</ele>
        <time>2019-09-13T09:54:42Z</time>
      </trkpt>
      <trkpt lat="45.35019" lon="6.72175">
        <ele>2551.48</ele>
        <time>2019-09-13T09:54:48Z</time>
      </trkpt>
      <trkpt lat="45.35035" lon="6.72174">
        <ele>2551.96</ele>
        <time>2019-09-13T09:55:10Z</time>
      </trkpt>
      <trkpt lat="45.35046" lon="6.72169">
        <ele>2555.32</ele>
        <time>2019-09-13T09:55:29Z</time>
      </trkpt>
      <trkpt lat="45.35052" lon="6.72162">
        <ele>2555.32</ele>
        <time>2019-09-13T09:55:37Z</time>
      </trkpt>
      <trkpt lat="45.35066" lon="6.72157">
        <ele>2555.8</ele>
        <time>2019-09-13T09:55:58Z</time>
      </trkpt>
      <trkpt lat="45.35075" lon="6.72152">
        <ele>2555.8</ele>
        <time>2019-09-13T09:56:12Z</time>
      </trkpt>
      <trkpt lat="45.35083" lon="6.72155">
        <ele>2555.8</ele>
        <time>2019-09-13T09:56:31Z</time>
      </trkpt>
      <trkpt lat="45.35086" lon="6.72158">
        <ele>2556.76</ele>
        <time>2019-09-13T09:56:51Z</time>
      </trkpt>
      <trkpt lat="45.35088" lon="6.72159">
        <ele>2557.73</ele>
        <time>2019-09-13T09:57:11Z</time>
      </trkpt>
      <trkpt lat="45.35092" lon="6.7216">
        <ele>2558.69</ele>
        <time>2019-09-13T09:57:31Z</time>
      </trkpt>
      <trkpt lat="45.35095" lon="6.72163">
        <ele>2559.17</ele>
        <time>2019-09-13T09:57:55Z</time>
      </trkpt>
      <trkpt lat="45.351" lon="6.7217">
        <ele>2559.65</ele>
        <time>2019-09-13T09:58:12Z</time>
      </trkpt>
      <trkpt lat="45.351" lon="6.7217">
        <ele>2560.13</ele>
        <time>2019-09-13T09:58:34Z</time>
      </trkpt>
      <trkpt lat="45.35102" lon="6.72176">
        <ele>2560.61</ele>
        <time>2019-09-13T09:58:52Z</time>
      </trkpt>
      <trkpt lat="45.35102" lon="6.72185">
        <ele>2567.34</ele>
        <time>2019-09-13T09:59:11Z</time>
      </trkpt>
      <trkpt lat="45.35102" lon="6.72185">
        <ele>2567.34</ele>
        <time>2019-09-13T09:59:52Z</time>
      </trkpt>
      <trkpt lat="45.3511" lon="6.72186">
        <ele>2568.78</ele>
        <time>2019-09-13T10:00:11Z</time>
      </trkpt>
      <trkpt lat="45.35125" lon="6.72189">
        <ele>2572.14</ele>
        <time>2019-09-13T10:00:30Z</time>
      </trkpt>
      <trkpt lat="45.35125" lon="6.72194">
        <ele>2577.43</ele>
        <time>2019-09-13T10:00:47Z</time>
      </trkpt>
      <trkpt lat="45.35123" lon="6.72204">
        <ele>2581.76</ele>
        <time>2019-09-13T10:01:09Z</time>
      </trkpt>
      <trkpt lat="45.35125" lon="6.7221">
        <ele>2583.68</ele>
        <time>2019-09-13T10:01:27Z</time>
      </trkpt>
      <trkpt lat="45.35136" lon="6.7221">
        <ele>2587.04</ele>
        <time>2019-09-13T10:01:46Z</time>
      </trkpt>
      <trkpt lat="45.35143" lon="6.72216">
        <ele>2588.97</ele>
        <time>2019-09-13T10:02:04Z</time>
      </trkpt>
      <trkpt lat="45.35147" lon="6.72224">
        <ele>2589.93</ele>
        <time>2019-09-13T10:02:22Z</time>
      </trkpt>
      <trkpt lat="45.35148" lon="6.72232">
        <ele>2592.33</ele>
        <time>2019-09-13T10:03:16Z</time>
      </trkpt>
      <trkpt lat="45.35147" lon="6.72242">
        <ele>2594.74</ele>
        <time>2019-09-13T10:03:33Z</time>
      </trkpt>
      <trkpt lat="45.35146" lon="6.72245">
        <ele>2595.22</ele>
        <time>2019-09-13T10:03:59Z</time>
      </trkpt>
      <trkpt lat="45.35144" lon="6.72252">
        <ele>2597.14</ele>
        <time>2019-09-13T10:04:18Z</time>
      </trkpt>
      <trkpt lat="45.35147" lon="6.72259">
        <ele>2598.58</ele>
        <time>2019-09-13T10:04:37Z</time>
      </trkpt>
      <trkpt lat="45.35149" lon="6.72275">
        <ele>2602.91</ele>
        <time>2019-09-13T10:04:54Z</time>
      </trkpt>
      <trkpt lat="45.35153" lon="6.72286">
        <ele>2604.83</ele>
        <time>2019-09-13T10:05:12Z</time>
      </trkpt>
      <trkpt lat="45.35157" lon="6.72294">
        <ele>2605.31</ele>
        <time>2019-09-13T10:05:31Z</time>
      </trkpt>
      <trkpt lat="45.35167" lon="6.72303">
        <ele>2606.75</ele>
        <time>2019-09-13T10:05:49Z</time>
      </trkpt>
      <trkpt lat="45.35177" lon="6.72318">
        <ele>2607.23</ele>
        <time>2019-09-13T10:06:07Z</time>
      </trkpt>
      <trkpt lat="45.35179" lon="6.7232">
        <ele>2607.71</ele>
        <time>2019-09-13T10:06:10Z</time>
      </trkpt>
      <trkpt lat="45.3519" lon="6.72329">
        <ele>2609.16</ele>
        <time>2019-09-13T10:06:29Z</time>
      </trkpt>
      <trkpt lat="45.35192" lon="6.72334">
        <ele>2609.64</ele>
        <time>2019-09-13T10:06:35Z</time>
      </trkpt>
      <trkpt lat="45.35196" lon="6.72335">
        <ele>2609.16</ele>
        <time>2019-09-13T10:06:40Z</time>
      </trkpt>
      <trkpt lat="45.35206" lon="6.7235">
        <ele>2608.19</ele>
        <time>2019-09-13T10:07:01Z</time>
      </trkpt>
      <trkpt lat="45.35209" lon="6.72352">
        <ele>2607.23</ele>
        <time>2019-09-13T10:07:06Z</time>
      </trkpt>
      <trkpt lat="45.3521" lon="6.72353">
        <ele>2607.23</ele>
        <time>2019-09-13T10:07:08Z</time>
      </trkpt>
      <trkpt lat="45.35222" lon="6.72364">
        <ele>2607.23</ele>
        <time>2019-09-13T10:07:26Z</time>
      </trkpt>
      <trkpt lat="45.35227" lon="6.72368">
        <ele>2607.23</ele>
        <time>2019-09-13T10:07:38Z</time>
      </trkpt>
      <trkpt lat="45.35241" lon="6.72385">
        <ele>2605.79</ele>
        <time>2019-09-13T10:08:00Z</time>
      </trkpt>
      <trkpt lat="45.35252" lon="6.72399">
        <ele>2604.35</ele>
        <time>2019-09-13T10:08:18Z</time>
      </trkpt>
      <trkpt lat="45.35267" lon="6.72406">
        <ele>2603.39</ele>
        <time>2019-09-13T10:08:38Z</time>
      </trkpt>
      <trkpt lat="45.3528" lon="6.7241">
        <ele>2602.43</ele>
        <time>2019-09-13T10:08:57Z</time>
      </trkpt>
      <trkpt lat="45.3529" lon="6.72414">
        <ele>2601.95</ele>
        <time>2019-09-13T10:09:24Z</time>
      </trkpt>
      <trkpt lat="45.35297" lon="6.72415">
        <ele>2601.46</ele>
        <time>2019-09-13T10:09:40Z</time>
      </trkpt>
      <trkpt lat="45.35312" lon="6.7241">
        <ele>2599.54</ele>
        <time>2019-09-13T10:09:59Z</time>
      </trkpt>
      <trkpt lat="45.35314" lon="6.72407">
        <ele>2598.58</ele>
        <time>2019-09-13T10:10:05Z</time>
      </trkpt>
      <trkpt lat="45.35321" lon="6.72403">
        <ele>2598.1</ele>
        <time>2019-09-13T10:10:15Z</time>
      </trkpt>
      <trkpt lat="45.35327" lon="6.72399">
        <ele>2596.66</ele>
        <time>2019-09-13T10:10:38Z</time>
      </trkpt>
      <trkpt lat="45.3533" lon="6.724">
        <ele>2596.66</ele>
        <time>2019-09-13T10:10:57Z</time>
      </trkpt>
      <trkpt lat="45.35331" lon="6.724">
        <ele>2596.18</ele>
        <time>2019-09-13T10:11:39Z</time>
      </trkpt>
      <trkpt lat="45.35331" lon="6.72399">
        <ele>2596.18</ele>
        <time>2019-09-13T10:13:24Z</time>
      </trkpt>
      <trkpt lat="45.35332" lon="6.72401">
        <ele>2597.62</ele>
        <time>2019-09-13T10:17:33Z</time>
      </trkpt>
      <trkpt lat="45.35331" lon="6.72401">
        <ele>2597.62</ele>
        <time>2019-09-13T10:21:23Z</time>
      </trkpt>
      <trkpt lat="45.35331" lon="6.724">
        <ele>2598.1</ele>
        <time>2019-09-13T10:29:12Z</time>
      </trkpt>
      <trkpt lat="45.35331" lon="6.72402">
        <ele>2599.06</ele>
        <time>2019-09-13T10:55:53Z</time>
      </trkpt>
      <trkpt lat="45.35332" lon="6.724">
        <ele>2596.18</ele>
        <time>2019-09-13T11:05:11Z</time>
      </trkpt>
      <trkpt lat="45.35331" lon="6.72399">
        <ele>2595.7</ele>
        <time>2019-09-13T11:07:35Z</time>
      </trkpt>
      <trkpt lat="45.35329" lon="6.72407">
        <ele>2597.62</ele>
        <time>2019-09-13T11:07:56Z</time>
      </trkpt>
      <trkpt lat="45.35326" lon="6.72413">
        <ele>2598.1</ele>
        <time>2019-09-13T11:08:12Z</time>
      </trkpt>
      <trkpt lat="45.35326" lon="6.72413">
        <ele>2598.1</ele>
        <time>2019-09-13T11:09:03Z</time>
      </trkpt>
      <trkpt lat="45.35327" lon="6.724">
        <ele>2596.18</ele>
        <time>2019-09-13T11:09:32Z</time>
      </trkpt>
      <trkpt lat="45.35327" lon="6.72398">
        <ele>2596.66</ele>
        <time>2019-09-13T11:09:52Z</time>
      </trkpt>
      <trkpt lat="45.35327" lon="6.72399">
        <ele>2597.62</ele>
        <time>2019-09-13T11:10:25Z</time>
      </trkpt>
      <trkpt lat="45.35327" lon="6.72402">
        <ele>2598.58</ele>
        <time>2019-09-13T11:11:00Z</time>
      </trkpt>
      <trkpt lat="45.35319" lon="6.72406">
        <ele>2600.98</ele>
        <time>2019-09-13T11:11:16Z</time>
      </trkpt>
      <trkpt lat="45.35314" lon="6.72406">
        <ele>2600.98</ele>
        <time>2019-09-13T11:11:34Z</time>
      </trkpt>
      <trkpt lat="45.35311" lon="6.72408">
        <ele>2600.98</ele>
        <time>2019-09-13T11:12:22Z</time>
      </trkpt>
      <trkpt lat="45.35304" lon="6.72409">
        <ele>2600.98</ele>
        <time>2019-09-13T11:12:45Z</time>
      </trkpt>
      <trkpt lat="45.35299" lon="6.72413">
        <ele>2602.91</ele>
        <time>2019-09-13T11:13:06Z</time>
      </trkpt>
      <trkpt lat="45.35297" lon="6.72413">
        <ele>2601.95</ele>
        <time>2019-09-13T11:14:08Z</time>
      </trkpt>
      <trkpt lat="45.3529" lon="6.72412">
        <ele>2603.87</ele>
        <time>2019-09-13T11:14:27Z</time>
      </trkpt>
      <trkpt lat="45.35286" lon="6.72412">
        <ele>2604.35</ele>
        <time>2019-09-13T11:14:42Z</time>
      </trkpt>
      <trkpt lat="45.35285" lon="6.72412">
        <ele>2604.35</ele>
        <time>2019-09-13T11:14:46Z</time>
      </trkpt>
      <trkpt lat="45.35275" lon="6.72418">
        <ele>2604.35</ele>
        <time>2019-09-13T11:15:02Z</time>
      </trkpt>
      <trkpt lat="45.35267" lon="6.72427">
        <ele>2604.83</ele>
        <time>2019-09-13T11:15:17Z</time>
      </trkpt>
      <trkpt lat="45.35266" lon="6.7243">
        <ele>2604.83</ele>
        <time>2019-09-13T11:15:20Z</time>
      </trkpt>
      <trkpt lat="45.35261" lon="6.72442">
        <ele>2606.27</ele>
        <time>2019-09-13T11:15:33Z</time>
      </trkpt>
      <trkpt lat="45.35255" lon="6.72449">
        <ele>2606.75</ele>
        <time>2019-09-13T11:15:52Z</time>
      </trkpt>
      <trkpt lat="45.35245" lon="6.72461">
        <ele>2607.71</ele>
        <time>2019-09-13T11:16:07Z</time>
      </trkpt>
      <trkpt lat="45.35237" lon="6.72468">
        <ele>2608.19</ele>
        <time>2019-09-13T11:16:20Z</time>
      </trkpt>
      <trkpt lat="45.35229" lon="6.72483">
        <ele>2610.12</ele>
        <time>2019-09-13T11:16:38Z</time>
      </trkpt>
      <trkpt lat="45.35223" lon="6.72495">
        <ele>2612.52</ele>
        <time>2019-09-13T11:16:55Z</time>
      </trkpt>
      <trkpt lat="45.35215" lon="6.72506">
        <ele>2614.92</ele>
        <time>2019-09-13T11:17:11Z</time>
      </trkpt>
      <trkpt lat="45.35205" lon="6.72516">
        <ele>2617.33</ele>
        <time>2019-09-13T11:17:28Z</time>
      </trkpt>
      <trkpt lat="45.35195" lon="6.72522">
        <ele>2619.73</ele>
        <time>2019-09-13T11:17:45Z</time>
      </trkpt>
      <trkpt lat="45.35186" lon="6.72528">
        <ele>2621.17</ele>
        <time>2019-09-13T11:18:03Z</time>
      </trkpt>
      <trkpt lat="45.35177" lon="6.72536">
        <ele>2623.09</ele>
        <time>2019-09-13T11:18:19Z</time>
      </trkpt>
      <trkpt lat="45.35165" lon="6.72543">
        <ele>2624.06</ele>
        <time>2019-09-13T11:18:36Z</time>
      </trkpt>
      <trkpt lat="45.35159" lon="6.72549">
        <ele>2625.5</ele>
        <time>2019-09-13T11:18:44Z</time>
      </trkpt>
      <trkpt lat="45.35158" lon="6.72551">
        <ele>2625.5</ele>
        <time>2019-09-13T11:18:47Z</time>
      </trkpt>
      <trkpt lat="45.35144" lon="6.72561">
        <ele>2627.9</ele>
        <time>2019-09-13T11:19:07Z</time>
      </trkpt>
      <trkpt lat="45.35134" lon="6.72562">
        <ele>2628.86</ele>
        <time>2019-09-13T11:19:24Z</time>
      </trkpt>
      <trkpt lat="45.3513" lon="6.72575">
        <ele>2632.23</ele>
        <time>2019-09-13T11:19:44Z</time>
      </trkpt>
      <trkpt lat="45.35122" lon="6.72585">
        <ele>2634.63</ele>
        <time>2019-09-13T11:20:02Z</time>
      </trkpt>
      <trkpt lat="45.35121" lon="6.7259">
        <ele>2635.59</ele>
        <time>2019-09-13T11:20:24Z</time>
      </trkpt>
      <trkpt lat="45.35114" lon="6.72607">
        <ele>2640.4</ele>
        <time>2019-09-13T11:20:42Z</time>
      </trkpt>
      <trkpt lat="45.35111" lon="6.72613">
        <ele>2641.36</ele>
        <time>2019-09-13T11:20:52Z</time>
      </trkpt>
      <trkpt lat="45.35101" lon="6.72621">
        <ele>2640.88</ele>
        <time>2019-09-13T11:21:08Z</time>
      </trkpt>
      <trkpt lat="45.35089" lon="6.72633">
        <ele>2640.4</ele>
        <time>2019-09-13T11:21:25Z</time>
      </trkpt>
      <trkpt lat="45.35087" lon="6.72634">
        <ele>2640.4</ele>
        <time>2019-09-13T11:21:29Z</time>
      </trkpt>
      <trkpt lat="45.35078" lon="6.72645">
        <ele>2640.4</ele>
        <time>2019-09-13T11:21:54Z</time>
      </trkpt>
      <trkpt lat="45.35071" lon="6.72657">
        <ele>2638.96</ele>
        <time>2019-09-13T11:22:11Z</time>
      </trkpt>
      <trkpt lat="45.35063" lon="6.72668">
        <ele>2637.03</ele>
        <time>2019-09-13T11:22:27Z</time>
      </trkpt>
      <trkpt lat="45.35055" lon="6.72681">
        <ele>2634.63</ele>
        <time>2019-09-13T11:22:46Z</time>
      </trkpt>
      <trkpt lat="45.35053" lon="6.72695">
        <ele>2635.59</ele>
        <time>2019-09-13T11:23:03Z</time>
      </trkpt>
      <trkpt lat="45.3505" lon="6.72707">
        <ele>2636.07</ele>
        <time>2019-09-13T11:23:22Z</time>
      </trkpt>
      <trkpt lat="45.35045" lon="6.72716">
        <ele>2634.63</ele>
        <time>2019-09-13T11:23:46Z</time>
      </trkpt>
      <trkpt lat="45.35036" lon="6.72729">
        <ele>2634.15</ele>
        <time>2019-09-13T11:24:05Z</time>
      </trkpt>
      <trkpt lat="45.35037" lon="6.72749">
        <ele>2637.99</ele>
        <time>2019-09-13T11:24:23Z</time>
      </trkpt>
      <trkpt lat="45.35036" lon="6.72759">
        <ele>2638.48</ele>
        <time>2019-09-13T11:24:40Z</time>
      </trkpt>
      <trkpt lat="45.35033" lon="6.72774">
        <ele>2637.99</ele>
        <time>2019-09-13T11:25:01Z</time>
      </trkpt>
      <trkpt lat="45.35028" lon="6.7279">
        <ele>2637.99</ele>
        <time>2019-09-13T11:25:20Z</time>
      </trkpt>
      <trkpt lat="45.35023" lon="6.72806">
        <ele>2637.03</ele>
        <time>2019-09-13T11:25:37Z</time>
      </trkpt>
      <trkpt lat="45.35025" lon="6.72815">
        <ele>2639.44</ele>
        <time>2019-09-13T11:25:51Z</time>
      </trkpt>
      <trkpt lat="45.35025" lon="6.72827">
        <ele>2640.88</ele>
        <time>2019-09-13T11:26:03Z</time>
      </trkpt>
      <trkpt lat="45.35021" lon="6.72839">
        <ele>2640.4</ele>
        <time>2019-09-13T11:26:19Z</time>
      </trkpt>
      <trkpt lat="45.35023" lon="6.72845">
        <ele>2640.4</ele>
        <time>2019-09-13T11:26:30Z</time>
      </trkpt>
      <trkpt lat="45.35027" lon="6.72853">
        <ele>2640.88</ele>
        <time>2019-09-13T11:26:48Z</time>
      </trkpt>
      <trkpt lat="45.3503" lon="6.72855">
        <ele>2641.36</ele>
        <time>2019-09-13T11:26:53Z</time>
      </trkpt>
      <trkpt lat="45.35034" lon="6.72858">
        <ele>2642.32</ele>
        <time>2019-09-13T11:26:58Z</time>
      </trkpt>
      <trkpt lat="45.3504" lon="6.72866">
        <ele>2642.8</ele>
        <time>2019-09-13T11:27:08Z</time>
      </trkpt>
      <trkpt lat="45.35054" lon="6.72878">
        <ele>2639.44</ele>
        <time>2019-09-13T11:27:28Z</time>
      </trkpt>
      <trkpt lat="45.35063" lon="6.72881">
        <ele>2638.96</ele>
        <time>2019-09-13T11:27:44Z</time>
      </trkpt>
      <trkpt lat="45.35064" lon="6.72881">
        <ele>2638.96</ele>
        <time>2019-09-13T11:28:00Z</time>
      </trkpt>
      <trkpt lat="45.35063" lon="6.72881">
        <ele>2638.48</ele>
        <time>2019-09-13T11:28:38Z</time>
      </trkpt>
      <trkpt lat="45.35069" lon="6.72896">
        <ele>2638.96</ele>
        <time>2019-09-13T11:28:53Z</time>
      </trkpt>
      <trkpt lat="45.3507" lon="6.72902">
        <ele>2637.51</ele>
        <time>2019-09-13T11:28:58Z</time>
      </trkpt>
      <trkpt lat="45.35072" lon="6.72903">
        <ele>2637.51</ele>
        <time>2019-09-13T11:29:22Z</time>
      </trkpt>
      <trkpt lat="45.35072" lon="6.72903">
        <ele>2637.99</ele>
        <time>2019-09-13T11:30:05Z</time>
      </trkpt>
      <trkpt lat="45.35072" lon="6.72904">
        <ele>2637.51</ele>
        <time>2019-09-13T11:30:51Z</time>
      </trkpt>
      <trkpt lat="45.35072" lon="6.72905">
        <ele>2636.55</ele>
        <time>2019-09-13T11:32:28Z</time>
      </trkpt>
      <trkpt lat="45.35067" lon="6.72901">
        <ele>2637.51</ele>
        <time>2019-09-13T11:32:52Z</time>
      </trkpt>
      <trkpt lat="45.35062" lon="6.72903">
        <ele>2638.96</ele>
        <time>2019-09-13T11:33:13Z</time>
      </trkpt>
      <trkpt lat="45.35062" lon="6.72903">
        <ele>2638.96</ele>
        <time>2019-09-13T11:33:14Z</time>
      </trkpt>
      <trkpt lat="45.35057" lon="6.72893">
        <ele>2637.03</ele>
        <time>2019-09-13T11:33:28Z</time>
      </trkpt>
      <trkpt lat="45.35056" lon="6.72889">
        <ele>2636.07</ele>
        <time>2019-09-13T11:33:31Z</time>
      </trkpt>
      <trkpt lat="45.35051" lon="6.72876">
        <ele>2636.55</ele>
        <time>2019-09-13T11:33:48Z</time>
      </trkpt>
      <trkpt lat="45.35041" lon="6.72867">
        <ele>2635.59</ele>
        <time>2019-09-13T11:34:06Z</time>
      </trkpt>
      <trkpt lat="45.35035" lon="6.7286">
        <ele>2635.59</ele>
        <time>2019-09-13T11:34:15Z</time>
      </trkpt>
      <trkpt lat="45.35032" lon="6.72858">
        <ele>2637.03</ele>
        <time>2019-09-13T11:34:19Z</time>
      </trkpt>
      <trkpt lat="45.3503" lon="6.72856">
        <ele>2636.55</ele>
        <time>2019-09-13T11:34:22Z</time>
      </trkpt>
      <trkpt lat="45.35025" lon="6.72853">
        <ele>2636.55</ele>
        <time>2019-09-13T11:34:33Z</time>
      </trkpt>
      <trkpt lat="45.3502" lon="6.72836">
        <ele>2634.63</ele>
        <time>2019-09-13T11:34:49Z</time>
      </trkpt>
      <trkpt lat="45.3502" lon="6.7283">
        <ele>2635.11</ele>
        <time>2019-09-13T11:34:57Z</time>
      </trkpt>
      <trkpt lat="45.35024" lon="6.72812">
        <ele>2632.71</ele>
        <time>2019-09-13T11:35:13Z</time>
      </trkpt>
      <trkpt lat="45.35032" lon="6.72796">
        <ele>2633.67</ele>
        <time>2019-09-13T11:35:32Z</time>
      </trkpt>
      <trkpt lat="45.35036" lon="6.72779">
        <ele>2634.15</ele>
        <time>2019-09-13T11:35:49Z</time>
      </trkpt>
      <trkpt lat="45.35036" lon="6.72778">
        <ele>2634.63</ele>
        <time>2019-09-13T11:35:50Z</time>
      </trkpt>
      <trkpt lat="45.35039" lon="6.72763">
        <ele>2637.03</ele>
        <time>2019-09-13T11:36:09Z</time>
      </trkpt>
      <trkpt lat="45.35041" lon="6.72752">
        <ele>2638.48</ele>
        <time>2019-09-13T11:36:28Z</time>
      </trkpt>
      <trkpt lat="45.35042" lon="6.72752">
        <ele>2639.44</ele>
        <time>2019-09-13T11:36:34Z</time>
      </trkpt>
      <trkpt lat="45.35044" lon="6.72738">
        <ele>2637.51</ele>
        <time>2019-09-13T11:36:50Z</time>
      </trkpt>
      <trkpt lat="45.35044" lon="6.72737">
        <ele>2637.51</ele>
        <time>2019-09-13T11:36:51Z</time>
      </trkpt>
      <trkpt lat="45.35044" lon="6.72733">
        <ele>2637.03</ele>
        <time>2019-09-13T11:36:54Z</time>
      </trkpt>
      <trkpt lat="45.35049" lon="6.72718">
        <ele>2636.07</ele>
        <time>2019-09-13T11:37:10Z</time>
      </trkpt>
      <trkpt lat="45.35052" lon="6.72708">
        <ele>2634.63</ele>
        <time>2019-09-13T11:37:25Z</time>
      </trkpt>
      <trkpt lat="45.35053" lon="6.72698">
        <ele>2636.07</ele>
        <time>2019-09-13T11:37:39Z</time>
      </trkpt>
      <trkpt lat="45.35058" lon="6.72688">
        <ele>2636.55</ele>
        <time>2019-09-13T11:37:54Z</time>
      </trkpt>
      <trkpt lat="45.35061" lon="6.72678">
        <ele>2637.51</ele>
        <time>2019-09-13T11:38:15Z</time>
      </trkpt>
      <trkpt lat="45.35066" lon="6.72662">
        <ele>2639.92</ele>
        <time>2019-09-13T11:38:32Z</time>
      </trkpt>
      <trkpt lat="45.35075" lon="6.72648">
        <ele>2642.8</ele>
        <time>2019-09-13T11:38:54Z</time>
      </trkpt>
      <trkpt lat="45.35085" lon="6.72636">
        <ele>2644.72</ele>
        <time>2019-09-13T11:39:11Z</time>
      </trkpt>
      <trkpt lat="45.35086" lon="6.72635">
        <ele>2644.72</ele>
        <time>2019-09-13T11:39:12Z</time>
      </trkpt>
      <trkpt lat="45.35099" lon="6.72625">
        <ele>2645.69</ele>
        <time>2019-09-13T11:39:30Z</time>
      </trkpt>
      <trkpt lat="45.35108" lon="6.72612">
        <ele>2645.69</ele>
        <time>2019-09-13T11:39:46Z</time>
      </trkpt>
      <trkpt lat="45.35112" lon="6.72607">
        <ele>2643.28</ele>
        <time>2019-09-13T11:39:54Z</time>
      </trkpt>
      <trkpt lat="45.35113" lon="6.72604">
        <ele>2642.32</ele>
        <time>2019-09-13T11:39:57Z</time>
      </trkpt>
      <trkpt lat="45.35116" lon="6.72589">
        <ele>2637.03</ele>
        <time>2019-09-13T11:40:15Z</time>
      </trkpt>
      <trkpt lat="45.35117" lon="6.72588">
        <ele>2636.55</ele>
        <time>2019-09-13T11:40:16Z</time>
      </trkpt>
      <trkpt lat="45.35121" lon="6.72587">
        <ele>2636.55</ele>
        <time>2019-09-13T11:40:20Z</time>
      </trkpt>
      <trkpt lat="45.35125" lon="6.72582">
        <ele>2636.07</ele>
        <time>2019-09-13T11:40:29Z</time>
      </trkpt>
      <trkpt lat="45.35126" lon="6.72582">
        <ele>2636.07</ele>
        <time>2019-09-13T11:40:31Z</time>
      </trkpt>
      <trkpt lat="45.3513" lon="6.72572">
        <ele>2635.11</ele>
        <time>2019-09-13T11:40:40Z</time>
      </trkpt>
      <trkpt lat="45.35134" lon="6.72563">
        <ele>2633.19</ele>
        <time>2019-09-13T11:40:49Z</time>
      </trkpt>
      <trkpt lat="45.35136" lon="6.72564">
        <ele>2632.71</ele>
        <time>2019-09-13T11:40:51Z</time>
      </trkpt>
      <trkpt lat="45.35141" lon="6.72564">
        <ele>2631.75</ele>
        <time>2019-09-13T11:40:56Z</time>
      </trkpt>
      <trkpt lat="45.35144" lon="6.72563">
        <ele>2630.79</ele>
        <time>2019-09-13T11:41:00Z</time>
      </trkpt>
      <trkpt lat="45.35149" lon="6.7256">
        <ele>2630.3</ele>
        <time>2019-09-13T11:41:05Z</time>
      </trkpt>
      <trkpt lat="45.35152" lon="6.72559">
        <ele>2630.3</ele>
        <time>2019-09-13T11:41:08Z</time>
      </trkpt>
      <trkpt lat="45.35157" lon="6.72552">
        <ele>2630.79</ele>
        <time>2019-09-13T11:41:15Z</time>
      </trkpt>
      <trkpt lat="45.35159" lon="6.72551">
        <ele>2630.79</ele>
        <time>2019-09-13T11:41:17Z</time>
      </trkpt>
      <trkpt lat="45.3517" lon="6.72539">
        <ele>2629.82</ele>
        <time>2019-09-13T11:41:32Z</time>
      </trkpt>
      <trkpt lat="45.3518" lon="6.72532">
        <ele>2627.42</ele>
        <time>2019-09-13T11:41:44Z</time>
      </trkpt>
      <trkpt lat="45.35183" lon="6.72531">
        <ele>2627.42</ele>
        <time>2019-09-13T11:41:47Z</time>
      </trkpt>
      <trkpt lat="45.35195" lon="6.72524">
        <ele>2624.54</ele>
        <time>2019-09-13T11:42:03Z</time>
      </trkpt>
      <trkpt lat="45.352" lon="6.72522">
        <ele>2622.61</ele>
        <time>2019-09-13T11:42:10Z</time>
      </trkpt>
      <trkpt lat="45.35216" lon="6.72509">
        <ele>2618.77</ele>
        <time>2019-09-13T11:42:30Z</time>
      </trkpt>
      <trkpt lat="45.35217" lon="6.72508">
        <ele>2618.29</ele>
        <time>2019-09-13T11:42:32Z</time>
      </trkpt>
      <trkpt lat="45.35221" lon="6.72506">
        <ele>2617.81</ele>
        <time>2019-09-13T11:42:37Z</time>
      </trkpt>
      <trkpt lat="45.35224" lon="6.72505">
        <ele>2617.33</ele>
        <time>2019-09-13T11:42:41Z</time>
      </trkpt>
      <trkpt lat="45.35232" lon="6.72498">
        <ele>2612.04</ele>
        <time>2019-09-13T11:42:55Z</time>
      </trkpt>
      <trkpt lat="45.35236" lon="6.72499">
        <ele>2610.6</ele>
        <time>2019-09-13T11:43:01Z</time>
      </trkpt>
      <trkpt lat="45.35238" lon="6.72497">
        <ele>2609.64</ele>
        <time>2019-09-13T11:43:04Z</time>
      </trkpt>
      <trkpt lat="45.3524" lon="6.72492">
        <ele>2609.16</ele>
        <time>2019-09-13T11:43:08Z</time>
      </trkpt>
      <trkpt lat="45.35249" lon="6.7248">
        <ele>2608.67</ele>
        <time>2019-09-13T11:43:18Z</time>
      </trkpt>
      <trkpt lat="45.35251" lon="6.72474">
        <ele>2606.75</ele>
        <time>2019-09-13T11:43:22Z</time>
      </trkpt>
      <trkpt lat="45.35255" lon="6.72469">
        <ele>2606.75</ele>
        <time>2019-09-13T11:43:27Z</time>
      </trkpt>
      <trkpt lat="45.35259" lon="6.72469">
        <ele>2606.27</ele>
        <time>2019-09-13T11:43:30Z</time>
      </trkpt>
      <trkpt lat="45.35266" lon="6.72463">
        <ele>2605.31</ele>
        <time>2019-09-13T11:43:38Z</time>
      </trkpt>
      <trkpt lat="45.35268" lon="6.72463">
        <ele>2604.83</ele>
        <time>2019-09-13T11:43:40Z</time>
      </trkpt>
      <trkpt lat="45.35282" lon="6.72445">
        <ele>2600.98</ele>
        <time>2019-09-13T11:43:58Z</time>
      </trkpt>
      <trkpt lat="45.35286" lon="6.72443">
        <ele>2600.5</ele>
        <time>2019-09-13T11:44:02Z</time>
      </trkpt>
      <trkpt lat="45.35289" lon="6.72442">
        <ele>2600.5</ele>
        <time>2019-09-13T11:44:04Z</time>
      </trkpt>
      <trkpt lat="45.35303" lon="6.72433">
        <ele>2599.54</ele>
        <time>2019-09-13T11:44:18Z</time>
      </trkpt>
      <trkpt lat="45.35305" lon="6.72431">
        <ele>2599.06</ele>
        <time>2019-09-13T11:44:21Z</time>
      </trkpt>
      <trkpt lat="45.3531" lon="6.72427">
        <ele>2599.06</ele>
        <time>2019-09-13T11:44:27Z</time>
      </trkpt>
      <trkpt lat="45.35319" lon="6.72411">
        <ele>2598.1</ele>
        <time>2019-09-13T11:44:44Z</time>
      </trkpt>
      <trkpt lat="45.35325" lon="6.72399">
        <ele>2597.62</ele>
        <time>2019-09-13T11:45:00Z</time>
      </trkpt>
      <trkpt lat="45.35327" lon="6.724">
        <ele>2597.62</ele>
        <time>2019-09-13T11:45:38Z</time>
      </trkpt>
      <trkpt lat="45.35326" lon="6.724">
        <ele>2597.14</ele>
        <time>2019-09-13T11:47:00Z</time>
      </trkpt>
      <trkpt lat="45.35327" lon="6.724">
        <ele>2597.14</ele>
        <time>2019-09-13T11:48:15Z</time>
      </trkpt>
      <trkpt lat="45.35332" lon="6.7241">
        <ele>2596.66</ele>
        <time>2019-09-13T11:48:58Z</time>
      </trkpt>
      <trkpt lat="45.35332" lon="6.7241">
        <ele>2597.14</ele>
        <time>2019-09-13T11:49:21Z</time>
      </trkpt>
      <trkpt lat="45.35329" lon="6.72409">
        <ele>2597.14</ele>
        <time>2019-09-13T11:49:46Z</time>
      </trkpt>
      <trkpt lat="45.35326" lon="6.72401">
        <ele>2599.06</ele>
        <time>2019-09-13T11:50:05Z</time>
      </trkpt>
      <trkpt lat="45.35326" lon="6.72405">
        <ele>2598.58</ele>
        <time>2019-09-13T11:50:27Z</time>
      </trkpt>
      <trkpt lat="45.35325" lon="6.72402">
        <ele>2598.58</ele>
        <time>2019-09-13T11:50:48Z</time>
      </trkpt>
      <trkpt lat="45.35324" lon="6.72403">
        <ele>2598.58</ele>
        <time>2019-09-13T11:51:41Z</time>
      </trkpt>
      <trkpt lat="45.35323" lon="6.72403">
        <ele>2598.58</ele>
        <time>2019-09-13T11:52:12Z</time>
      </trkpt>
      <trkpt lat="45.3532" lon="6.72402">
        <ele>2600.02</ele>
        <time>2019-09-13T11:52:35Z</time>
      </trkpt>
      <trkpt lat="45.35324" lon="6.72401">
        <ele>2599.54</ele>
        <time>2019-09-13T11:52:43Z</time>
      </trkpt>
      <trkpt lat="45.35322" lon="6.72404">
        <ele>2599.54</ele>
        <time>2019-09-13T11:52:46Z</time>
      </trkpt>
      <trkpt lat="45.35314" lon="6.72408">
        <ele>2600.5</ele>
        <time>2019-09-13T11:52:57Z</time>
      </trkpt>
      <trkpt lat="45.35308" lon="6.72411">
        <ele>2601.46</ele>
        <time>2019-09-13T11:53:02Z</time>
      </trkpt>
      <trkpt lat="45.35297" lon="6.72411">
        <ele>2602.91</ele>
        <time>2019-09-13T11:53:15Z</time>
      </trkpt>
      <trkpt lat="45.35288" lon="6.72408">
        <ele>2605.31</ele>
        <time>2019-09-13T11:53:26Z</time>
      </trkpt>
      <trkpt lat="45.35283" lon="6.72408">
        <ele>2606.75</ele>
        <time>2019-09-13T11:53:31Z</time>
      </trkpt>
      <trkpt lat="45.3527" lon="6.72405">
        <ele>2605.79</ele>
        <time>2019-09-13T11:53:43Z</time>
      </trkpt>
      <trkpt lat="45.35261" lon="6.72405">
        <ele>2605.31</ele>
        <time>2019-09-13T11:53:51Z</time>
      </trkpt>
      <trkpt lat="45.35257" lon="6.72402">
        <ele>2605.31</ele>
        <time>2019-09-13T11:53:55Z</time>
      </trkpt>
      <trkpt lat="45.35253" lon="6.724">
        <ele>2605.79</ele>
        <time>2019-09-13T11:53:59Z</time>
      </trkpt>
      <trkpt lat="45.3524" lon="6.72384">
        <ele>2607.71</ele>
        <time>2019-09-13T11:54:15Z</time>
      </trkpt>
      <trkpt lat="45.35237" lon="6.72379">
        <ele>2608.19</ele>
        <time>2019-09-13T11:54:19Z</time>
      </trkpt>
      <trkpt lat="45.35229" lon="6.7237">
        <ele>2609.16</ele>
        <time>2019-09-13T11:54:30Z</time>
      </trkpt>
      <trkpt lat="45.35224" lon="6.72364">
        <ele>2609.64</ele>
        <time>2019-09-13T11:54:36Z</time>
      </trkpt>
      <trkpt lat="45.35221" lon="6.72363">
        <ele>2609.64</ele>
        <time>2019-09-13T11:54:39Z</time>
      </trkpt>
      <trkpt lat="45.35207" lon="6.72351">
        <ele>2610.12</ele>
        <time>2019-09-13T11:54:58Z</time>
      </trkpt>
      <trkpt lat="45.35206" lon="6.7235">
        <ele>2610.12</ele>
        <time>2019-09-13T11:55:00Z</time>
      </trkpt>
      <trkpt lat="45.35199" lon="6.72342">
        <ele>2611.08</ele>
        <time>2019-09-13T11:55:10Z</time>
      </trkpt>
      <trkpt lat="45.35188" lon="6.72328">
        <ele>2611.08</ele>
        <time>2019-09-13T11:55:24Z</time>
      </trkpt>
      <trkpt lat="45.35186" lon="6.72327">
        <ele>2610.6</ele>
        <time>2019-09-13T11:55:26Z</time>
      </trkpt>
      <trkpt lat="45.35182" lon="6.72326">
        <ele>2610.12</ele>
        <time>2019-09-13T11:55:30Z</time>
      </trkpt>
      <trkpt lat="45.35178" lon="6.7232">
        <ele>2610.12</ele>
        <time>2019-09-13T11:55:35Z</time>
      </trkpt>
      <trkpt lat="45.35169" lon="6.72309">
        <ele>2610.6</ele>
        <time>2019-09-13T11:55:44Z</time>
      </trkpt>
      <trkpt lat="45.35163" lon="6.72301">
        <ele>2609.64</ele>
        <time>2019-09-13T11:55:51Z</time>
      </trkpt>
      <trkpt lat="45.35158" lon="6.72296">
        <ele>2608.67</ele>
        <time>2019-09-13T11:55:56Z</time>
      </trkpt>
      <trkpt lat="45.35152" lon="6.7229">
        <ele>2606.75</ele>
        <time>2019-09-13T11:56:02Z</time>
      </trkpt>
      <trkpt lat="45.35149" lon="6.72278">
        <ele>2606.27</ele>
        <time>2019-09-13T11:56:10Z</time>
      </trkpt>
      <trkpt lat="45.35147" lon="6.72276">
        <ele>2605.79</ele>
        <time>2019-09-13T11:56:13Z</time>
      </trkpt>
      <trkpt lat="45.35144" lon="6.72259">
        <ele>2602.91</ele>
        <time>2019-09-13T11:56:23Z</time>
      </trkpt>
      <trkpt lat="45.35144" lon="6.7225">
        <ele>2600.98</ele>
        <time>2019-09-13T11:56:29Z</time>
      </trkpt>
      <trkpt lat="45.35145" lon="6.72248">
        <ele>2600.02</ele>
        <time>2019-09-13T11:56:31Z</time>
      </trkpt>
      <trkpt lat="45.35146" lon="6.72232">
        <ele>2594.74</ele>
        <time>2019-09-13T11:56:46Z</time>
      </trkpt>
      <trkpt lat="45.35146" lon="6.72231">
        <ele>2594.74</ele>
        <time>2019-09-13T11:56:47Z</time>
      </trkpt>
      <trkpt lat="45.35141" lon="6.72216">
        <ele>2591.37</ele>
        <time>2019-09-13T11:57:05Z</time>
      </trkpt>
      <trkpt lat="45.3514" lon="6.72216">
        <ele>2590.89</ele>
        <time>2019-09-13T11:57:22Z</time>
      </trkpt>
      <trkpt lat="45.35135" lon="6.72211">
        <ele>2588.97</ele>
        <time>2019-09-13T11:58:10Z</time>
      </trkpt>
      <trkpt lat="45.35123" lon="6.72208">
        <ele>2587.04</ele>
        <time>2019-09-13T11:58:29Z</time>
      </trkpt>
      <trkpt lat="45.35124" lon="6.722">
        <ele>2585.6</ele>
        <time>2019-09-13T11:58:44Z</time>
      </trkpt>
      <trkpt lat="45.35126" lon="6.72195">
        <ele>2583.68</ele>
        <time>2019-09-13T11:58:51Z</time>
      </trkpt>
      <trkpt lat="45.3513" lon="6.72188">
        <ele>2581.28</ele>
        <time>2019-09-13T11:59:07Z</time>
      </trkpt>
      <trkpt lat="45.35128" lon="6.72186">
        <ele>2579.84</ele>
        <time>2019-09-13T11:59:11Z</time>
      </trkpt>
      <trkpt lat="45.35117" lon="6.72187">
        <ele>2579.84</ele>
        <time>2019-09-13T11:59:25Z</time>
      </trkpt>
      <trkpt lat="45.35104" lon="6.72183">
        <ele>2576.47</ele>
        <time>2019-09-13T11:59:44Z</time>
      </trkpt>
      <trkpt lat="45.35113" lon="6.72176">
        <ele>2573.59</ele>
        <time>2019-09-13T12:00:01Z</time>
      </trkpt>
      <trkpt lat="45.35111" lon="6.7217">
        <ele>2569.74</ele>
        <time>2019-09-13T12:00:18Z</time>
      </trkpt>
      <trkpt lat="45.35108" lon="6.72163">
        <ele>2565.9</ele>
        <time>2019-09-13T12:00:33Z</time>
      </trkpt>
      <trkpt lat="45.35105" lon="6.72162">
        <ele>2564.45</ele>
        <time>2019-09-13T12:00:38Z</time>
      </trkpt>
      <trkpt lat="45.35097" lon="6.7216">
        <ele>2560.61</ele>
        <time>2019-09-13T12:00:56Z</time>
      </trkpt>
      <trkpt lat="45.35093" lon="6.7216">
        <ele>2559.65</ele>
        <time>2019-09-13T12:01:05Z</time>
      </trkpt>
      <trkpt lat="45.35087" lon="6.72157">
        <ele>2558.69</ele>
        <time>2019-09-13T12:01:13Z</time>
      </trkpt>
      <trkpt lat="45.35085" lon="6.72154">
        <ele>2557.73</ele>
        <time>2019-09-13T12:01:16Z</time>
      </trkpt>
      <trkpt lat="45.35079" lon="6.72152">
        <ele>2555.8</ele>
        <time>2019-09-13T12:01:22Z</time>
      </trkpt>
      <trkpt lat="45.35077" lon="6.72152">
        <ele>2554.84</ele>
        <time>2019-09-13T12:01:25Z</time>
      </trkpt>
      <trkpt lat="45.35072" lon="6.72152">
        <ele>2554.36</ele>
        <time>2019-09-13T12:01:29Z</time>
      </trkpt>
      <trkpt lat="45.35068" lon="6.72153">
        <ele>2553.88</ele>
        <time>2019-09-13T12:01:33Z</time>
      </trkpt>
      <trkpt lat="45.35066" lon="6.72156">
        <ele>2554.36</ele>
        <time>2019-09-13T12:01:36Z</time>
      </trkpt>
      <trkpt lat="45.35059" lon="6.72159">
        <ele>2553.88</ele>
        <time>2019-09-13T12:01:42Z</time>
      </trkpt>
      <trkpt lat="45.3505" lon="6.72162">
        <ele>2552.92</ele>
        <time>2019-09-13T12:01:51Z</time>
      </trkpt>
      <trkpt lat="45.35046" lon="6.72166">
        <ele>2552.92</ele>
        <time>2019-09-13T12:01:56Z</time>
      </trkpt>
      <trkpt lat="45.35033" lon="6.72173">
        <ele>2552.44</ele>
        <time>2019-09-13T12:02:09Z</time>
      </trkpt>
      <trkpt lat="45.35029" lon="6.72172">
        <ele>2551.48</ele>
        <time>2019-09-13T12:02:14Z</time>
      </trkpt>
      <trkpt lat="45.35025" lon="6.72174">
        <ele>2551.48</ele>
        <time>2019-09-13T12:02:18Z</time>
      </trkpt>
      <trkpt lat="45.35016" lon="6.72176">
        <ele>2550.51</ele>
        <time>2019-09-13T12:02:27Z</time>
      </trkpt>
      <trkpt lat="45.35012" lon="6.72178">
        <ele>2551</ele>
        <time>2019-09-13T12:02:31Z</time>
      </trkpt>
      <trkpt lat="45.35004" lon="6.72175">
        <ele>2550.03</ele>
        <time>2019-09-13T12:02:39Z</time>
      </trkpt>
      <trkpt lat="45.34992" lon="6.72176">
        <ele>2551.96</ele>
        <time>2019-09-13T12:02:51Z</time>
      </trkpt>
      <trkpt lat="45.34986" lon="6.72175">
        <ele>2551.96</ele>
        <time>2019-09-13T12:02:57Z</time>
      </trkpt>
      <trkpt lat="45.34979" lon="6.72182">
        <ele>2552.44</ele>
        <time>2019-09-13T12:03:05Z</time>
      </trkpt>
      <trkpt lat="45.34969" lon="6.72185">
        <ele>2553.4</ele>
        <time>2019-09-13T12:03:14Z</time>
      </trkpt>
      <trkpt lat="45.3496" lon="6.72183">
        <ele>2551.96</ele>
        <time>2019-09-13T12:03:26Z</time>
      </trkpt>
      <trkpt lat="45.34953" lon="6.72188">
        <ele>2551</ele>
        <time>2019-09-13T12:03:34Z</time>
      </trkpt>
      <trkpt lat="45.34933" lon="6.72185">
        <ele>2548.11</ele>
        <time>2019-09-13T12:03:54Z</time>
      </trkpt>
      <trkpt lat="45.34927" lon="6.72184">
        <ele>2545.71</ele>
        <time>2019-09-13T12:04:02Z</time>
      </trkpt>
      <trkpt lat="45.34919" lon="6.72189">
        <ele>2545.23</ele>
        <time>2019-09-13T12:04:10Z</time>
      </trkpt>
      <trkpt lat="45.34907" lon="6.72199">
        <ele>2544.27</ele>
        <time>2019-09-13T12:04:24Z</time>
      </trkpt>
      <trkpt lat="45.34903" lon="6.72208">
        <ele>2545.23</ele>
        <time>2019-09-13T12:04:32Z</time>
      </trkpt>
      <trkpt lat="45.34891" lon="6.72213">
        <ele>2541.38</ele>
        <time>2019-09-13T12:04:50Z</time>
      </trkpt>
      <trkpt lat="45.3488" lon="6.72213">
        <ele>2537.06</ele>
        <time>2019-09-13T12:05:07Z</time>
      </trkpt>
      <trkpt lat="45.34879" lon="6.72214">
        <ele>2537.06</ele>
        <time>2019-09-13T12:05:09Z</time>
      </trkpt>
      <trkpt lat="45.34878" lon="6.72216">
        <ele>2536.58</ele>
        <time>2019-09-13T12:05:11Z</time>
      </trkpt>
      <trkpt lat="45.34875" lon="6.72217">
        <ele>2536.1</ele>
        <time>2019-09-13T12:05:14Z</time>
      </trkpt>
      <trkpt lat="45.34857" lon="6.72229">
        <ele>2532.73</ele>
        <time>2019-09-13T12:05:37Z</time>
      </trkpt>
      <trkpt lat="45.34851" lon="6.72231">
        <ele>2531.77</ele>
        <time>2019-09-13T12:05:44Z</time>
      </trkpt>
      <trkpt lat="45.3485" lon="6.72233">
        <ele>2531.77</ele>
        <time>2019-09-13T12:05:46Z</time>
      </trkpt>
      <trkpt lat="45.34834" lon="6.7224">
        <ele>2528.4</ele>
        <time>2019-09-13T12:06:07Z</time>
      </trkpt>
      <trkpt lat="45.34823" lon="6.72238">
        <ele>2525.52</ele>
        <time>2019-09-13T12:06:25Z</time>
      </trkpt>
      <trkpt lat="45.34817" lon="6.72241">
        <ele>2524.56</ele>
        <time>2019-09-13T12:06:35Z</time>
      </trkpt>
      <trkpt lat="45.3481" lon="6.72243">
        <ele>2520.71</ele>
        <time>2019-09-13T12:06:53Z</time>
      </trkpt>
      <trkpt lat="45.34805" lon="6.72248">
        <ele>2518.79</ele>
        <time>2019-09-13T12:07:10Z</time>
      </trkpt>
      <trkpt lat="45.34801" lon="6.7225">
        <ele>2517.35</ele>
        <time>2019-09-13T12:07:16Z</time>
      </trkpt>
      <trkpt lat="45.34799" lon="6.72252">
        <ele>2516.87</ele>
        <time>2019-09-13T12:07:18Z</time>
      </trkpt>
      <trkpt lat="45.34781" lon="6.72266">
        <ele>2513.5</ele>
        <time>2019-09-13T12:07:38Z</time>
      </trkpt>
      <trkpt lat="45.34768" lon="6.72275">
        <ele>2512.54</ele>
        <time>2019-09-13T12:07:55Z</time>
      </trkpt>
      <trkpt lat="45.3476" lon="6.7228">
        <ele>2509.66</ele>
        <time>2019-09-13T12:08:10Z</time>
      </trkpt>
      <trkpt lat="45.3476" lon="6.72282">
        <ele>2510.14</ele>
        <time>2019-09-13T12:08:12Z</time>
      </trkpt>
      <trkpt lat="45.34746" lon="6.72288">
        <ele>2507.26</ele>
        <time>2019-09-13T12:08:31Z</time>
      </trkpt>
      <trkpt lat="45.34742" lon="6.72292">
        <ele>2505.81</ele>
        <time>2019-09-13T12:08:37Z</time>
      </trkpt>
      <trkpt lat="45.34733" lon="6.72294">
        <ele>2504.37</ele>
        <time>2019-09-13T12:09:04Z</time>
      </trkpt>
      <trkpt lat="45.34722" lon="6.72297">
        <ele>2501.01</ele>
        <time>2019-09-13T12:09:22Z</time>
      </trkpt>
      <trkpt lat="45.34711" lon="6.72303">
        <ele>2499.57</ele>
        <time>2019-09-13T12:09:41Z</time>
      </trkpt>
      <trkpt lat="45.34704" lon="6.72316">
        <ele>2496.2</ele>
        <time>2019-09-13T12:10:01Z</time>
      </trkpt>
      <trkpt lat="45.34701" lon="6.72318">
        <ele>2495.24</ele>
        <time>2019-09-13T12:10:10Z</time>
      </trkpt>
      <trkpt lat="45.34699" lon="6.72312">
        <ele>2493.8</ele>
        <time>2019-09-13T12:10:16Z</time>
      </trkpt>
      <trkpt lat="45.34699" lon="6.72308">
        <ele>2493.32</ele>
        <time>2019-09-13T12:10:19Z</time>
      </trkpt>
      <trkpt lat="45.34699" lon="6.72293">
        <ele>2488.99</ele>
        <time>2019-09-13T12:10:38Z</time>
      </trkpt>
      <trkpt lat="45.34697" lon="6.72298">
        <ele>2488.51</ele>
        <time>2019-09-13T12:10:45Z</time>
      </trkpt>
      <trkpt lat="45.34692" lon="6.72299">
        <ele>2487.55</ele>
        <time>2019-09-13T12:10:50Z</time>
      </trkpt>
      <trkpt lat="45.34687" lon="6.72307">
        <ele>2486.11</ele>
        <time>2019-09-13T12:11:08Z</time>
      </trkpt>
      <trkpt lat="45.34684" lon="6.723">
        <ele>2483.22</ele>
        <time>2019-09-13T12:11:23Z</time>
      </trkpt>
      <trkpt lat="45.34677" lon="6.72298">
        <ele>2481.3</ele>
        <time>2019-09-13T12:11:40Z</time>
      </trkpt>
      <trkpt lat="45.34674" lon="6.72309">
        <ele>2478.42</ele>
        <time>2019-09-13T12:11:55Z</time>
      </trkpt>
      <trkpt lat="45.34667" lon="6.72319">
        <ele>2476.01</ele>
        <time>2019-09-13T12:12:13Z</time>
      </trkpt>
      <trkpt lat="45.34667" lon="6.72306">
        <ele>2473.61</ele>
        <time>2019-09-13T12:12:29Z</time>
      </trkpt>
      <trkpt lat="45.34665" lon="6.72298">
        <ele>2472.17</ele>
        <time>2019-09-13T12:12:37Z</time>
      </trkpt>
      <trkpt lat="45.34666" lon="6.72291">
        <ele>2470.73</ele>
        <time>2019-09-13T12:12:43Z</time>
      </trkpt>
      <trkpt lat="45.34662" lon="6.7229">
        <ele>2469.76</ele>
        <time>2019-09-13T12:13:01Z</time>
      </trkpt>
      <trkpt lat="45.34656" lon="6.72298">
        <ele>2468.32</ele>
        <time>2019-09-13T12:13:14Z</time>
      </trkpt>
      <trkpt lat="45.34654" lon="6.72297">
        <ele>2466.4</ele>
        <time>2019-09-13T12:13:21Z</time>
      </trkpt>
      <trkpt lat="45.34649" lon="6.72279">
        <ele>2462.07</ele>
        <time>2019-09-13T12:13:42Z</time>
      </trkpt>
      <trkpt lat="45.34649" lon="6.72278">
        <ele>2461.59</ele>
        <time>2019-09-13T12:13:44Z</time>
      </trkpt>
      <trkpt lat="45.34649" lon="6.72273">
        <ele>2461.11</ele>
        <time>2019-09-13T12:13:49Z</time>
      </trkpt>
      <trkpt lat="45.34647" lon="6.72267">
        <ele>2458.71</ele>
        <time>2019-09-13T12:13:57Z</time>
      </trkpt>
      <trkpt lat="45.34644" lon="6.72272">
        <ele>2458.23</ele>
        <time>2019-09-13T12:14:03Z</time>
      </trkpt>
      <trkpt lat="45.34632" lon="6.72278">
        <ele>2456.79</ele>
        <time>2019-09-13T12:14:22Z</time>
      </trkpt>
      <trkpt lat="45.34632" lon="6.72278">
        <ele>2456.79</ele>
        <time>2019-09-13T12:14:23Z</time>
      </trkpt>
      <trkpt lat="45.34626" lon="6.72289">
        <ele>2455.82</ele>
        <time>2019-09-13T12:14:36Z</time>
      </trkpt>
      <trkpt lat="45.34625" lon="6.72296">
        <ele>2455.82</ele>
        <time>2019-09-13T12:14:55Z</time>
      </trkpt>
      <trkpt lat="45.34624" lon="6.72297">
        <ele>2455.34</ele>
        <time>2019-09-13T12:15:11Z</time>
      </trkpt>
      <trkpt lat="45.34619" lon="6.72307">
        <ele>2453.9</ele>
        <time>2019-09-13T12:15:20Z</time>
      </trkpt>
      <trkpt lat="45.34607" lon="6.72323">
        <ele>2451.98</ele>
        <time>2019-09-13T12:15:37Z</time>
      </trkpt>
      <trkpt lat="45.34604" lon="6.72328">
        <ele>2451.98</ele>
        <time>2019-09-13T12:15:41Z</time>
      </trkpt>
      <trkpt lat="45.34592" lon="6.72337">
        <ele>2450.54</ele>
        <time>2019-09-13T12:15:56Z</time>
      </trkpt>
      <trkpt lat="45.34588" lon="6.72338">
        <ele>2449.58</ele>
        <time>2019-09-13T12:16:09Z</time>
      </trkpt>
      <trkpt lat="45.34586" lon="6.72336">
        <ele>2449.58</ele>
        <time>2019-09-13T12:16:12Z</time>
      </trkpt>
      <trkpt lat="45.34588" lon="6.72329">
        <ele>2449.1</ele>
        <time>2019-09-13T12:16:17Z</time>
      </trkpt>
      <trkpt lat="45.34593" lon="6.72313">
        <ele>2444.29</ele>
        <time>2019-09-13T12:16:34Z</time>
      </trkpt>
      <trkpt lat="45.34593" lon="6.72312">
        <ele>2443.81</ele>
        <time>2019-09-13T12:16:36Z</time>
      </trkpt>
      <trkpt lat="45.34584" lon="6.72315">
        <ele>2442.85</ele>
        <time>2019-09-13T12:16:49Z</time>
      </trkpt>
      <trkpt lat="45.34582" lon="6.72309">
        <ele>2442.37</ele>
        <time>2019-09-13T12:16:55Z</time>
      </trkpt>
      <trkpt lat="45.34579" lon="6.72309">
        <ele>2440.44</ele>
        <time>2019-09-13T12:17:02Z</time>
      </trkpt>
      <trkpt lat="45.34576" lon="6.72319">
        <ele>2439.48</ele>
        <time>2019-09-13T12:17:11Z</time>
      </trkpt>
      <trkpt lat="45.34572" lon="6.72322">
        <ele>2439</ele>
        <time>2019-09-13T12:17:15Z</time>
      </trkpt>
      <trkpt lat="45.34559" lon="6.72335">
        <ele>2438.04</ele>
        <time>2019-09-13T12:17:33Z</time>
      </trkpt>
      <trkpt lat="45.34559" lon="6.72339">
        <ele>2437.56</ele>
        <time>2019-09-13T12:17:36Z</time>
      </trkpt>
      <trkpt lat="45.34557" lon="6.7234">
        <ele>2437.56</ele>
        <time>2019-09-13T12:17:38Z</time>
      </trkpt>
      <trkpt lat="45.34554" lon="6.7234">
        <ele>2437.56</ele>
        <time>2019-09-13T12:17:42Z</time>
      </trkpt>
      <trkpt lat="45.34546" lon="6.72339">
        <ele>2436.6</ele>
        <time>2019-09-13T12:18:01Z</time>
      </trkpt>
      <trkpt lat="45.34545" lon="6.72339">
        <ele>2436.12</ele>
        <time>2019-09-13T12:18:11Z</time>
      </trkpt>
      <trkpt lat="45.34541" lon="6.7234">
        <ele>2435.64</ele>
        <time>2019-09-13T12:18:15Z</time>
      </trkpt>
      <trkpt lat="45.34539" lon="6.72339">
        <ele>2435.64</ele>
        <time>2019-09-13T12:18:17Z</time>
      </trkpt>
      <trkpt lat="45.34527" lon="6.72347">
        <ele>2432.27</ele>
        <time>2019-09-13T12:18:32Z</time>
      </trkpt>
      <trkpt lat="45.34525" lon="6.72347">
        <ele>2431.79</ele>
        <time>2019-09-13T12:18:34Z</time>
      </trkpt>
      <trkpt lat="45.34524" lon="6.72348">
        <ele>2430.83</ele>
        <time>2019-09-13T12:18:36Z</time>
      </trkpt>
      <trkpt lat="45.34514" lon="6.72364">
        <ele>2426.02</ele>
        <time>2019-09-13T12:18:54Z</time>
      </trkpt>
      <trkpt lat="45.34513" lon="6.72374">
        <ele>2426.02</ele>
        <time>2019-09-13T12:19:11Z</time>
      </trkpt>
      <trkpt lat="45.34508" lon="6.72376">
        <ele>2424.58</ele>
        <time>2019-09-13T12:19:19Z</time>
      </trkpt>
      <trkpt lat="45.34507" lon="6.72378">
        <ele>2424.1</ele>
        <time>2019-09-13T12:19:21Z</time>
      </trkpt>
      <trkpt lat="45.34502" lon="6.72385">
        <ele>2422.66</ele>
        <time>2019-09-13T12:19:34Z</time>
      </trkpt>
      <trkpt lat="45.34494" lon="6.72396">
        <ele>2419.78</ele>
        <time>2019-09-13T12:19:52Z</time>
      </trkpt>
      <trkpt lat="45.34489" lon="6.72412">
        <ele>2418.81</ele>
        <time>2019-09-13T12:20:10Z</time>
      </trkpt>
      <trkpt lat="45.34487" lon="6.7242">
        <ele>2416.89</ele>
        <time>2019-09-13T12:20:26Z</time>
      </trkpt>
      <trkpt lat="45.34486" lon="6.72424">
        <ele>2414.49</ele>
        <time>2019-09-13T12:20:38Z</time>
      </trkpt>
      <trkpt lat="45.34486" lon="6.72429">
        <ele>2413.53</ele>
        <time>2019-09-13T12:20:42Z</time>
      </trkpt>
      <trkpt lat="45.34483" lon="6.72446">
        <ele>2413.05</ele>
        <time>2019-09-13T12:20:56Z</time>
      </trkpt>
      <trkpt lat="45.3448" lon="6.72443">
        <ele>2411.6</ele>
        <time>2019-09-13T12:21:01Z</time>
      </trkpt>
      <trkpt lat="45.34478" lon="6.72437">
        <ele>2409.2</ele>
        <time>2019-09-13T12:21:09Z</time>
      </trkpt>
      <trkpt lat="45.34474" lon="6.72446">
        <ele>2405.36</ele>
        <time>2019-09-13T12:21:24Z</time>
      </trkpt>
      <trkpt lat="45.34474" lon="6.72447">
        <ele>2403.91</ele>
        <time>2019-09-13T12:21:28Z</time>
      </trkpt>
      <trkpt lat="45.34468" lon="6.7246">
        <ele>2401.51</ele>
        <time>2019-09-13T12:21:45Z</time>
      </trkpt>
      <trkpt lat="45.34459" lon="6.72473">
        <ele>2398.63</ele>
        <time>2019-09-13T12:22:02Z</time>
      </trkpt>
      <trkpt lat="45.34453" lon="6.72483">
        <ele>2397.18</ele>
        <time>2019-09-13T12:22:21Z</time>
      </trkpt>
      <trkpt lat="45.34444" lon="6.72493">
        <ele>2392.86</ele>
        <time>2019-09-13T12:22:38Z</time>
      </trkpt>
      <trkpt lat="45.34438" lon="6.725">
        <ele>2392.38</ele>
        <time>2019-09-13T12:22:55Z</time>
      </trkpt>
      <trkpt lat="45.34434" lon="6.72496">
        <ele>2389.97</ele>
        <time>2019-09-13T12:23:09Z</time>
      </trkpt>
      <trkpt lat="45.3443" lon="6.72493">
        <ele>2388.05</ele>
        <time>2019-09-13T12:23:25Z</time>
      </trkpt>
      <trkpt lat="45.34425" lon="6.72498">
        <ele>2383.73</ele>
        <time>2019-09-13T12:23:40Z</time>
      </trkpt>
      <trkpt lat="45.34424" lon="6.72498">
        <ele>2383.25</ele>
        <time>2019-09-13T12:23:41Z</time>
      </trkpt>
      <trkpt lat="45.34422" lon="6.72494">
        <ele>2383.25</ele>
        <time>2019-09-13T12:23:45Z</time>
      </trkpt>
      <trkpt lat="45.34428" lon="6.7248">
        <ele>2380.84</ele>
        <time>2019-09-13T12:24:01Z</time>
      </trkpt>
      <trkpt lat="45.34427" lon="6.72471">
        <ele>2377.96</ele>
        <time>2019-09-13T12:24:17Z</time>
      </trkpt>
      <trkpt lat="45.34427" lon="6.72464">
        <ele>2376.04</ele>
        <time>2019-09-13T12:24:34Z</time>
      </trkpt>
      <trkpt lat="45.34427" lon="6.72463">
        <ele>2375.55</ele>
        <time>2019-09-13T12:24:35Z</time>
      </trkpt>
      <trkpt lat="45.34427" lon="6.72456">
        <ele>2373.63</ele>
        <time>2019-09-13T12:24:42Z</time>
      </trkpt>
      <trkpt lat="45.34422" lon="6.72464">
        <ele>2371.23</ele>
        <time>2019-09-13T12:25:00Z</time>
      </trkpt>
      <trkpt lat="45.3442" lon="6.72452">
        <ele>2370.27</ele>
        <time>2019-09-13T12:25:16Z</time>
      </trkpt>
      <trkpt lat="45.3442" lon="6.72444">
        <ele>2369.31</ele>
        <time>2019-09-13T12:25:32Z</time>
      </trkpt>
      <trkpt lat="45.34417" lon="6.72443">
        <ele>2368.35</ele>
        <time>2019-09-13T12:25:37Z</time>
      </trkpt>
      <trkpt lat="45.34416" lon="6.72447">
        <ele>2367.38</ele>
        <time>2019-09-13T12:25:44Z</time>
      </trkpt>
      <trkpt lat="45.34413" lon="6.72447">
        <ele>2367.38</ele>
        <time>2019-09-13T12:25:48Z</time>
      </trkpt>
      <trkpt lat="45.3441" lon="6.72438">
        <ele>2363.54</ele>
        <time>2019-09-13T12:26:06Z</time>
      </trkpt>
      <trkpt lat="45.34405" lon="6.72444">
        <ele>2362.1</ele>
        <time>2019-09-13T12:26:18Z</time>
      </trkpt>
      <trkpt lat="45.34396" lon="6.72445">
        <ele>2361.14</ele>
        <time>2019-09-13T12:26:34Z</time>
      </trkpt>
      <trkpt lat="45.34389" lon="6.72448">
        <ele>2357.77</ele>
        <time>2019-09-13T12:26:47Z</time>
      </trkpt>
      <trkpt lat="45.34387" lon="6.72452">
        <ele>2357.29</ele>
        <time>2019-09-13T12:26:50Z</time>
      </trkpt>
      <trkpt lat="45.34381" lon="6.72456">
        <ele>2355.85</ele>
        <time>2019-09-13T12:26:57Z</time>
      </trkpt>
      <trkpt lat="45.34374" lon="6.72466">
        <ele>2354.41</ele>
        <time>2019-09-13T12:27:16Z</time>
      </trkpt>
      <trkpt lat="45.34369" lon="6.72466">
        <ele>2353.93</ele>
        <time>2019-09-13T12:27:39Z</time>
      </trkpt>
      <trkpt lat="45.34367" lon="6.72454">
        <ele>2351.52</ele>
        <time>2019-09-13T12:27:55Z</time>
      </trkpt>
      <trkpt lat="45.34364" lon="6.72457">
        <ele>2348.64</ele>
        <time>2019-09-13T12:28:09Z</time>
      </trkpt>
      <trkpt lat="45.34361" lon="6.72454">
        <ele>2347.68</ele>
        <time>2019-09-13T12:28:14Z</time>
      </trkpt>
      <trkpt lat="45.34362" lon="6.72439">
        <ele>2345.27</ele>
        <time>2019-09-13T12:28:30Z</time>
      </trkpt>
      <trkpt lat="45.34357" lon="6.72437">
        <ele>2341.91</ele>
        <time>2019-09-13T12:28:48Z</time>
      </trkpt>
      <trkpt lat="45.34356" lon="6.72439">
        <ele>2341.91</ele>
        <time>2019-09-13T12:28:50Z</time>
      </trkpt>
      <trkpt lat="45.34349" lon="6.72453">
        <ele>2340.47</ele>
        <time>2019-09-13T12:29:09Z</time>
      </trkpt>
      <trkpt lat="45.34349" lon="6.72469">
        <ele>2337.58</ele>
        <time>2019-09-13T12:29:28Z</time>
      </trkpt>
      <trkpt lat="45.34346" lon="6.72478">
        <ele>2337.1</ele>
        <time>2019-09-13T12:29:48Z</time>
      </trkpt>
      <trkpt lat="45.34345" lon="6.72479">
        <ele>2336.62</ele>
        <time>2019-09-13T12:30:13Z</time>
      </trkpt>
      <trkpt lat="45.34344" lon="6.7248">
        <ele>2336.62</ele>
        <time>2019-09-13T12:30:22Z</time>
      </trkpt>
      <trkpt lat="45.3434" lon="6.72478">
        <ele>2334.22</ele>
        <time>2019-09-13T12:30:27Z</time>
      </trkpt>
      <trkpt lat="45.34336" lon="6.72474">
        <ele>2331.81</ele>
        <time>2019-09-13T12:30:41Z</time>
      </trkpt>
      <trkpt lat="45.34334" lon="6.72485">
        <ele>2330.37</ele>
        <time>2019-09-13T12:30:49Z</time>
      </trkpt>
      <trkpt lat="45.34327" lon="6.72497">
        <ele>2329.41</ele>
        <time>2019-09-13T12:31:01Z</time>
      </trkpt>
      <trkpt lat="45.34316" lon="6.72502">
        <ele>2327.97</ele>
        <time>2019-09-13T12:31:12Z</time>
      </trkpt>
      <trkpt lat="45.34314" lon="6.725">
        <ele>2327.49</ele>
        <time>2019-09-13T12:31:14Z</time>
      </trkpt>
      <trkpt lat="45.34316" lon="6.72479">
        <ele>2322.68</ele>
        <time>2019-09-13T12:31:29Z</time>
      </trkpt>
      <trkpt lat="45.34314" lon="6.72464">
        <ele>2318.84</ele>
        <time>2019-09-13T12:31:47Z</time>
      </trkpt>
      <trkpt lat="45.3431" lon="6.72456">
        <ele>2317.4</ele>
        <time>2019-09-13T12:32:03Z</time>
      </trkpt>
      <trkpt lat="45.3431" lon="6.72451">
        <ele>2315.95</ele>
        <time>2019-09-13T12:32:13Z</time>
      </trkpt>
      <trkpt lat="45.34308" lon="6.72439">
        <ele>2313.07</ele>
        <time>2019-09-13T12:32:30Z</time>
      </trkpt>
      <trkpt lat="45.34305" lon="6.7243">
        <ele>2310.19</ele>
        <time>2019-09-13T12:32:46Z</time>
      </trkpt>
      <trkpt lat="45.34304" lon="6.72417">
        <ele>2308.26</ele>
        <time>2019-09-13T12:33:00Z</time>
      </trkpt>
      <trkpt lat="45.34304" lon="6.72408">
        <ele>2305.86</ele>
        <time>2019-09-13T12:33:10Z</time>
      </trkpt>
      <trkpt lat="45.34307" lon="6.72402">
        <ele>2303.94</ele>
        <time>2019-09-13T12:33:27Z</time>
      </trkpt>
      <trkpt lat="45.34306" lon="6.72401">
        <ele>2302.98</ele>
        <time>2019-09-13T12:33:30Z</time>
      </trkpt>
      <trkpt lat="45.343" lon="6.72398">
        <ele>2301.05</ele>
        <time>2019-09-13T12:33:44Z</time>
      </trkpt>
      <trkpt lat="45.34301" lon="6.72385">
        <ele>2298.17</ele>
        <time>2019-09-13T12:33:59Z</time>
      </trkpt>
      <trkpt lat="45.34299" lon="6.72387">
        <ele>2297.21</ele>
        <time>2019-09-13T12:34:03Z</time>
      </trkpt>
      <trkpt lat="45.34291" lon="6.72392">
        <ele>2295.28</ele>
        <time>2019-09-13T12:34:19Z</time>
      </trkpt>
      <trkpt lat="45.34291" lon="6.72389">
        <ele>2294.8</ele>
        <time>2019-09-13T12:34:22Z</time>
      </trkpt>
      <trkpt lat="45.34295" lon="6.72375">
        <ele>2292.4</ele>
        <time>2019-09-13T12:34:39Z</time>
      </trkpt>
      <trkpt lat="45.34295" lon="6.72366">
        <ele>2290</ele>
        <time>2019-09-13T12:34:56Z</time>
      </trkpt>
      <trkpt lat="45.34295" lon="6.72359">
        <ele>2288.08</ele>
        <time>2019-09-13T12:35:16Z</time>
      </trkpt>
      <trkpt lat="45.34295" lon="6.72345">
        <ele>2287.11</ele>
        <time>2019-09-13T12:35:31Z</time>
      </trkpt>
      <trkpt lat="45.34297" lon="6.72335">
        <ele>2282.79</ele>
        <time>2019-09-13T12:35:46Z</time>
      </trkpt>
      <trkpt lat="45.34294" lon="6.72338">
        <ele>2282.79</ele>
        <time>2019-09-13T12:35:55Z</time>
      </trkpt>
      <trkpt lat="45.34292" lon="6.72339">
        <ele>2282.31</ele>
        <time>2019-09-13T12:35:57Z</time>
      </trkpt>
      <trkpt lat="45.34294" lon="6.72328">
        <ele>2279.42</ele>
        <time>2019-09-13T12:36:14Z</time>
      </trkpt>
      <trkpt lat="45.34294" lon="6.72316">
        <ele>2276.06</ele>
        <time>2019-09-13T12:36:30Z</time>
      </trkpt>
      <trkpt lat="45.34296" lon="6.72305">
        <ele>2274.14</ele>
        <time>2019-09-13T12:36:41Z</time>
      </trkpt>
      <trkpt lat="45.34299" lon="6.72295">
        <ele>2272.69</ele>
        <time>2019-09-13T12:36:58Z</time>
      </trkpt>
      <trkpt lat="45.34298" lon="6.72287">
        <ele>2271.73</ele>
        <time>2019-09-13T12:37:13Z</time>
      </trkpt>
      <trkpt lat="45.34296" lon="6.72278">
        <ele>2269.33</ele>
        <time>2019-09-13T12:37:29Z</time>
      </trkpt>
      <trkpt lat="45.34297" lon="6.72267">
        <ele>2265.48</ele>
        <time>2019-09-13T12:37:44Z</time>
      </trkpt>
      <trkpt lat="45.34304" lon="6.72252">
        <ele>2263.56</ele>
        <time>2019-09-13T12:38:01Z</time>
      </trkpt>
      <trkpt lat="45.34304" lon="6.72245">
        <ele>2261.16</ele>
        <time>2019-09-13T12:38:11Z</time>
      </trkpt>
      <trkpt lat="45.34305" lon="6.72243">
        <ele>2260.68</ele>
        <time>2019-09-13T12:38:13Z</time>
      </trkpt>
      <trkpt lat="45.34307" lon="6.72235">
        <ele>2259.72</ele>
        <time>2019-09-13T12:38:19Z</time>
      </trkpt>
      <trkpt lat="45.34312" lon="6.72219">
        <ele>2255.87</ele>
        <time>2019-09-13T12:38:36Z</time>
      </trkpt>
      <trkpt lat="45.34313" lon="6.72207">
        <ele>2252.51</ele>
        <time>2019-09-13T12:38:53Z</time>
      </trkpt>
      <trkpt lat="45.34313" lon="6.72197">
        <ele>2251.06</ele>
        <time>2019-09-13T12:39:05Z</time>
      </trkpt>
      <trkpt lat="45.34315" lon="6.72182">
        <ele>2249.62</ele>
        <time>2019-09-13T12:39:22Z</time>
      </trkpt>
      <trkpt lat="45.34317" lon="6.72168">
        <ele>2245.78</ele>
        <time>2019-09-13T12:39:40Z</time>
      </trkpt>
      <trkpt lat="45.34318" lon="6.72152">
        <ele>2240.97</ele>
        <time>2019-09-13T12:39:56Z</time>
      </trkpt>
      <trkpt lat="45.34319" lon="6.7215">
        <ele>2240.97</ele>
        <time>2019-09-13T12:39:59Z</time>
      </trkpt>
      <trkpt lat="45.34319" lon="6.72149">
        <ele>2240.01</ele>
        <time>2019-09-13T12:40:20Z</time>
      </trkpt>
      <trkpt lat="45.34322" lon="6.72131">
        <ele>2238.57</ele>
        <time>2019-09-13T12:40:42Z</time>
      </trkpt>
      <trkpt lat="45.34322" lon="6.72129">
        <ele>2237.13</ele>
        <time>2019-09-13T12:40:45Z</time>
      </trkpt>
      <trkpt lat="45.3433" lon="6.7211">
        <ele>2231.84</ele>
        <time>2019-09-13T12:41:05Z</time>
      </trkpt>
      <trkpt lat="45.34332" lon="6.72102">
        <ele>2230.88</ele>
        <time>2019-09-13T12:41:36Z</time>
      </trkpt>
      <trkpt lat="45.34334" lon="6.72089">
        <ele>2226.07</ele>
        <time>2019-09-13T12:41:51Z</time>
      </trkpt>
      <trkpt lat="45.34331" lon="6.72089">
        <ele>2224.15</ele>
        <time>2019-09-13T12:42:08Z</time>
      </trkpt>
      <trkpt lat="45.34323" lon="6.72089">
        <ele>2221.26</ele>
        <time>2019-09-13T12:42:27Z</time>
      </trkpt>
      <trkpt lat="45.34316" lon="6.72095">
        <ele>2219.34</ele>
        <time>2019-09-13T12:42:44Z</time>
      </trkpt>
      <trkpt lat="45.3431" lon="6.72101">
        <ele>2215.98</ele>
        <time>2019-09-13T12:43:02Z</time>
      </trkpt>
      <trkpt lat="45.34302" lon="6.72104">
        <ele>2214.05</ele>
        <time>2019-09-13T12:43:20Z</time>
      </trkpt>
      <trkpt lat="45.34299" lon="6.72103">
        <ele>2212.61</ele>
        <time>2019-09-13T12:43:25Z</time>
      </trkpt>
      <trkpt lat="45.3429" lon="6.72105">
        <ele>2208.77</ele>
        <time>2019-09-13T12:43:38Z</time>
      </trkpt>
      <trkpt lat="45.3428" lon="6.72103">
        <ele>2206.36</ele>
        <time>2019-09-13T12:43:56Z</time>
      </trkpt>
      <trkpt lat="45.34279" lon="6.721">
        <ele>2205.88</ele>
        <time>2019-09-13T12:43:59Z</time>
      </trkpt>
      <trkpt lat="45.34278" lon="6.72084">
        <ele>2204.44</ele>
        <time>2019-09-13T12:44:08Z</time>
      </trkpt>
      <trkpt lat="45.34281" lon="6.72079">
        <ele>2204.44</ele>
        <time>2019-09-13T12:44:13Z</time>
      </trkpt>
      <trkpt lat="45.34281" lon="6.72071">
        <ele>2202.04</ele>
        <time>2019-09-13T12:44:19Z</time>
      </trkpt>
      <trkpt lat="45.34286" lon="6.72053">
        <ele>2198.67</ele>
        <time>2019-09-13T12:44:33Z</time>
      </trkpt>
      <trkpt lat="45.3429" lon="6.72048">
        <ele>2198.67</ele>
        <time>2019-09-13T12:44:39Z</time>
      </trkpt>
      <trkpt lat="45.34293" lon="6.72044">
        <ele>2197.71</ele>
        <time>2019-09-13T12:44:44Z</time>
      </trkpt>
      <trkpt lat="45.34294" lon="6.72034">
        <ele>2197.23</ele>
        <time>2019-09-13T12:44:52Z</time>
      </trkpt>
      <trkpt lat="45.34296" lon="6.72024">
        <ele>2194.35</ele>
        <time>2019-09-13T12:45:01Z</time>
      </trkpt>
      <trkpt lat="45.343" lon="6.72015">
        <ele>2192.9</ele>
        <time>2019-09-13T12:45:19Z</time>
      </trkpt>
      <trkpt lat="45.34302" lon="6.72011">
        <ele>2191.94</ele>
        <time>2019-09-13T12:45:37Z</time>
      </trkpt>
      <trkpt lat="45.34309" lon="6.71995">
        <ele>2189.54</ele>
        <time>2019-09-13T12:45:57Z</time>
      </trkpt>
      <trkpt lat="45.34311" lon="6.7199">
        <ele>2189.54</ele>
        <time>2019-09-13T12:46:03Z</time>
      </trkpt>
      <trkpt lat="45.34316" lon="6.7199">
        <ele>2190.02</ele>
        <time>2019-09-13T12:46:10Z</time>
      </trkpt>
      <trkpt lat="45.34321" lon="6.71985">
        <ele>2189.06</ele>
        <time>2019-09-13T12:46:15Z</time>
      </trkpt>
      <trkpt lat="45.34323" lon="6.71985">
        <ele>2189.06</ele>
        <time>2019-09-13T12:46:17Z</time>
      </trkpt>
      <trkpt lat="45.34329" lon="6.71977">
        <ele>2187.14</ele>
        <time>2019-09-13T12:46:26Z</time>
      </trkpt>
      <trkpt lat="45.34333" lon="6.71973">
        <ele>2186.66</ele>
        <time>2019-09-13T12:46:30Z</time>
      </trkpt>
      <trkpt lat="45.34341" lon="6.71966">
        <ele>2182.33</ele>
        <time>2019-09-13T12:46:47Z</time>
      </trkpt>
      <trkpt lat="45.34348" lon="6.7196">
        <ele>2180.41</ele>
        <time>2019-09-13T12:47:07Z</time>
      </trkpt>
      <trkpt lat="45.34352" lon="6.71953">
        <ele>2178.97</ele>
        <time>2019-09-13T12:47:12Z</time>
      </trkpt>
      <trkpt lat="45.34356" lon="6.71947">
        <ele>2177.04</ele>
        <time>2019-09-13T12:47:21Z</time>
      </trkpt>
      <trkpt lat="45.3436" lon="6.71929">
        <ele>2171.76</ele>
        <time>2019-09-13T12:47:38Z</time>
      </trkpt>
      <trkpt lat="45.34366" lon="6.71921">
        <ele>2170.79</ele>
        <time>2019-09-13T12:47:48Z</time>
      </trkpt>
      <trkpt lat="45.34375" lon="6.7191">
        <ele>2168.39</ele>
        <time>2019-09-13T12:48:04Z</time>
      </trkpt>
      <trkpt lat="45.34389" lon="6.71896">
        <ele>2165.03</ele>
        <time>2019-09-13T12:48:23Z</time>
      </trkpt>
      <trkpt lat="45.34392" lon="6.71893">
        <ele>2164.06</ele>
        <time>2019-09-13T12:48:27Z</time>
      </trkpt>
      <trkpt lat="45.34396" lon="6.71883">
        <ele>2161.18</ele>
        <time>2019-09-13T12:48:37Z</time>
      </trkpt>
      <trkpt lat="45.34403" lon="6.71864">
        <ele>2158.78</ele>
        <time>2019-09-13T12:48:57Z</time>
      </trkpt>
      <trkpt lat="45.34407" lon="6.71852">
        <ele>2155.41</ele>
        <time>2019-09-13T12:49:16Z</time>
      </trkpt>
      <trkpt lat="45.34415" lon="6.7184">
        <ele>2153.01</ele>
        <time>2019-09-13T12:49:33Z</time>
      </trkpt>
      <trkpt lat="45.34418" lon="6.71825">
        <ele>2150.61</ele>
        <time>2019-09-13T12:49:50Z</time>
      </trkpt>
      <trkpt lat="45.34424" lon="6.71818">
        <ele>2147.24</ele>
        <time>2019-09-13T12:50:08Z</time>
      </trkpt>
      <trkpt lat="45.34424" lon="6.71816">
        <ele>2146.76</ele>
        <time>2019-09-13T12:50:10Z</time>
      </trkpt>
      <trkpt lat="45.34431" lon="6.71806">
        <ele>2141.95</ele>
        <time>2019-09-13T12:50:27Z</time>
      </trkpt>
      <trkpt lat="45.34436" lon="6.71793">
        <ele>2140.03</ele>
        <time>2019-09-13T12:50:44Z</time>
      </trkpt>
      <trkpt lat="45.3444" lon="6.71781">
        <ele>2136.67</ele>
        <time>2019-09-13T12:51:02Z</time>
      </trkpt>
      <trkpt lat="45.34448" lon="6.71764">
        <ele>2133.78</ele>
        <time>2019-09-13T12:51:20Z</time>
      </trkpt>
      <trkpt lat="45.34448" lon="6.71758">
        <ele>2132.34</ele>
        <time>2019-09-13T12:51:27Z</time>
      </trkpt>
      <trkpt lat="45.3445" lon="6.71745">
        <ele>2129.46</ele>
        <time>2019-09-13T12:51:45Z</time>
      </trkpt>
      <trkpt lat="45.34454" lon="6.71736">
        <ele>2127.53</ele>
        <time>2019-09-13T12:52:00Z</time>
      </trkpt>
      <trkpt lat="45.34455" lon="6.71732">
        <ele>2126.09</ele>
        <time>2019-09-13T12:52:09Z</time>
      </trkpt>
      <trkpt lat="45.34463" lon="6.71722">
        <ele>2122.25</ele>
        <time>2019-09-13T12:52:27Z</time>
      </trkpt>
      <trkpt lat="45.34465" lon="6.71713">
        <ele>2118.88</ele>
        <time>2019-09-13T12:52:44Z</time>
      </trkpt>
      <trkpt lat="45.34468" lon="6.7171">
        <ele>2117.92</ele>
        <time>2019-09-13T12:52:51Z</time>
      </trkpt>
      <trkpt lat="45.34482" lon="6.717">
        <ele>2112.63</ele>
        <time>2019-09-13T12:53:09Z</time>
      </trkpt>
      <trkpt lat="45.34486" lon="6.71703">
        <ele>2112.63</ele>
        <time>2019-09-13T12:53:13Z</time>
      </trkpt>
      <trkpt lat="45.34491" lon="6.71694">
        <ele>2112.63</ele>
        <time>2019-09-13T12:53:30Z</time>
      </trkpt>
      <trkpt lat="45.34491" lon="6.71689">
        <ele>2111.67</ele>
        <time>2019-09-13T12:53:35Z</time>
      </trkpt>
      <trkpt lat="45.34493" lon="6.71677">
        <ele>2108.79</ele>
        <time>2019-09-13T12:53:46Z</time>
      </trkpt>
      <trkpt lat="45.34495" lon="6.71674">
        <ele>2106.87</ele>
        <time>2019-09-13T12:53:51Z</time>
      </trkpt>
      <trkpt lat="45.34496" lon="6.71666">
        <ele>2104.46</ele>
        <time>2019-09-13T12:53:56Z</time>
      </trkpt>
      <trkpt lat="45.34504" lon="6.71662">
        <ele>2101.58</ele>
        <time>2019-09-13T12:54:04Z</time>
      </trkpt>
      <trkpt lat="45.34506" lon="6.71658">
        <ele>2100.62</ele>
        <time>2019-09-13T12:54:07Z</time>
      </trkpt>
      <trkpt lat="45.34513" lon="6.71652">
        <ele>2098.7</ele>
        <time>2019-09-13T12:54:14Z</time>
      </trkpt>
      <trkpt lat="45.34526" lon="6.71635">
        <ele>2094.85</ele>
        <time>2019-09-13T12:54:31Z</time>
      </trkpt>
      <trkpt lat="45.34528" lon="6.71631">
        <ele>2094.37</ele>
        <time>2019-09-13T12:54:34Z</time>
      </trkpt>
      <trkpt lat="45.34532" lon="6.71628">
        <ele>2091.97</ele>
        <time>2019-09-13T12:54:46Z</time>
      </trkpt>
      <trkpt lat="45.34537" lon="6.71621">
        <ele>2090.52</ele>
        <time>2019-09-13T12:55:15Z</time>
      </trkpt>
      <trkpt lat="45.34541" lon="6.71586">
        <ele>2088.6</ele>
        <time>2019-09-13T12:55:35Z</time>
      </trkpt>
      <trkpt lat="45.34539" lon="6.7158">
        <ele>2086.68</ele>
        <time>2019-09-13T12:55:41Z</time>
      </trkpt>
      <trkpt lat="45.34534" lon="6.71589">
        <ele>2085.24</ele>
        <time>2019-09-13T12:55:48Z</time>
      </trkpt>
      <trkpt lat="45.34512" lon="6.71593">
        <ele>2078.51</ele>
        <time>2019-09-13T12:56:06Z</time>
      </trkpt>
      <trkpt lat="45.34499" lon="6.71576">
        <ele>2073.7</ele>
        <time>2019-09-13T12:56:23Z</time>
      </trkpt>
      <trkpt lat="45.34496" lon="6.71567">
        <ele>2071.3</ele>
        <time>2019-09-13T12:56:29Z</time>
      </trkpt>
      <trkpt lat="45.34497" lon="6.71561">
        <ele>2069.38</ele>
        <time>2019-09-13T12:56:33Z</time>
      </trkpt>
      <trkpt lat="45.34497" lon="6.71548">
        <ele>2067.45</ele>
        <time>2019-09-13T12:56:40Z</time>
      </trkpt>
      <trkpt lat="45.34499" lon="6.71533">
        <ele>2065.53</ele>
        <time>2019-09-13T12:56:49Z</time>
      </trkpt>
      <trkpt lat="45.34493" lon="6.71539">
        <ele>2064.09</ele>
        <time>2019-09-13T12:56:55Z</time>
      </trkpt>
      <trkpt lat="45.34492" lon="6.71537">
        <ele>2063.61</ele>
        <time>2019-09-13T12:56:57Z</time>
      </trkpt>
      <trkpt lat="45.34491" lon="6.71534">
        <ele>2062.65</ele>
        <time>2019-09-13T12:57:02Z</time>
      </trkpt>
      <trkpt lat="45.34482" lon="6.71547">
        <ele>2060.24</ele>
        <time>2019-09-13T12:57:12Z</time>
      </trkpt>
      <trkpt lat="45.34469" lon="6.71542">
        <ele>2058.8</ele>
        <time>2019-09-13T12:57:30Z</time>
      </trkpt>
      <trkpt lat="45.34469" lon="6.71541">
        <ele>2058.8</ele>
        <time>2019-09-13T12:57:31Z</time>
      </trkpt>
      <trkpt lat="45.34466" lon="6.71534">
        <ele>2058.8</ele>
        <time>2019-09-13T12:57:43Z</time>
      </trkpt>
      <trkpt lat="45.34463" lon="6.71516">
        <ele>2062.17</ele>
        <time>2019-09-13T12:58:00Z</time>
      </trkpt>
      <trkpt lat="45.34462" lon="6.71514">
        <ele>2062.17</ele>
        <time>2019-09-13T12:58:29Z</time>
      </trkpt>
      <trkpt lat="45.34464" lon="6.71505">
        <ele>2060.72</ele>
        <time>2019-09-13T12:58:59Z</time>
      </trkpt>
      <trkpt lat="45.34465" lon="6.71493">
        <ele>2059.28</ele>
        <time>2019-09-13T12:59:08Z</time>
      </trkpt>
      <trkpt lat="45.34464" lon="6.71491">
        <ele>2058.8</ele>
        <time>2019-09-13T12:59:10Z</time>
      </trkpt>
      <trkpt lat="45.34467" lon="6.71473">
        <ele>2056.4</ele>
        <time>2019-09-13T12:59:23Z</time>
      </trkpt>
      <trkpt lat="45.34469" lon="6.71472">
        <ele>2055.44</ele>
        <time>2019-09-13T12:59:25Z</time>
      </trkpt>
      <trkpt lat="45.34471" lon="6.71466">
        <ele>2053.99</ele>
        <time>2019-09-13T12:59:30Z</time>
      </trkpt>
      <trkpt lat="45.34471" lon="6.7146">
        <ele>2053.51</ele>
        <time>2019-09-13T12:59:35Z</time>
      </trkpt>
      <trkpt lat="45.34474" lon="6.7145">
        <ele>2052.55</ele>
        <time>2019-09-13T12:59:42Z</time>
      </trkpt>
      <trkpt lat="45.34472" lon="6.71435">
        <ele>2051.59</ele>
        <time>2019-09-13T12:59:52Z</time>
      </trkpt>
      <trkpt lat="45.34475" lon="6.71423">
        <ele>2052.07</ele>
        <time>2019-09-13T12:59:58Z</time>
      </trkpt>
      <trkpt lat="45.34476" lon="6.71419">
        <ele>2052.55</ele>
        <time>2019-09-13T13:00:01Z</time>
      </trkpt>
      <trkpt lat="45.34479" lon="6.71412">
        <ele>2053.03</ele>
        <time>2019-09-13T13:00:05Z</time>
      </trkpt>
      <trkpt lat="45.34481" lon="6.71408">
        <ele>2052.55</ele>
        <time>2019-09-13T13:00:08Z</time>
      </trkpt>
      <trkpt lat="45.34488" lon="6.71388">
        <ele>2053.51</ele>
        <time>2019-09-13T13:00:24Z</time>
      </trkpt>
      <trkpt lat="45.34489" lon="6.71378">
        <ele>2056.4</ele>
        <time>2019-09-13T13:00:43Z</time>
      </trkpt>
      <trkpt lat="45.34495" lon="6.71364">
        <ele>2057.36</ele>
        <time>2019-09-13T13:00:57Z</time>
      </trkpt>
      <trkpt lat="45.34496" lon="6.71363">
        <ele>2057.36</ele>
        <time>2019-09-13T13:00:58Z</time>
      </trkpt>
      <trkpt lat="45.34499" lon="6.71351">
        <ele>2058.32</ele>
        <time>2019-09-13T13:01:04Z</time>
      </trkpt>
      <trkpt lat="45.34505" lon="6.71338">
        <ele>2058.8</ele>
        <time>2019-09-13T13:01:11Z</time>
      </trkpt>
      <trkpt lat="45.34506" lon="6.71336">
        <ele>2058.8</ele>
        <time>2019-09-13T13:01:13Z</time>
      </trkpt>
      <trkpt lat="45.34509" lon="6.71324">
        <ele>2059.76</ele>
        <time>2019-09-13T13:01:20Z</time>
      </trkpt>
      <trkpt lat="45.34512" lon="6.71303">
        <ele>2058.8</ele>
        <time>2019-09-13T13:01:36Z</time>
      </trkpt>
      <trkpt lat="45.34517" lon="6.71296">
        <ele>2057.84</ele>
        <time>2019-09-13T13:01:46Z</time>
      </trkpt>
      <trkpt lat="45.34519" lon="6.71288">
        <ele>2055.92</ele>
        <time>2019-09-13T13:01:53Z</time>
      </trkpt>
      <trkpt lat="45.34524" lon="6.71273">
        <ele>2053.03</ele>
        <time>2019-09-13T13:02:08Z</time>
      </trkpt>
      <trkpt lat="45.34527" lon="6.71264">
        <ele>2051.59</ele>
        <time>2019-09-13T13:02:15Z</time>
      </trkpt>
      <trkpt lat="45.3453" lon="6.71254">
        <ele>2050.15</ele>
        <time>2019-09-13T13:02:34Z</time>
      </trkpt>
      <trkpt lat="45.34534" lon="6.7124">
        <ele>2048.71</ele>
        <time>2019-09-13T13:03:33Z</time>
      </trkpt>
      <trkpt lat="45.34537" lon="6.71229">
        <ele>2047.75</ele>
        <time>2019-09-13T13:03:39Z</time>
      </trkpt>
      <trkpt lat="45.34539" lon="6.71223">
        <ele>2047.26</ele>
        <time>2019-09-13T13:03:43Z</time>
      </trkpt>
      <trkpt lat="45.34542" lon="6.7121">
        <ele>2044.86</ele>
        <time>2019-09-13T13:03:51Z</time>
      </trkpt>
      <trkpt lat="45.34545" lon="6.71196">
        <ele>2042.94</ele>
        <time>2019-09-13T13:04:00Z</time>
      </trkpt>
      <trkpt lat="45.34546" lon="6.71165">
        <ele>2039.57</ele>
        <time>2019-09-13T13:04:16Z</time>
      </trkpt>
      <trkpt lat="45.34546" lon="6.71162">
        <ele>2039.57</ele>
        <time>2019-09-13T13:04:18Z</time>
      </trkpt>
      <trkpt lat="45.34543" lon="6.71154">
        <ele>2038.13</ele>
        <time>2019-09-13T13:04:23Z</time>
      </trkpt>
      <trkpt lat="45.34541" lon="6.7115">
        <ele>2037.17</ele>
        <time>2019-09-13T13:04:26Z</time>
      </trkpt>
      <trkpt lat="45.34543" lon="6.71138">
        <ele>2035.73</ele>
        <time>2019-09-13T13:04:32Z</time>
      </trkpt>
      <trkpt lat="45.34544" lon="6.71133">
        <ele>2034.77</ele>
        <time>2019-09-13T13:04:35Z</time>
      </trkpt>
      <trkpt lat="45.34541" lon="6.71107">
        <ele>2030.92</ele>
        <time>2019-09-13T13:04:51Z</time>
      </trkpt>
      <trkpt lat="45.34538" lon="6.71101">
        <ele>2028.52</ele>
        <time>2019-09-13T13:04:56Z</time>
      </trkpt>
      <trkpt lat="45.34533" lon="6.71094">
        <ele>2024.67</ele>
        <time>2019-09-13T13:05:05Z</time>
      </trkpt>
      <trkpt lat="45.34541" lon="6.7109">
        <ele>2024.19</ele>
        <time>2019-09-13T13:05:14Z</time>
      </trkpt>
      <trkpt lat="45.34552" lon="6.71082">
        <ele>2020.35</ele>
        <time>2019-09-13T13:05:30Z</time>
      </trkpt>
      <trkpt lat="45.34552" lon="6.71075">
        <ele>2016.02</ele>
        <time>2019-09-13T13:05:41Z</time>
      </trkpt>
      <trkpt lat="45.34544" lon="6.71069">
        <ele>2013.62</ele>
        <time>2019-09-13T13:05:52Z</time>
      </trkpt>
      <trkpt lat="45.34545" lon="6.71066">
        <ele>2013.62</ele>
        <time>2019-09-13T13:05:54Z</time>
      </trkpt>
      <trkpt lat="45.34555" lon="6.71057">
        <ele>2009.77</ele>
        <time>2019-09-13T13:06:14Z</time>
      </trkpt>
      <trkpt lat="45.34554" lon="6.71056">
        <ele>2008.33</ele>
        <time>2019-09-13T13:06:17Z</time>
      </trkpt>
      <trkpt lat="45.34545" lon="6.71045">
        <ele>2004.97</ele>
        <time>2019-09-13T13:06:36Z</time>
      </trkpt>
      <trkpt lat="45.34533" lon="6.71042">
        <ele>2000.64</ele>
        <time>2019-09-13T13:06:53Z</time>
      </trkpt>
      <trkpt lat="45.34526" lon="6.71038">
        <ele>1997.28</ele>
        <time>2019-09-13T13:07:04Z</time>
      </trkpt>
      <trkpt lat="45.34511" lon="6.71027">
        <ele>1993.91</ele>
        <time>2019-09-13T13:07:23Z</time>
      </trkpt>
      <trkpt lat="45.34503" lon="6.7102">
        <ele>1991.99</ele>
        <time>2019-09-13T13:07:35Z</time>
      </trkpt>
      <trkpt lat="45.34492" lon="6.71005">
        <ele>1989.1</ele>
        <time>2019-09-13T13:07:56Z</time>
      </trkpt>
      <trkpt lat="45.34493" lon="6.71002">
        <ele>1988.14</ele>
        <time>2019-09-13T13:07:59Z</time>
      </trkpt>
      <trkpt lat="45.34509" lon="6.70993">
        <ele>1983.34</ele>
        <time>2019-09-13T13:08:20Z</time>
      </trkpt>
      <trkpt lat="45.34523" lon="6.70983">
        <ele>1980.45</ele>
        <time>2019-09-13T13:08:37Z</time>
      </trkpt>
      <trkpt lat="45.34538" lon="6.70981">
        <ele>1978.53</ele>
        <time>2019-09-13T13:08:54Z</time>
      </trkpt>
      <trkpt lat="45.34542" lon="6.70978">
        <ele>1976.61</ele>
        <time>2019-09-13T13:09:11Z</time>
      </trkpt>
      <trkpt lat="45.34542" lon="6.70976">
        <ele>1976.13</ele>
        <time>2019-09-13T13:10:15Z</time>
      </trkpt>
      <trkpt lat="45.34536" lon="6.70966">
        <ele>1974.2</ele>
        <time>2019-09-13T13:10:27Z</time>
      </trkpt>
      <trkpt lat="45.34536" lon="6.7096">
        <ele>1973.24</ele>
        <time>2019-09-13T13:10:31Z</time>
      </trkpt>
      <trkpt lat="45.34537" lon="6.70946">
        <ele>1971.32</ele>
        <time>2019-09-13T13:10:41Z</time>
      </trkpt>
      <trkpt lat="45.34535" lon="6.70945">
        <ele>1970.84</ele>
        <time>2019-09-13T13:10:43Z</time>
      </trkpt>
      <trkpt lat="45.34527" lon="6.70945">
        <ele>1967.48</ele>
        <time>2019-09-13T13:10:49Z</time>
      </trkpt>
      <trkpt lat="45.34526" lon="6.70943">
        <ele>1966.99</ele>
        <time>2019-09-13T13:10:51Z</time>
      </trkpt>
      <trkpt lat="45.3452" lon="6.70938">
        <ele>1964.11</ele>
        <time>2019-09-13T13:10:57Z</time>
      </trkpt>
      <trkpt lat="45.34504" lon="6.7094">
        <ele>1960.27</ele>
        <time>2019-09-13T13:11:10Z</time>
      </trkpt>
      <trkpt lat="45.345" lon="6.7094">
        <ele>1958.82</ele>
        <time>2019-09-13T13:11:13Z</time>
      </trkpt>
      <trkpt lat="45.34494" lon="6.70941">
        <ele>1957.86</ele>
        <time>2019-09-13T13:11:18Z</time>
      </trkpt>
      <trkpt lat="45.34487" lon="6.70933">
        <ele>1955.94</ele>
        <time>2019-09-13T13:11:25Z</time>
      </trkpt>
      <trkpt lat="45.34477" lon="6.70922">
        <ele>1953.54</ele>
        <time>2019-09-13T13:11:36Z</time>
      </trkpt>
      <trkpt lat="45.34475" lon="6.70917">
        <ele>1953.54</ele>
        <time>2019-09-13T13:11:42Z</time>
      </trkpt>
      <trkpt lat="45.34474" lon="6.70912">
        <ele>1953.54</ele>
        <time>2019-09-13T13:11:45Z</time>
      </trkpt>
      <trkpt lat="45.3447" lon="6.70906">
        <ele>1952.09</ele>
        <time>2019-09-13T13:11:50Z</time>
      </trkpt>
      <trkpt lat="45.34461" lon="6.70891">
        <ele>1949.69</ele>
        <time>2019-09-13T13:12:07Z</time>
      </trkpt>
      <trkpt lat="45.34459" lon="6.70889">
        <ele>1949.21</ele>
        <time>2019-09-13T13:12:09Z</time>
      </trkpt>
      <trkpt lat="45.34449" lon="6.70859">
        <ele>1944.88</ele>
        <time>2019-09-13T13:12:25Z</time>
      </trkpt>
      <trkpt lat="45.34448" lon="6.70849">
        <ele>1943.92</ele>
        <time>2019-09-13T13:12:30Z</time>
      </trkpt>
      <trkpt lat="45.34449" lon="6.70845">
        <ele>1943.44</ele>
        <time>2019-09-13T13:12:32Z</time>
      </trkpt>
      <trkpt lat="45.34453" lon="6.70837">
        <ele>1943.44</ele>
        <time>2019-09-13T13:12:37Z</time>
      </trkpt>
      <trkpt lat="45.3445" lon="6.70829">
        <ele>1942</ele>
        <time>2019-09-13T13:12:45Z</time>
      </trkpt>
      <trkpt lat="45.3445" lon="6.70822">
        <ele>1941.52</ele>
        <time>2019-09-13T13:12:49Z</time>
      </trkpt>
      <trkpt lat="45.34445" lon="6.70809">
        <ele>1940.08</ele>
        <time>2019-09-13T13:12:58Z</time>
      </trkpt>
      <trkpt lat="45.34444" lon="6.70779">
        <ele>1938.64</ele>
        <time>2019-09-13T13:13:13Z</time>
      </trkpt>
      <trkpt lat="45.34452" lon="6.70755">
        <ele>1936.23</ele>
        <time>2019-09-13T13:13:25Z</time>
      </trkpt>
      <trkpt lat="45.34455" lon="6.70745">
        <ele>1934.79</ele>
        <time>2019-09-13T13:13:31Z</time>
      </trkpt>
      <trkpt lat="45.34458" lon="6.70729">
        <ele>1933.83</ele>
        <time>2019-09-13T13:13:40Z</time>
      </trkpt>
      <trkpt lat="45.34461" lon="6.70717">
        <ele>1932.39</ele>
        <time>2019-09-13T13:13:46Z</time>
      </trkpt>
      <trkpt lat="45.34458" lon="6.70704">
        <ele>1930.46</ele>
        <time>2019-09-13T13:13:54Z</time>
      </trkpt>
      <trkpt lat="45.34459" lon="6.70698">
        <ele>1929.02</ele>
        <time>2019-09-13T13:13:58Z</time>
      </trkpt>
      <trkpt lat="45.34462" lon="6.70697">
        <ele>1928.06</ele>
        <time>2019-09-13T13:14:01Z</time>
      </trkpt>
      <trkpt lat="45.34464" lon="6.70691">
        <ele>1926.14</ele>
        <time>2019-09-13T13:14:05Z</time>
      </trkpt>
      <trkpt lat="45.3447" lon="6.70689">
        <ele>1924.22</ele>
        <time>2019-09-13T13:14:11Z</time>
      </trkpt>
      <trkpt lat="45.34471" lon="6.70687">
        <ele>1923.25</ele>
        <time>2019-09-13T13:14:13Z</time>
      </trkpt>
      <trkpt lat="45.34477" lon="6.70688">
        <ele>1921.33</ele>
        <time>2019-09-13T13:14:21Z</time>
      </trkpt>
      <trkpt lat="45.34482" lon="6.70685">
        <ele>1920.37</ele>
        <time>2019-09-13T13:14:28Z</time>
      </trkpt>
      <trkpt lat="45.34484" lon="6.70685">
        <ele>1919.89</ele>
        <time>2019-09-13T13:14:30Z</time>
      </trkpt>
      <trkpt lat="45.34486" lon="6.70688">
        <ele>1918.93</ele>
        <time>2019-09-13T13:14:33Z</time>
      </trkpt>
      <trkpt lat="45.34488" lon="6.7069">
        <ele>1918.45</ele>
        <time>2019-09-13T13:14:35Z</time>
      </trkpt>
      <trkpt lat="45.34499" lon="6.70699">
        <ele>1914.12</ele>
        <time>2019-09-13T13:14:44Z</time>
      </trkpt>
      <trkpt lat="45.3451" lon="6.70707">
        <ele>1911.72</ele>
        <time>2019-09-13T13:14:55Z</time>
      </trkpt>
      <trkpt lat="45.34511" lon="6.70704">
        <ele>1911.24</ele>
        <time>2019-09-13T13:14:57Z</time>
      </trkpt>
      <trkpt lat="45.34514" lon="6.707">
        <ele>1907.87</ele>
        <time>2019-09-13T13:15:06Z</time>
      </trkpt>
      <trkpt lat="45.34513" lon="6.70687">
        <ele>1904.51</ele>
        <time>2019-09-13T13:15:15Z</time>
      </trkpt>
      <trkpt lat="45.34511" lon="6.70676">
        <ele>1902.11</ele>
        <time>2019-09-13T13:15:25Z</time>
      </trkpt>
      <trkpt lat="45.34509" lon="6.70661">
        <ele>1898.74</ele>
        <time>2019-09-13T13:15:35Z</time>
      </trkpt>
      <trkpt lat="45.34507" lon="6.70658">
        <ele>1897.78</ele>
        <time>2019-09-13T13:15:38Z</time>
      </trkpt>
      <trkpt lat="45.34504" lon="6.70643">
        <ele>1894.42</ele>
        <time>2019-09-13T13:15:49Z</time>
      </trkpt>
      <trkpt lat="45.34504" lon="6.70638">
        <ele>1893.45</ele>
        <time>2019-09-13T13:15:52Z</time>
      </trkpt>
      <trkpt lat="45.34503" lon="6.70635">
        <ele>1892.49</ele>
        <time>2019-09-13T13:15:54Z</time>
      </trkpt>
      <trkpt lat="45.34491" lon="6.70608">
        <ele>1888.65</ele>
        <time>2019-09-13T13:16:12Z</time>
      </trkpt>
      <trkpt lat="45.34489" lon="6.70606">
        <ele>1888.65</ele>
        <time>2019-09-13T13:16:14Z</time>
      </trkpt>
      <trkpt lat="45.34486" lon="6.70596">
        <ele>1885.76</ele>
        <time>2019-09-13T13:16:20Z</time>
      </trkpt>
      <trkpt lat="45.34485" lon="6.70592">
        <ele>1885.28</ele>
        <time>2019-09-13T13:16:46Z</time>
      </trkpt>
      <trkpt lat="45.34485" lon="6.70592">
        <ele>1885.28</ele>
        <time>2019-09-13T13:16:49Z</time>
      </trkpt>
      <trkpt lat="45.34485" lon="6.70592">
        <ele>1885.76</ele>
        <time>2019-09-13T13:17:13Z</time>
      </trkpt>
      <trkpt lat="45.34486" lon="6.70591">
        <ele>1885.76</ele>
        <time>2019-09-13T13:20:04Z</time>
      </trkpt>
      <trkpt lat="45.34487" lon="6.70591">
        <ele>1885.76</ele>
        <time>2019-09-13T13:20:18Z</time>
      </trkpt>
      <trkpt lat="45.34487" lon="6.70588">
        <ele>1885.76</ele>
        <time>2019-09-13T13:20:49Z</time>
      </trkpt>
      <trkpt lat="45.34486" lon="6.70583">
        <ele>1886.24</ele>
        <time>2019-09-13T13:20:52Z</time>
      </trkpt>
      <trkpt lat="45.34485" lon="6.70574">
        <ele>1885.76</ele>
        <time>2019-09-13T13:20:58Z</time>
      </trkpt>
      <trkpt lat="45.34483" lon="6.70561">
        <ele>1883.84</ele>
        <time>2019-09-13T13:21:07Z</time>
      </trkpt>
      <trkpt lat="45.34491" lon="6.70554">
        <ele>1879.51</ele>
        <time>2019-09-13T13:21:24Z</time>
      </trkpt>
      <trkpt lat="45.34493" lon="6.70555">
        <ele>1879.03</ele>
        <time>2019-09-13T13:21:30Z</time>
      </trkpt>
      <trkpt lat="45.34501" lon="6.70559">
        <ele>1878.07</ele>
        <time>2019-09-13T13:21:39Z</time>
      </trkpt>
      <trkpt lat="45.34507" lon="6.70558">
        <ele>1876.15</ele>
        <time>2019-09-13T13:21:47Z</time>
      </trkpt>
      <trkpt lat="45.34507" lon="6.70556">
        <ele>1876.15</ele>
        <time>2019-09-13T13:21:49Z</time>
      </trkpt>
      <trkpt lat="45.34506" lon="6.70545">
        <ele>1874.23</ele>
        <time>2019-09-13T13:21:57Z</time>
      </trkpt>
      <trkpt lat="45.34512" lon="6.70544">
        <ele>1871.34</ele>
        <time>2019-09-13T13:22:03Z</time>
      </trkpt>
      <trkpt lat="45.34517" lon="6.70545">
        <ele>1868.94</ele>
        <time>2019-09-13T13:22:09Z</time>
      </trkpt>
      <trkpt lat="45.34528" lon="6.70538">
        <ele>1862.69</ele>
        <time>2019-09-13T13:22:24Z</time>
      </trkpt>
      <trkpt lat="45.34535" lon="6.70539">
        <ele>1861.25</ele>
        <time>2019-09-13T13:22:29Z</time>
      </trkpt>
      <trkpt lat="45.34537" lon="6.70538">
        <ele>1860.29</ele>
        <time>2019-09-13T13:22:31Z</time>
      </trkpt>
      <trkpt lat="45.34547" lon="6.70533">
        <ele>1858.37</ele>
        <time>2019-09-13T13:22:39Z</time>
      </trkpt>
      <trkpt lat="45.34551" lon="6.70532">
        <ele>1856.92</ele>
        <time>2019-09-13T13:22:44Z</time>
      </trkpt>
      <trkpt lat="45.3455" lon="6.70525">
        <ele>1855.48</ele>
        <time>2019-09-13T13:22:49Z</time>
      </trkpt>
      <trkpt lat="45.34553" lon="6.7052">
        <ele>1854.52</ele>
        <time>2019-09-13T13:22:53Z</time>
      </trkpt>
      <trkpt lat="45.34555" lon="6.70518">
        <ele>1853.56</ele>
        <time>2019-09-13T13:22:55Z</time>
      </trkpt>
      <trkpt lat="45.34564" lon="6.70522">
        <ele>1851.16</ele>
        <time>2019-09-13T13:23:01Z</time>
      </trkpt>
      <trkpt lat="45.34577" lon="6.70528">
        <ele>1845.87</ele>
        <time>2019-09-13T13:23:13Z</time>
      </trkpt>
      <trkpt lat="45.34576" lon="6.70518">
        <ele>1844.43</ele>
        <time>2019-09-13T13:23:19Z</time>
      </trkpt>
      <trkpt lat="45.34576" lon="6.70514">
        <ele>1843.47</ele>
        <time>2019-09-13T13:23:30Z</time>
      </trkpt>
      <trkpt lat="45.34574" lon="6.70507">
        <ele>1842.98</ele>
        <time>2019-09-13T13:23:35Z</time>
      </trkpt>
      <trkpt lat="45.34578" lon="6.70507">
        <ele>1842.02</ele>
        <time>2019-09-13T13:23:40Z</time>
      </trkpt>
      <trkpt lat="45.3458" lon="6.70503">
        <ele>1841.54</ele>
        <time>2019-09-13T13:23:45Z</time>
      </trkpt>
      <trkpt lat="45.3458" lon="6.705">
        <ele>1841.06</ele>
        <time>2019-09-13T13:23:47Z</time>
      </trkpt>
      <trkpt lat="45.34587" lon="6.705">
        <ele>1839.62</ele>
        <time>2019-09-13T13:23:53Z</time>
      </trkpt>
      <trkpt lat="45.34585" lon="6.70493">
        <ele>1838.66</ele>
        <time>2019-09-13T13:23:58Z</time>
      </trkpt>
      <trkpt lat="45.34594" lon="6.70502">
        <ele>1835.77</ele>
        <time>2019-09-13T13:24:06Z</time>
      </trkpt>
      <trkpt lat="45.34597" lon="6.70503">
        <ele>1834.81</ele>
        <time>2019-09-13T13:24:09Z</time>
      </trkpt>
      <trkpt lat="45.34606" lon="6.70494">
        <ele>1831.45</ele>
        <time>2019-09-13T13:24:19Z</time>
      </trkpt>
      <trkpt lat="45.34607" lon="6.70488">
        <ele>1829.53</ele>
        <time>2019-09-13T13:24:23Z</time>
      </trkpt>
      <trkpt lat="45.34606" lon="6.70483">
        <ele>1828.08</ele>
        <time>2019-09-13T13:24:26Z</time>
      </trkpt>
      <trkpt lat="45.34605" lon="6.70477">
        <ele>1827.12</ele>
        <time>2019-09-13T13:24:30Z</time>
      </trkpt>
      <trkpt lat="45.34609" lon="6.70475">
        <ele>1825.2</ele>
        <time>2019-09-13T13:24:34Z</time>
      </trkpt>
      <trkpt lat="45.34614" lon="6.70478">
        <ele>1823.28</ele>
        <time>2019-09-13T13:24:39Z</time>
      </trkpt>
      <trkpt lat="45.34619" lon="6.70475">
        <ele>1821.84</ele>
        <time>2019-09-13T13:24:44Z</time>
      </trkpt>
      <trkpt lat="45.34636" lon="6.70479">
        <ele>1814.63</ele>
        <time>2019-09-13T13:24:56Z</time>
      </trkpt>
      <trkpt lat="45.34639" lon="6.70481">
        <ele>1813.66</ele>
        <time>2019-09-13T13:24:58Z</time>
      </trkpt>
      <trkpt lat="45.34643" lon="6.70482">
        <ele>1813.18</ele>
        <time>2019-09-13T13:25:02Z</time>
      </trkpt>
      <trkpt lat="45.34653" lon="6.70492">
        <ele>1808.86</ele>
        <time>2019-09-13T13:25:20Z</time>
      </trkpt>
      <trkpt lat="45.34657" lon="6.705">
        <ele>1806.94</ele>
        <time>2019-09-13T13:25:25Z</time>
      </trkpt>
      <trkpt lat="45.34661" lon="6.70502">
        <ele>1805.49</ele>
        <time>2019-09-13T13:25:28Z</time>
      </trkpt>
      <trkpt lat="45.34663" lon="6.70501">
        <ele>1805.01</ele>
        <time>2019-09-13T13:25:30Z</time>
      </trkpt>
      <trkpt lat="45.34666" lon="6.70502">
        <ele>1803.57</ele>
        <time>2019-09-13T13:25:34Z</time>
      </trkpt>
      <trkpt lat="45.34671" lon="6.70496">
        <ele>1803.57</ele>
        <time>2019-09-13T13:25:39Z</time>
      </trkpt>
      <trkpt lat="45.34673" lon="6.70493">
        <ele>1803.57</ele>
        <time>2019-09-13T13:25:41Z</time>
      </trkpt>
      <trkpt lat="45.34675" lon="6.70488">
        <ele>1803.57</ele>
        <time>2019-09-13T13:25:44Z</time>
      </trkpt>
      <trkpt lat="45.3468" lon="6.70476">
        <ele>1802.13</ele>
        <time>2019-09-13T13:25:51Z</time>
      </trkpt>
      <trkpt lat="45.34679" lon="6.70446">
        <ele>1794.92</ele>
        <time>2019-09-13T13:26:10Z</time>
      </trkpt>
      <trkpt lat="45.34681" lon="6.70428">
        <ele>1791.55</ele>
        <time>2019-09-13T13:26:22Z</time>
      </trkpt>
      <trkpt lat="45.34679" lon="6.70418">
        <ele>1785.31</ele>
        <time>2019-09-13T13:26:30Z</time>
      </trkpt>
      <trkpt lat="45.34682" lon="6.70412">
        <ele>1779.54</ele>
        <time>2019-09-13T13:26:39Z</time>
      </trkpt>
      <trkpt lat="45.34685" lon="6.70412">
        <ele>1777.61</ele>
        <time>2019-09-13T13:26:42Z</time>
      </trkpt>
      <trkpt lat="45.34686" lon="6.70409">
        <ele>1776.65</ele>
        <time>2019-09-13T13:26:44Z</time>
      </trkpt>
      <trkpt lat="45.34684" lon="6.70394">
        <ele>1774.25</ele>
        <time>2019-09-13T13:26:54Z</time>
      </trkpt>
      <trkpt lat="45.34683" lon="6.70391">
        <ele>1773.77</ele>
        <time>2019-09-13T13:26:56Z</time>
      </trkpt>
      <trkpt lat="45.3468" lon="6.7038">
        <ele>1771.37</ele>
        <time>2019-09-13T13:27:02Z</time>
      </trkpt>
      <trkpt lat="45.34678" lon="6.70378">
        <ele>1770.41</ele>
        <time>2019-09-13T13:27:04Z</time>
      </trkpt>
      <trkpt lat="45.34675" lon="6.70367">
        <ele>1767.52</ele>
        <time>2019-09-13T13:27:11Z</time>
      </trkpt>
      <trkpt lat="45.34669" lon="6.70344">
        <ele>1760.31</ele>
        <time>2019-09-13T13:27:27Z</time>
      </trkpt>
      <trkpt lat="45.34667" lon="6.70339">
        <ele>1758.39</ele>
        <time>2019-09-13T13:27:31Z</time>
      </trkpt>
      <trkpt lat="45.34655" lon="6.7031">
        <ele>1758.39</ele>
        <time>2019-09-13T13:27:51Z</time>
      </trkpt>
      <trkpt lat="45.34651" lon="6.703">
        <ele>1759.35</ele>
        <time>2019-09-13T13:27:57Z</time>
      </trkpt>
      <trkpt lat="45.34651" lon="6.70292">
        <ele>1759.35</ele>
        <time>2019-09-13T13:28:02Z</time>
      </trkpt>
      <trkpt lat="45.34653" lon="6.70274">
        <ele>1756.95</ele>
        <time>2019-09-13T13:28:12Z</time>
      </trkpt>
      <trkpt lat="45.34645" lon="6.70239">
        <ele>1752.14</ele>
        <time>2019-09-13T13:28:33Z</time>
      </trkpt>
      <trkpt lat="45.34645" lon="6.70228">
        <ele>1749.74</ele>
        <time>2019-09-13T13:28:39Z</time>
      </trkpt>
      <trkpt lat="45.34629" lon="6.70196">
        <ele>1743.01</ele>
        <time>2019-09-13T13:29:00Z</time>
      </trkpt>
      <trkpt lat="45.34619" lon="6.70185">
        <ele>1742.53</ele>
        <time>2019-09-13T13:29:09Z</time>
      </trkpt>
      <trkpt lat="45.34612" lon="6.70178">
        <ele>1739.16</ele>
        <time>2019-09-13T13:29:16Z</time>
      </trkpt>
      <trkpt lat="45.34602" lon="6.70167">
        <ele>1736.28</ele>
        <time>2019-09-13T13:29:27Z</time>
      </trkpt>
      <trkpt lat="45.34598" lon="6.70161">
        <ele>1734.84</ele>
        <time>2019-09-13T13:29:33Z</time>
      </trkpt>
      <trkpt lat="45.34578" lon="6.70145">
        <ele>1731.95</ele>
        <time>2019-09-13T13:29:51Z</time>
      </trkpt>
      <trkpt lat="45.34573" lon="6.70139">
        <ele>1731.47</ele>
        <time>2019-09-13T13:29:56Z</time>
      </trkpt>
      <trkpt lat="45.34569" lon="6.70135">
        <ele>1731.47</ele>
        <time>2019-09-13T13:30:00Z</time>
      </trkpt>
      <trkpt lat="45.34558" lon="6.70121">
        <ele>1726.67</ele>
        <time>2019-09-13T13:30:13Z</time>
      </trkpt>
      <trkpt lat="45.34543" lon="6.70107">
        <ele>1720.9</ele>
        <time>2019-09-13T13:30:29Z</time>
      </trkpt>
      <trkpt lat="45.34541" lon="6.70106">
        <ele>1720.9</ele>
        <time>2019-09-13T13:30:31Z</time>
      </trkpt>
      <trkpt lat="45.3453" lon="6.701">
        <ele>1720.9</ele>
        <time>2019-09-13T13:30:41Z</time>
      </trkpt>
      <trkpt lat="45.34527" lon="6.70095">
        <ele>1720.42</ele>
        <time>2019-09-13T13:30:45Z</time>
      </trkpt>
      <trkpt lat="45.34528" lon="6.70091">
        <ele>1719.94</ele>
        <time>2019-09-13T13:30:47Z</time>
      </trkpt>
      <trkpt lat="45.34534" lon="6.70083">
        <ele>1718.01</ele>
        <time>2019-09-13T13:30:54Z</time>
      </trkpt>
      <trkpt lat="45.34542" lon="6.70082">
        <ele>1717.05</ele>
        <time>2019-09-13T13:31:00Z</time>
      </trkpt>
      <trkpt lat="45.34567" lon="6.70091">
        <ele>1714.65</ele>
        <time>2019-09-13T13:31:20Z</time>
      </trkpt>
      <trkpt lat="45.34581" lon="6.70098">
        <ele>1713.69</ele>
        <time>2019-09-13T13:31:31Z</time>
      </trkpt>
      <trkpt lat="45.34591" lon="6.701">
        <ele>1713.21</ele>
        <time>2019-09-13T13:31:39Z</time>
      </trkpt>
      <trkpt lat="45.34617" lon="6.70118">
        <ele>1716.57</ele>
        <time>2019-09-13T13:32:01Z</time>
      </trkpt>
      <trkpt lat="45.3463" lon="6.70129">
        <ele>1715.61</ele>
        <time>2019-09-13T13:32:12Z</time>
      </trkpt>
      <trkpt lat="45.34634" lon="6.70131">
        <ele>1715.13</ele>
        <time>2019-09-13T13:32:15Z</time>
      </trkpt>
      <trkpt lat="45.34638" lon="6.70136">
        <ele>1715.13</ele>
        <time>2019-09-13T13:32:19Z</time>
      </trkpt>
      <trkpt lat="45.34641" lon="6.70137">
        <ele>1716.09</ele>
        <time>2019-09-13T13:32:21Z</time>
      </trkpt>
      <trkpt lat="45.34648" lon="6.70143">
        <ele>1715.61</ele>
        <time>2019-09-13T13:32:27Z</time>
      </trkpt>
      <trkpt lat="45.34662" lon="6.70155">
        <ele>1715.61</ele>
        <time>2019-09-13T13:32:39Z</time>
      </trkpt>
      <trkpt lat="45.3467" lon="6.70163">
        <ele>1716.57</ele>
        <time>2019-09-13T13:32:46Z</time>
      </trkpt>
      <trkpt lat="45.34679" lon="6.70168">
        <ele>1716.57</ele>
        <time>2019-09-13T13:32:53Z</time>
      </trkpt>
      <trkpt lat="45.34682" lon="6.70165">
        <ele>1714.65</ele>
        <time>2019-09-13T13:32:56Z</time>
      </trkpt>
      <trkpt lat="45.34687" lon="6.70145">
        <ele>1710.32</ele>
        <time>2019-09-13T13:33:11Z</time>
      </trkpt>
      <trkpt lat="45.3468" lon="6.70133">
        <ele>1711.76</ele>
        <time>2019-09-13T13:33:30Z</time>
      </trkpt>
      <trkpt lat="45.3468" lon="6.7013">
        <ele>1713.21</ele>
        <time>2019-09-13T13:33:48Z</time>
      </trkpt>
      <trkpt lat="45.34681" lon="6.70129">
        <ele>1712.25</ele>
        <time>2019-09-13T13:35:03Z</time>
      </trkpt>
    </trkseg>
  </trk>
</gpx>